<?xml version="1.0" encoding="UTF-8" standalone="no" ?>
<gpx xmlns="http://www.topografix.com/GPX/1/1" xmlns:xsi="http://www.w3.org/2001/XMLSchema-instance" xsi:schemaLocation="http://www.topografix.com/GPX/1/1 http://www.topografix.com/GPX/1/1/gpx.xsd" version="1.1" creator="VisuGPX - https://www.visugpx.com">
  <metadata>
    <name>Boucle Moures-Tuc de la coume -col viele morte</name>
    <desc><![CDATA[Boucle partant du village de moures-Tuc de la coume et retour par le col de viele-morte]]></desc>
  </metadata>
  <trk>
    <name><![CDATA[ACTIVE LOG]]></name>
    <trkseg>
      <trkpt lat="42.88076" lon="1.307">
        <ele>759.098145</ele>
        <time>2011-01-08T10:25:28Z</time>
      </trkpt>
      <trkpt lat="42.88085" lon="1.30704">
        <ele>758.136963</ele>
        <time>2011-01-08T10:34:22Z</time>
      </trkpt>
      <trkpt lat="42.88081" lon="1.30719">
        <ele>758.136963</ele>
        <time>2011-01-08T10:34:38Z</time>
      </trkpt>
      <trkpt lat="42.88069" lon="1.30723">
        <ele>757.65625</ele>
        <time>2011-01-08T10:34:52Z</time>
      </trkpt>
      <trkpt lat="42.88064" lon="1.30718">
        <ele>757.65625</ele>
        <time>2011-01-08T10:35:16Z</time>
      </trkpt>
      <trkpt lat="42.88059" lon="1.30727">
        <ele>752.368896</ele>
        <time>2011-01-08T10:35:49Z</time>
      </trkpt>
      <trkpt lat="42.88053" lon="1.30743">
        <ele>749.004395</ele>
        <time>2011-01-08T10:36:00Z</time>
      </trkpt>
      <trkpt lat="42.88045" lon="1.30752">
        <ele>745.639648</ele>
        <time>2011-01-08T10:36:11Z</time>
      </trkpt>
      <trkpt lat="42.88035" lon="1.30766">
        <ele>741.794434</ele>
        <time>2011-01-08T10:36:31Z</time>
      </trkpt>
      <trkpt lat="42.88027" lon="1.30761">
        <ele>736.987793</ele>
        <time>2011-01-08T10:36:55Z</time>
      </trkpt>
      <trkpt lat="42.88019" lon="1.30764">
        <ele>733.623291</ele>
        <time>2011-01-08T10:37:08Z</time>
      </trkpt>
      <trkpt lat="42.88012" lon="1.30754">
        <ele>732.181396</ele>
        <time>2011-01-08T10:37:19Z</time>
      </trkpt>
      <trkpt lat="42.88006" lon="1.30734">
        <ele>729.777832</ele>
        <time>2011-01-08T10:37:38Z</time>
      </trkpt>
      <trkpt lat="42.8801" lon="1.30722">
        <ele>727.855225</ele>
        <time>2011-01-08T10:38:06Z</time>
      </trkpt>
      <trkpt lat="42.88001" lon="1.30703">
        <ele>727.855225</ele>
        <time>2011-01-08T10:38:26Z</time>
      </trkpt>
      <trkpt lat="42.88001" lon="1.30683">
        <ele>724.971436</ele>
        <time>2011-01-08T10:38:42Z</time>
      </trkpt>
      <trkpt lat="42.87995" lon="1.30677">
        <ele>725.451904</ele>
        <time>2011-01-08T10:39:06Z</time>
      </trkpt>
      <trkpt lat="42.8798" lon="1.3068">
        <ele>726.894043</ele>
        <time>2011-01-08T10:39:22Z</time>
      </trkpt>
      <trkpt lat="42.87982" lon="1.30694">
        <ele>728.81665</ele>
        <time>2011-01-08T10:39:46Z</time>
      </trkpt>
      <trkpt lat="42.87987" lon="1.30686">
        <ele>730.739258</ele>
        <time>2011-01-08T10:39:58Z</time>
      </trkpt>
      <trkpt lat="42.87986" lon="1.30682">
        <ele>733.623291</ele>
        <time>2011-01-08T10:40:13Z</time>
      </trkpt>
      <trkpt lat="42.87984" lon="1.30667">
        <ele>737.949219</ele>
        <time>2011-01-08T10:40:37Z</time>
      </trkpt>
      <trkpt lat="42.87961" lon="1.3064">
        <ele>744.678223</ele>
        <time>2011-01-08T10:41:20Z</time>
      </trkpt>
      <trkpt lat="42.87951" lon="1.30622">
        <ele>748.043213</ele>
        <time>2011-01-08T10:41:40Z</time>
      </trkpt>
      <trkpt lat="42.87933" lon="1.30601">
        <ele>753.330322</ele>
        <time>2011-01-08T10:42:06Z</time>
      </trkpt>
      <trkpt lat="42.87917" lon="1.30577">
        <ele>761.020752</ele>
        <time>2011-01-08T10:43:01Z</time>
      </trkpt>
      <trkpt lat="42.879" lon="1.3059">
        <ele>763.424072</ele>
        <time>2011-01-08T10:43:20Z</time>
      </trkpt>
      <trkpt lat="42.87883" lon="1.30582">
        <ele>763.904541</ele>
        <time>2011-01-08T10:43:43Z</time>
      </trkpt>
      <trkpt lat="42.87868" lon="1.30575">
        <ele>765.827637</ele>
        <time>2011-01-08T10:44:17Z</time>
      </trkpt>
      <trkpt lat="42.87852" lon="1.30561">
        <ele>766.308105</ele>
        <time>2011-01-08T10:44:35Z</time>
      </trkpt>
      <trkpt lat="42.87841" lon="1.30557">
        <ele>768.230713</ele>
        <time>2011-01-08T10:45:01Z</time>
      </trkpt>
      <trkpt lat="42.8783" lon="1.30548">
        <ele>770.634033</ele>
        <time>2011-01-08T10:45:19Z</time>
      </trkpt>
      <trkpt lat="42.87817" lon="1.30527">
        <ele>773.998535</ele>
        <time>2011-01-08T10:45:54Z</time>
      </trkpt>
      <trkpt lat="42.87802" lon="1.30518">
        <ele>776.882568</ele>
        <time>2011-01-08T10:46:13Z</time>
      </trkpt>
      <trkpt lat="42.87789" lon="1.30502">
        <ele>778.805176</ele>
        <time>2011-01-08T10:46:31Z</time>
      </trkpt>
      <trkpt lat="42.87776" lon="1.3049">
        <ele>781.689209</ele>
        <time>2011-01-08T10:46:50Z</time>
      </trkpt>
      <trkpt lat="42.87759" lon="1.30495">
        <ele>782.650635</ele>
        <time>2011-01-08T10:47:09Z</time>
      </trkpt>
      <trkpt lat="42.87743" lon="1.30491">
        <ele>784.573242</ele>
        <time>2011-01-08T10:47:25Z</time>
      </trkpt>
      <trkpt lat="42.87729" lon="1.3048">
        <ele>787.457031</ele>
        <time>2011-01-08T10:47:43Z</time>
      </trkpt>
      <trkpt lat="42.87717" lon="1.30475">
        <ele>789.860352</ele>
        <time>2011-01-08T10:47:57Z</time>
      </trkpt>
      <trkpt lat="42.87705" lon="1.3047">
        <ele>792.263672</ele>
        <time>2011-01-08T10:48:27Z</time>
      </trkpt>
      <trkpt lat="42.87695" lon="1.30481">
        <ele>791.302246</ele>
        <time>2011-01-08T10:49:58Z</time>
      </trkpt>
      <trkpt lat="42.87695" lon="1.30478">
        <ele>791.782959</ele>
        <time>2011-01-08T10:50:21Z</time>
      </trkpt>
      <trkpt lat="42.87687" lon="1.30492">
        <ele>790.821533</ele>
        <time>2011-01-08T10:50:37Z</time>
      </trkpt>
      <trkpt lat="42.87677" lon="1.30503">
        <ele>791.302246</ele>
        <time>2011-01-08T10:50:48Z</time>
      </trkpt>
      <trkpt lat="42.87669" lon="1.30517">
        <ele>791.782959</ele>
        <time>2011-01-08T10:51:00Z</time>
      </trkpt>
      <trkpt lat="42.87663" lon="1.30528">
        <ele>792.263672</ele>
        <time>2011-01-08T10:51:13Z</time>
      </trkpt>
      <trkpt lat="42.87656" lon="1.3054">
        <ele>792.263672</ele>
        <time>2011-01-08T10:51:26Z</time>
      </trkpt>
      <trkpt lat="42.87643" lon="1.30559">
        <ele>794.186279</ele>
        <time>2011-01-08T10:51:45Z</time>
      </trkpt>
      <trkpt lat="42.87634" lon="1.3057">
        <ele>795.628174</ele>
        <time>2011-01-08T10:51:57Z</time>
      </trkpt>
      <trkpt lat="42.87622" lon="1.30582">
        <ele>796.589844</ele>
        <time>2011-01-08T10:52:07Z</time>
      </trkpt>
      <trkpt lat="42.87608" lon="1.30585">
        <ele>798.031738</ele>
        <time>2011-01-08T10:52:17Z</time>
      </trkpt>
      <trkpt lat="42.87597" lon="1.30588">
        <ele>798.99292</ele>
        <time>2011-01-08T10:52:26Z</time>
      </trkpt>
      <trkpt lat="42.87588" lon="1.30586">
        <ele>800.435059</ele>
        <time>2011-01-08T10:52:35Z</time>
      </trkpt>
      <trkpt lat="42.87576" lon="1.30581">
        <ele>800.915527</ele>
        <time>2011-01-08T10:52:48Z</time>
      </trkpt>
      <trkpt lat="42.87565" lon="1.30583">
        <ele>802.838135</ele>
        <time>2011-01-08T10:53:00Z</time>
      </trkpt>
      <trkpt lat="42.87549" lon="1.30576">
        <ele>803.799561</ele>
        <time>2011-01-08T10:53:11Z</time>
      </trkpt>
      <trkpt lat="42.87536" lon="1.30584">
        <ele>804.280273</ele>
        <time>2011-01-08T10:53:25Z</time>
      </trkpt>
      <trkpt lat="42.87523" lon="1.30587">
        <ele>805.722168</ele>
        <time>2011-01-08T10:53:40Z</time>
      </trkpt>
      <trkpt lat="42.8751" lon="1.30594">
        <ele>806.202637</ele>
        <time>2011-01-08T10:53:56Z</time>
      </trkpt>
      <trkpt lat="42.87494" lon="1.30598">
        <ele>807.644775</ele>
        <time>2011-01-08T10:54:13Z</time>
      </trkpt>
      <trkpt lat="42.87476" lon="1.30574">
        <ele>810.528564</ele>
        <time>2011-01-08T10:54:24Z</time>
      </trkpt>
      <trkpt lat="42.8748" lon="1.30558">
        <ele>810.528564</ele>
        <time>2011-01-08T10:54:34Z</time>
      </trkpt>
      <trkpt lat="42.87488" lon="1.30545">
        <ele>811.48999</ele>
        <time>2011-01-08T10:54:46Z</time>
      </trkpt>
      <trkpt lat="42.87497" lon="1.30536">
        <ele>813.893311</ele>
        <time>2011-01-08T10:54:58Z</time>
      </trkpt>
      <trkpt lat="42.87502" lon="1.30526">
        <ele>814.854736</ele>
        <time>2011-01-08T10:55:10Z</time>
      </trkpt>
      <trkpt lat="42.87507" lon="1.30514">
        <ele>815.816162</ele>
        <time>2011-01-08T10:55:20Z</time>
      </trkpt>
      <trkpt lat="42.87514" lon="1.30503">
        <ele>817.258057</ele>
        <time>2011-01-08T10:55:29Z</time>
      </trkpt>
      <trkpt lat="42.87511" lon="1.30502">
        <ele>818.699951</ele>
        <time>2011-01-08T10:55:42Z</time>
      </trkpt>
      <trkpt lat="42.87495" lon="1.30512">
        <ele>817.258057</ele>
        <time>2011-01-08T10:55:53Z</time>
      </trkpt>
      <trkpt lat="42.87482" lon="1.30518">
        <ele>817.258057</ele>
        <time>2011-01-08T10:56:00Z</time>
      </trkpt>
      <trkpt lat="42.87473" lon="1.30524">
        <ele>816.777344</ele>
        <time>2011-01-08T10:56:08Z</time>
      </trkpt>
      <trkpt lat="42.87457" lon="1.30527">
        <ele>816.777344</ele>
        <time>2011-01-08T10:56:19Z</time>
      </trkpt>
      <trkpt lat="42.87448" lon="1.30543">
        <ele>816.296631</ele>
        <time>2011-01-08T10:56:32Z</time>
      </trkpt>
      <trkpt lat="42.8744" lon="1.30557">
        <ele>815.816162</ele>
        <time>2011-01-08T10:56:44Z</time>
      </trkpt>
      <trkpt lat="42.87428" lon="1.3058">
        <ele>816.296631</ele>
        <time>2011-01-08T10:56:59Z</time>
      </trkpt>
      <trkpt lat="42.87419" lon="1.30598">
        <ele>815.335449</ele>
        <time>2011-01-08T10:57:08Z</time>
      </trkpt>
      <trkpt lat="42.87413" lon="1.30612">
        <ele>815.335449</ele>
        <time>2011-01-08T10:57:16Z</time>
      </trkpt>
      <trkpt lat="42.87408" lon="1.30625">
        <ele>814.374023</ele>
        <time>2011-01-08T10:57:24Z</time>
      </trkpt>
      <trkpt lat="42.87398" lon="1.3063">
        <ele>815.335449</ele>
        <time>2011-01-08T10:57:33Z</time>
      </trkpt>
      <trkpt lat="42.87391" lon="1.30637">
        <ele>815.335449</ele>
        <time>2011-01-08T10:57:43Z</time>
      </trkpt>
      <trkpt lat="42.87379" lon="1.30637">
        <ele>815.335449</ele>
        <time>2011-01-08T10:57:54Z</time>
      </trkpt>
      <trkpt lat="42.87367" lon="1.30649">
        <ele>815.335449</ele>
        <time>2011-01-08T10:58:04Z</time>
      </trkpt>
      <trkpt lat="42.87356" lon="1.30663">
        <ele>815.335449</ele>
        <time>2011-01-08T10:58:13Z</time>
      </trkpt>
      <trkpt lat="42.87341" lon="1.30669">
        <ele>815.816162</ele>
        <time>2011-01-08T10:58:22Z</time>
      </trkpt>
      <trkpt lat="42.8733" lon="1.30667">
        <ele>815.816162</ele>
        <time>2011-01-08T10:58:32Z</time>
      </trkpt>
      <trkpt lat="42.8732" lon="1.30662">
        <ele>815.335449</ele>
        <time>2011-01-08T10:58:41Z</time>
      </trkpt>
      <trkpt lat="42.87309" lon="1.30656">
        <ele>815.816162</ele>
        <time>2011-01-08T10:58:49Z</time>
      </trkpt>
      <trkpt lat="42.87292" lon="1.30654">
        <ele>815.335449</ele>
        <time>2011-01-08T10:59:00Z</time>
      </trkpt>
      <trkpt lat="42.87279" lon="1.30658">
        <ele>815.816162</ele>
        <time>2011-01-08T10:59:11Z</time>
      </trkpt>
      <trkpt lat="42.87268" lon="1.30657">
        <ele>816.777344</ele>
        <time>2011-01-08T10:59:20Z</time>
      </trkpt>
      <trkpt lat="42.8725" lon="1.30665">
        <ele>816.296631</ele>
        <time>2011-01-08T10:59:33Z</time>
      </trkpt>
      <trkpt lat="42.87237" lon="1.30685">
        <ele>815.816162</ele>
        <time>2011-01-08T10:59:43Z</time>
      </trkpt>
      <trkpt lat="42.87233" lon="1.30699">
        <ele>816.296631</ele>
        <time>2011-01-08T10:59:52Z</time>
      </trkpt>
      <trkpt lat="42.87233" lon="1.30707">
        <ele>816.777344</ele>
        <time>2011-01-08T11:00:01Z</time>
      </trkpt>
      <trkpt lat="42.87223" lon="1.30724">
        <ele>816.296631</ele>
        <time>2011-01-08T11:00:16Z</time>
      </trkpt>
      <trkpt lat="42.87212" lon="1.30728">
        <ele>816.296631</ele>
        <time>2011-01-08T11:00:24Z</time>
      </trkpt>
      <trkpt lat="42.872" lon="1.30726">
        <ele>816.296631</ele>
        <time>2011-01-08T11:00:42Z</time>
      </trkpt>
      <trkpt lat="42.87192" lon="1.3072">
        <ele>815.816162</ele>
        <time>2011-01-08T11:00:50Z</time>
      </trkpt>
      <trkpt lat="42.87189" lon="1.30713">
        <ele>816.777344</ele>
        <time>2011-01-08T11:01:02Z</time>
      </trkpt>
      <trkpt lat="42.87178" lon="1.30707">
        <ele>816.296631</ele>
        <time>2011-01-08T11:01:12Z</time>
      </trkpt>
      <trkpt lat="42.87168" lon="1.307">
        <ele>815.816162</ele>
        <time>2011-01-08T11:01:20Z</time>
      </trkpt>
      <trkpt lat="42.87156" lon="1.30698">
        <ele>816.296631</ele>
        <time>2011-01-08T11:01:29Z</time>
      </trkpt>
      <trkpt lat="42.87144" lon="1.307">
        <ele>815.816162</ele>
        <time>2011-01-08T11:01:37Z</time>
      </trkpt>
      <trkpt lat="42.8714" lon="1.30708">
        <ele>816.296631</ele>
        <time>2011-01-08T11:02:05Z</time>
      </trkpt>
      <trkpt lat="42.87134" lon="1.30698">
        <ele>814.854736</ele>
        <time>2011-01-08T11:03:36Z</time>
      </trkpt>
      <trkpt lat="42.87129" lon="1.30706">
        <ele>814.374023</ele>
        <time>2011-01-08T11:04:16Z</time>
      </trkpt>
      <trkpt lat="42.8712" lon="1.30711">
        <ele>813.893311</ele>
        <time>2011-01-08T11:04:30Z</time>
      </trkpt>
      <trkpt lat="42.87113" lon="1.30711">
        <ele>813.893311</ele>
        <time>2011-01-08T11:04:38Z</time>
      </trkpt>
      <trkpt lat="42.87103" lon="1.30709">
        <ele>813.893311</ele>
        <time>2011-01-08T11:04:48Z</time>
      </trkpt>
      <trkpt lat="42.87091" lon="1.3071">
        <ele>813.412842</ele>
        <time>2011-01-08T11:04:55Z</time>
      </trkpt>
      <trkpt lat="42.87084" lon="1.30711">
        <ele>813.412842</ele>
        <time>2011-01-08T11:05:23Z</time>
      </trkpt>
      <trkpt lat="42.87074" lon="1.30709">
        <ele>813.412842</ele>
        <time>2011-01-08T11:05:31Z</time>
      </trkpt>
      <trkpt lat="42.87064" lon="1.30704">
        <ele>813.893311</ele>
        <time>2011-01-08T11:05:39Z</time>
      </trkpt>
      <trkpt lat="42.87053" lon="1.30706">
        <ele>814.374023</ele>
        <time>2011-01-08T11:05:47Z</time>
      </trkpt>
      <trkpt lat="42.8704" lon="1.30694">
        <ele>814.854736</ele>
        <time>2011-01-08T11:05:59Z</time>
      </trkpt>
      <trkpt lat="42.8703" lon="1.30688">
        <ele>813.893311</ele>
        <time>2011-01-08T11:06:09Z</time>
      </trkpt>
      <trkpt lat="42.87018" lon="1.30683">
        <ele>813.893311</ele>
        <time>2011-01-08T11:06:19Z</time>
      </trkpt>
      <trkpt lat="42.87005" lon="1.30675">
        <ele>813.412842</ele>
        <time>2011-01-08T11:06:56Z</time>
      </trkpt>
      <trkpt lat="42.86996" lon="1.3068">
        <ele>814.374023</ele>
        <time>2011-01-08T11:07:04Z</time>
      </trkpt>
      <trkpt lat="42.86985" lon="1.30708">
        <ele>813.412842</ele>
        <time>2011-01-08T11:07:11Z</time>
      </trkpt>
      <trkpt lat="42.86988" lon="1.30719">
        <ele>813.893311</ele>
        <time>2011-01-08T11:07:18Z</time>
      </trkpt>
      <trkpt lat="42.86982" lon="1.30755">
        <ele>814.374023</ele>
        <time>2011-01-08T11:07:31Z</time>
      </trkpt>
      <trkpt lat="42.86967" lon="1.30767">
        <ele>813.412842</ele>
        <time>2011-01-08T11:07:43Z</time>
      </trkpt>
      <trkpt lat="42.86962" lon="1.30785">
        <ele>812.932129</ele>
        <time>2011-01-08T11:07:54Z</time>
      </trkpt>
      <trkpt lat="42.86959" lon="1.30794">
        <ele>811.48999</ele>
        <time>2011-01-08T11:08:10Z</time>
      </trkpt>
      <trkpt lat="42.86958" lon="1.30819">
        <ele>809.567383</ele>
        <time>2011-01-08T11:08:25Z</time>
      </trkpt>
      <trkpt lat="42.86954" lon="1.3084">
        <ele>809.08667</ele>
        <time>2011-01-08T11:08:38Z</time>
      </trkpt>
      <trkpt lat="42.86947" lon="1.30854">
        <ele>809.567383</ele>
        <time>2011-01-08T11:08:47Z</time>
      </trkpt>
      <trkpt lat="42.86935" lon="1.30877">
        <ele>807.644775</ele>
        <time>2011-01-08T11:08:56Z</time>
      </trkpt>
      <trkpt lat="42.86928" lon="1.30887">
        <ele>807.164063</ele>
        <time>2011-01-08T11:09:05Z</time>
      </trkpt>
      <trkpt lat="42.86919" lon="1.30891">
        <ele>807.644775</ele>
        <time>2011-01-08T11:09:14Z</time>
      </trkpt>
      <trkpt lat="42.86906" lon="1.30896">
        <ele>806.68335</ele>
        <time>2011-01-08T11:09:24Z</time>
      </trkpt>
      <trkpt lat="42.86898" lon="1.30894">
        <ele>805.722168</ele>
        <time>2011-01-08T11:09:34Z</time>
      </trkpt>
      <trkpt lat="42.86886" lon="1.30903">
        <ele>805.722168</ele>
        <time>2011-01-08T11:09:42Z</time>
      </trkpt>
      <trkpt lat="42.86876" lon="1.3091">
        <ele>805.241455</ele>
        <time>2011-01-08T11:09:48Z</time>
      </trkpt>
      <trkpt lat="42.86877" lon="1.30918">
        <ele>805.241455</ele>
        <time>2011-01-08T11:10:00Z</time>
      </trkpt>
      <trkpt lat="42.86872" lon="1.30936">
        <ele>804.760742</ele>
        <time>2011-01-08T11:10:10Z</time>
      </trkpt>
      <trkpt lat="42.86868" lon="1.30948">
        <ele>805.722168</ele>
        <time>2011-01-08T11:10:17Z</time>
      </trkpt>
      <trkpt lat="42.86866" lon="1.30962">
        <ele>805.241455</ele>
        <time>2011-01-08T11:10:30Z</time>
      </trkpt>
      <trkpt lat="42.86864" lon="1.30978">
        <ele>802.838135</ele>
        <time>2011-01-08T11:10:39Z</time>
      </trkpt>
      <trkpt lat="42.86855" lon="1.30991">
        <ele>803.318848</ele>
        <time>2011-01-08T11:10:48Z</time>
      </trkpt>
      <trkpt lat="42.86847" lon="1.31011">
        <ele>803.799561</ele>
        <time>2011-01-08T11:11:00Z</time>
      </trkpt>
      <trkpt lat="42.86838" lon="1.31035">
        <ele>803.799561</ele>
        <time>2011-01-08T11:11:18Z</time>
      </trkpt>
      <trkpt lat="42.8683" lon="1.31044">
        <ele>803.318848</ele>
        <time>2011-01-08T11:11:26Z</time>
      </trkpt>
      <trkpt lat="42.86821" lon="1.31053">
        <ele>801.876953</ele>
        <time>2011-01-08T11:11:36Z</time>
      </trkpt>
      <trkpt lat="42.86809" lon="1.3106">
        <ele>802.838135</ele>
        <time>2011-01-08T11:11:46Z</time>
      </trkpt>
      <trkpt lat="42.86798" lon="1.31063">
        <ele>802.838135</ele>
        <time>2011-01-08T11:11:55Z</time>
      </trkpt>
      <trkpt lat="42.86786" lon="1.31081">
        <ele>803.318848</ele>
        <time>2011-01-08T11:12:06Z</time>
      </trkpt>
      <trkpt lat="42.86791" lon="1.31097">
        <ele>802.357422</ele>
        <time>2011-01-08T11:12:15Z</time>
      </trkpt>
      <trkpt lat="42.86785" lon="1.3111">
        <ele>800.915527</ele>
        <time>2011-01-08T11:12:30Z</time>
      </trkpt>
      <trkpt lat="42.8679" lon="1.31109">
        <ele>803.318848</ele>
        <time>2011-01-08T11:12:52Z</time>
      </trkpt>
      <trkpt lat="42.86799" lon="1.31107">
        <ele>803.318848</ele>
        <time>2011-01-08T11:13:00Z</time>
      </trkpt>
      <trkpt lat="42.86812" lon="1.3111">
        <ele>804.760742</ele>
        <time>2011-01-08T11:13:11Z</time>
      </trkpt>
      <trkpt lat="42.86824" lon="1.31119">
        <ele>806.202637</ele>
        <time>2011-01-08T11:13:22Z</time>
      </trkpt>
      <trkpt lat="42.86833" lon="1.31118">
        <ele>808.125488</ele>
        <time>2011-01-08T11:13:32Z</time>
      </trkpt>
      <trkpt lat="42.86846" lon="1.31118">
        <ele>810.528564</ele>
        <time>2011-01-08T11:13:47Z</time>
      </trkpt>
      <trkpt lat="42.86863" lon="1.31121">
        <ele>812.451416</ele>
        <time>2011-01-08T11:13:59Z</time>
      </trkpt>
      <trkpt lat="42.86874" lon="1.31128">
        <ele>814.854736</ele>
        <time>2011-01-08T11:14:12Z</time>
      </trkpt>
      <trkpt lat="42.86885" lon="1.31134">
        <ele>816.296631</ele>
        <time>2011-01-08T11:14:22Z</time>
      </trkpt>
      <trkpt lat="42.86892" lon="1.31145">
        <ele>818.219238</ele>
        <time>2011-01-08T11:14:32Z</time>
      </trkpt>
      <trkpt lat="42.86898" lon="1.31163">
        <ele>820.141846</ele>
        <time>2011-01-08T11:14:44Z</time>
      </trkpt>
      <trkpt lat="42.86908" lon="1.31168">
        <ele>821.58374</ele>
        <time>2011-01-08T11:14:55Z</time>
      </trkpt>
      <trkpt lat="42.86921" lon="1.31168">
        <ele>823.025879</ele>
        <time>2011-01-08T11:15:09Z</time>
      </trkpt>
      <trkpt lat="42.86936" lon="1.31165">
        <ele>826.390381</ele>
        <time>2011-01-08T11:15:23Z</time>
      </trkpt>
      <trkpt lat="42.86947" lon="1.31169">
        <ele>827.351807</ele>
        <time>2011-01-08T11:15:34Z</time>
      </trkpt>
      <trkpt lat="42.86942" lon="1.31182">
        <ele>830.23584</ele>
        <time>2011-01-08T11:15:46Z</time>
      </trkpt>
      <trkpt lat="42.8693" lon="1.31186">
        <ele>831.197266</ele>
        <time>2011-01-08T11:15:58Z</time>
      </trkpt>
      <trkpt lat="42.86923" lon="1.31202">
        <ele>834.561768</ele>
        <time>2011-01-08T11:16:11Z</time>
      </trkpt>
      <trkpt lat="42.86919" lon="1.31218">
        <ele>836.484375</ele>
        <time>2011-01-08T11:16:21Z</time>
      </trkpt>
      <trkpt lat="42.86919" lon="1.31231">
        <ele>836.964844</ele>
        <time>2011-01-08T11:16:32Z</time>
      </trkpt>
      <trkpt lat="42.86914" lon="1.31244">
        <ele>838.887695</ele>
        <time>2011-01-08T11:16:44Z</time>
      </trkpt>
      <trkpt lat="42.86898" lon="1.31241">
        <ele>841.290771</ele>
        <time>2011-01-08T11:16:56Z</time>
      </trkpt>
      <trkpt lat="42.86891" lon="1.31227">
        <ele>843.213379</ele>
        <time>2011-01-08T11:17:08Z</time>
      </trkpt>
      <trkpt lat="42.8688" lon="1.31226">
        <ele>844.655518</ele>
        <time>2011-01-08T11:17:20Z</time>
      </trkpt>
      <trkpt lat="42.86871" lon="1.31224">
        <ele>846.097656</ele>
        <time>2011-01-08T11:17:37Z</time>
      </trkpt>
      <trkpt lat="42.86859" lon="1.3122">
        <ele>847.539551</ele>
        <time>2011-01-08T11:17:58Z</time>
      </trkpt>
      <trkpt lat="42.8685" lon="1.31224">
        <ele>849.462158</ele>
        <time>2011-01-08T11:18:08Z</time>
      </trkpt>
      <trkpt lat="42.8684" lon="1.31231">
        <ele>850.423584</ele>
        <time>2011-01-08T11:18:18Z</time>
      </trkpt>
      <trkpt lat="42.86832" lon="1.31237">
        <ele>851.865479</ele>
        <time>2011-01-08T11:18:27Z</time>
      </trkpt>
      <trkpt lat="42.86822" lon="1.3124">
        <ele>851.865479</ele>
        <time>2011-01-08T11:18:36Z</time>
      </trkpt>
      <trkpt lat="42.86816" lon="1.3125">
        <ele>854.749268</ele>
        <time>2011-01-08T11:18:45Z</time>
      </trkpt>
      <trkpt lat="42.86808" lon="1.31258">
        <ele>855.710693</ele>
        <time>2011-01-08T11:18:54Z</time>
      </trkpt>
      <trkpt lat="42.868" lon="1.31264">
        <ele>856.671875</ele>
        <time>2011-01-08T11:19:07Z</time>
      </trkpt>
      <trkpt lat="42.86789" lon="1.31267">
        <ele>857.152588</ele>
        <time>2011-01-08T11:19:16Z</time>
      </trkpt>
      <trkpt lat="42.86779" lon="1.31266">
        <ele>857.633301</ele>
        <time>2011-01-08T11:19:25Z</time>
      </trkpt>
      <trkpt lat="42.86767" lon="1.31267">
        <ele>858.114014</ele>
        <time>2011-01-08T11:19:35Z</time>
      </trkpt>
      <trkpt lat="42.86754" lon="1.31267">
        <ele>859.555908</ele>
        <time>2011-01-08T11:19:44Z</time>
      </trkpt>
      <trkpt lat="42.86746" lon="1.31278">
        <ele>858.114014</ele>
        <time>2011-01-08T11:19:52Z</time>
      </trkpt>
      <trkpt lat="42.86739" lon="1.31292">
        <ele>859.075195</ele>
        <time>2011-01-08T11:20:00Z</time>
      </trkpt>
      <trkpt lat="42.86738" lon="1.31311">
        <ele>859.075195</ele>
        <time>2011-01-08T11:20:08Z</time>
      </trkpt>
      <trkpt lat="42.86732" lon="1.31321">
        <ele>860.036621</ele>
        <time>2011-01-08T11:20:15Z</time>
      </trkpt>
      <trkpt lat="42.86726" lon="1.31332">
        <ele>860.036621</ele>
        <time>2011-01-08T11:20:23Z</time>
      </trkpt>
      <trkpt lat="42.86718" lon="1.31344">
        <ele>859.075195</ele>
        <time>2011-01-08T11:20:31Z</time>
      </trkpt>
      <trkpt lat="42.86709" lon="1.31352">
        <ele>859.555908</ele>
        <time>2011-01-08T11:20:40Z</time>
      </trkpt>
      <trkpt lat="42.86702" lon="1.31364">
        <ele>860.036621</ele>
        <time>2011-01-08T11:20:55Z</time>
      </trkpt>
      <trkpt lat="42.86696" lon="1.31382">
        <ele>860.036621</ele>
        <time>2011-01-08T11:21:08Z</time>
      </trkpt>
      <trkpt lat="42.86698" lon="1.31397">
        <ele>860.036621</ele>
        <time>2011-01-08T11:21:18Z</time>
      </trkpt>
      <trkpt lat="42.86704" lon="1.31412">
        <ele>859.555908</ele>
        <time>2011-01-08T11:21:29Z</time>
      </trkpt>
      <trkpt lat="42.86698" lon="1.31432">
        <ele>860.998047</ele>
        <time>2011-01-08T11:21:55Z</time>
      </trkpt>
      <trkpt lat="42.86689" lon="1.31438">
        <ele>861.959473</ele>
        <time>2011-01-08T11:22:07Z</time>
      </trkpt>
      <trkpt lat="42.86676" lon="1.31439">
        <ele>863.881836</ele>
        <time>2011-01-08T11:22:20Z</time>
      </trkpt>
      <trkpt lat="42.86669" lon="1.31437">
        <ele>865.804688</ele>
        <time>2011-01-08T11:22:32Z</time>
      </trkpt>
      <trkpt lat="42.86656" lon="1.31435">
        <ele>867.727051</ele>
        <time>2011-01-08T11:22:42Z</time>
      </trkpt>
      <trkpt lat="42.86644" lon="1.3144">
        <ele>869.649902</ele>
        <time>2011-01-08T11:22:53Z</time>
      </trkpt>
      <trkpt lat="42.86645" lon="1.31451">
        <ele>871.091797</ele>
        <time>2011-01-08T11:23:07Z</time>
      </trkpt>
      <trkpt lat="42.86653" lon="1.31462">
        <ele>873.495117</ele>
        <time>2011-01-08T11:23:21Z</time>
      </trkpt>
      <trkpt lat="42.86663" lon="1.3147">
        <ele>875.41748</ele>
        <time>2011-01-08T11:23:32Z</time>
      </trkpt>
      <trkpt lat="42.86669" lon="1.31482">
        <ele>877.340576</ele>
        <time>2011-01-08T11:23:43Z</time>
      </trkpt>
      <trkpt lat="42.86677" lon="1.31494">
        <ele>879.262939</ele>
        <time>2011-01-08T11:23:55Z</time>
      </trkpt>
      <trkpt lat="42.86687" lon="1.31503">
        <ele>880.705078</ele>
        <time>2011-01-08T11:24:06Z</time>
      </trkpt>
      <trkpt lat="42.86694" lon="1.31514">
        <ele>883.108154</ele>
        <time>2011-01-08T11:24:18Z</time>
      </trkpt>
      <trkpt lat="42.86701" lon="1.31522">
        <ele>884.06958</ele>
        <time>2011-01-08T11:24:29Z</time>
      </trkpt>
      <trkpt lat="42.86715" lon="1.31536">
        <ele>886.953369</ele>
        <time>2011-01-08T11:24:44Z</time>
      </trkpt>
      <trkpt lat="42.86727" lon="1.31542">
        <ele>888.395508</ele>
        <time>2011-01-08T11:24:59Z</time>
      </trkpt>
      <trkpt lat="42.86741" lon="1.31545">
        <ele>889.837402</ele>
        <time>2011-01-08T11:25:12Z</time>
      </trkpt>
      <trkpt lat="42.86751" lon="1.31556">
        <ele>891.279297</ele>
        <time>2011-01-08T11:25:24Z</time>
      </trkpt>
      <trkpt lat="42.86771" lon="1.31566">
        <ele>892.240967</ele>
        <time>2011-01-08T11:25:37Z</time>
      </trkpt>
      <trkpt lat="42.86784" lon="1.31573">
        <ele>894.163574</ele>
        <time>2011-01-08T11:25:49Z</time>
      </trkpt>
      <trkpt lat="42.86797" lon="1.31582">
        <ele>895.605469</ele>
        <time>2011-01-08T11:26:02Z</time>
      </trkpt>
      <trkpt lat="42.86808" lon="1.3159">
        <ele>897.047363</ele>
        <time>2011-01-08T11:26:15Z</time>
      </trkpt>
      <trkpt lat="42.86821" lon="1.31601">
        <ele>897.528076</ele>
        <time>2011-01-08T11:26:29Z</time>
      </trkpt>
      <trkpt lat="42.8683" lon="1.3161">
        <ele>898.969971</ele>
        <time>2011-01-08T11:26:41Z</time>
      </trkpt>
      <trkpt lat="42.86837" lon="1.31617">
        <ele>899.450684</ele>
        <time>2011-01-08T11:26:54Z</time>
      </trkpt>
      <trkpt lat="42.86847" lon="1.31623">
        <ele>900.412109</ele>
        <time>2011-01-08T11:27:04Z</time>
      </trkpt>
      <trkpt lat="42.86854" lon="1.3163">
        <ele>901.854004</ele>
        <time>2011-01-08T11:27:13Z</time>
      </trkpt>
      <trkpt lat="42.86864" lon="1.31633">
        <ele>902.815186</ele>
        <time>2011-01-08T11:27:22Z</time>
      </trkpt>
      <trkpt lat="42.86875" lon="1.31636">
        <ele>903.776611</ele>
        <time>2011-01-08T11:27:33Z</time>
      </trkpt>
      <trkpt lat="42.86881" lon="1.31648">
        <ele>905.699219</ele>
        <time>2011-01-08T11:28:00Z</time>
      </trkpt>
      <trkpt lat="42.86883" lon="1.31642">
        <ele>906.6604</ele>
        <time>2011-01-08T11:30:34Z</time>
      </trkpt>
      <trkpt lat="42.86893" lon="1.31644">
        <ele>906.179688</ele>
        <time>2011-01-08T11:30:49Z</time>
      </trkpt>
      <trkpt lat="42.86901" lon="1.31658">
        <ele>905.218506</ele>
        <time>2011-01-08T11:31:34Z</time>
      </trkpt>
      <trkpt lat="42.86904" lon="1.31669">
        <ele>905.699219</ele>
        <time>2011-01-08T11:31:43Z</time>
      </trkpt>
      <trkpt lat="42.86912" lon="1.3168">
        <ele>905.218506</ele>
        <time>2011-01-08T11:32:02Z</time>
      </trkpt>
      <trkpt lat="42.86923" lon="1.31687">
        <ele>905.699219</ele>
        <time>2011-01-08T11:32:12Z</time>
      </trkpt>
      <trkpt lat="42.86937" lon="1.3169">
        <ele>905.699219</ele>
        <time>2011-01-08T11:32:23Z</time>
      </trkpt>
      <trkpt lat="42.86947" lon="1.31692">
        <ele>905.699219</ele>
        <time>2011-01-08T11:32:33Z</time>
      </trkpt>
      <trkpt lat="42.86957" lon="1.31697">
        <ele>906.6604</ele>
        <time>2011-01-08T11:32:52Z</time>
      </trkpt>
      <trkpt lat="42.86964" lon="1.3171">
        <ele>906.6604</ele>
        <time>2011-01-08T11:33:04Z</time>
      </trkpt>
      <trkpt lat="42.86969" lon="1.31724">
        <ele>906.6604</ele>
        <time>2011-01-08T11:33:13Z</time>
      </trkpt>
      <trkpt lat="42.86975" lon="1.31741">
        <ele>905.699219</ele>
        <time>2011-01-08T11:33:22Z</time>
      </trkpt>
      <trkpt lat="42.86979" lon="1.31762">
        <ele>904.257324</ele>
        <time>2011-01-08T11:33:34Z</time>
      </trkpt>
      <trkpt lat="42.86992" lon="1.31771">
        <ele>902.815186</ele>
        <time>2011-01-08T11:34:18Z</time>
      </trkpt>
      <trkpt lat="42.87007" lon="1.31766">
        <ele>902.334473</ele>
        <time>2011-01-08T11:34:29Z</time>
      </trkpt>
      <trkpt lat="42.87019" lon="1.31764">
        <ele>902.815186</ele>
        <time>2011-01-08T11:34:37Z</time>
      </trkpt>
      <trkpt lat="42.87031" lon="1.31761">
        <ele>903.295898</ele>
        <time>2011-01-08T11:34:46Z</time>
      </trkpt>
      <trkpt lat="42.87045" lon="1.3176">
        <ele>904.737793</ele>
        <time>2011-01-08T11:34:57Z</time>
      </trkpt>
      <trkpt lat="42.87058" lon="1.31765">
        <ele>905.218506</ele>
        <time>2011-01-08T11:35:05Z</time>
      </trkpt>
      <trkpt lat="42.8707" lon="1.31762">
        <ele>906.179688</ele>
        <time>2011-01-08T11:35:14Z</time>
      </trkpt>
      <trkpt lat="42.87081" lon="1.31759">
        <ele>907.621826</ele>
        <time>2011-01-08T11:35:23Z</time>
      </trkpt>
      <trkpt lat="42.87091" lon="1.31754">
        <ele>908.583252</ele>
        <time>2011-01-08T11:35:31Z</time>
      </trkpt>
      <trkpt lat="42.87099" lon="1.31747">
        <ele>909.544678</ele>
        <time>2011-01-08T11:35:40Z</time>
      </trkpt>
      <trkpt lat="42.87107" lon="1.31744">
        <ele>909.544678</ele>
        <time>2011-01-08T11:35:53Z</time>
      </trkpt>
      <trkpt lat="42.87117" lon="1.31752">
        <ele>913.870361</ele>
        <time>2011-01-08T11:36:25Z</time>
      </trkpt>
      <trkpt lat="42.87125" lon="1.31762">
        <ele>917.715576</ele>
        <time>2011-01-08T11:36:40Z</time>
      </trkpt>
      <trkpt lat="42.87132" lon="1.31772">
        <ele>919.638428</ele>
        <time>2011-01-08T11:36:53Z</time>
      </trkpt>
      <trkpt lat="42.87137" lon="1.31781">
        <ele>922.522217</ele>
        <time>2011-01-08T11:37:05Z</time>
      </trkpt>
      <trkpt lat="42.87132" lon="1.31793">
        <ele>924.925781</ele>
        <time>2011-01-08T11:37:20Z</time>
      </trkpt>
      <trkpt lat="42.87143" lon="1.31798">
        <ele>926.848389</ele>
        <time>2011-01-08T11:37:33Z</time>
      </trkpt>
      <trkpt lat="42.87152" lon="1.31807">
        <ele>929.251465</ele>
        <time>2011-01-08T11:37:45Z</time>
      </trkpt>
      <trkpt lat="42.87159" lon="1.31814">
        <ele>931.654785</ele>
        <time>2011-01-08T11:37:57Z</time>
      </trkpt>
      <trkpt lat="42.87166" lon="1.31822">
        <ele>933.577393</ele>
        <time>2011-01-08T11:38:09Z</time>
      </trkpt>
      <trkpt lat="42.87171" lon="1.31828">
        <ele>935.019531</ele>
        <time>2011-01-08T11:38:22Z</time>
      </trkpt>
      <trkpt lat="42.87177" lon="1.31837">
        <ele>938.864746</ele>
        <time>2011-01-08T11:39:00Z</time>
      </trkpt>
      <trkpt lat="42.87185" lon="1.31844">
        <ele>941.268066</ele>
        <time>2011-01-08T11:39:13Z</time>
      </trkpt>
      <trkpt lat="42.87188" lon="1.31857">
        <ele>944.1521</ele>
        <time>2011-01-08T11:39:28Z</time>
      </trkpt>
      <trkpt lat="42.87187" lon="1.31869">
        <ele>947.516602</ele>
        <time>2011-01-08T11:39:42Z</time>
      </trkpt>
      <trkpt lat="42.87185" lon="1.31875">
        <ele>950.881104</ele>
        <time>2011-01-08T11:40:42Z</time>
      </trkpt>
      <trkpt lat="42.87185" lon="1.31884">
        <ele>953.284424</ele>
        <time>2011-01-08T11:41:07Z</time>
      </trkpt>
      <trkpt lat="42.87185" lon="1.31902">
        <ele>956.64917</ele>
        <time>2011-01-08T11:41:22Z</time>
      </trkpt>
      <trkpt lat="42.8718" lon="1.31916">
        <ele>960.494385</ele>
        <time>2011-01-08T11:41:38Z</time>
      </trkpt>
      <trkpt lat="42.87179" lon="1.3193">
        <ele>964.820313</ele>
        <time>2011-01-08T11:41:57Z</time>
      </trkpt>
      <trkpt lat="42.87172" lon="1.31933">
        <ele>966.74292</ele>
        <time>2011-01-08T11:42:32Z</time>
      </trkpt>
      <trkpt lat="42.87168" lon="1.31953">
        <ele>970.588135</ele>
        <time>2011-01-08T11:43:14Z</time>
      </trkpt>
      <trkpt lat="42.87158" lon="1.31965">
        <ele>972.030273</ele>
        <time>2011-01-08T11:43:30Z</time>
      </trkpt>
      <trkpt lat="42.8715" lon="1.31993">
        <ele>973.952881</ele>
        <time>2011-01-08T11:44:08Z</time>
      </trkpt>
      <trkpt lat="42.8715" lon="1.32018">
        <ele>975.875488</ele>
        <time>2011-01-08T11:44:23Z</time>
      </trkpt>
      <trkpt lat="42.87151" lon="1.32034">
        <ele>977.798096</ele>
        <time>2011-01-08T11:44:34Z</time>
      </trkpt>
      <trkpt lat="42.87152" lon="1.32048">
        <ele>979.720703</ele>
        <time>2011-01-08T11:44:50Z</time>
      </trkpt>
      <trkpt lat="42.87141" lon="1.3205">
        <ele>982.604736</ele>
        <time>2011-01-08T11:45:23Z</time>
      </trkpt>
      <trkpt lat="42.87132" lon="1.3207">
        <ele>985.008057</ele>
        <time>2011-01-08T11:45:43Z</time>
      </trkpt>
      <trkpt lat="42.87121" lon="1.32087">
        <ele>988.853516</ele>
        <time>2011-01-08T11:46:02Z</time>
      </trkpt>
      <trkpt lat="42.87113" lon="1.32114">
        <ele>993.659912</ele>
        <time>2011-01-08T11:46:44Z</time>
      </trkpt>
      <trkpt lat="42.87105" lon="1.32125">
        <ele>997.024414</ele>
        <time>2011-01-08T11:47:11Z</time>
      </trkpt>
      <trkpt lat="42.87095" lon="1.3215">
        <ele>1001.831055</ele>
        <time>2011-01-08T11:47:33Z</time>
      </trkpt>
      <trkpt lat="42.8709" lon="1.32162">
        <ele>1005.195801</ele>
        <time>2011-01-08T11:47:52Z</time>
      </trkpt>
      <trkpt lat="42.871" lon="1.32168">
        <ele>1009.521729</ele>
        <time>2011-01-08T11:48:11Z</time>
      </trkpt>
      <trkpt lat="42.87113" lon="1.32167">
        <ele>1013.847412</ele>
        <time>2011-01-08T11:49:28Z</time>
      </trkpt>
      <trkpt lat="42.87123" lon="1.32171">
        <ele>1015.289551</ele>
        <time>2011-01-08T11:49:44Z</time>
      </trkpt>
      <trkpt lat="42.87137" lon="1.32184">
        <ele>1018.654053</ele>
        <time>2011-01-08T11:56:23Z</time>
      </trkpt>
      <trkpt lat="42.87147" lon="1.32175">
        <ele>1020.576904</ele>
        <time>2011-01-08T11:56:43Z</time>
      </trkpt>
      <trkpt lat="42.8716" lon="1.32165">
        <ele>1023.941406</ele>
        <time>2011-01-08T11:57:03Z</time>
      </trkpt>
      <trkpt lat="42.87172" lon="1.32162">
        <ele>1028.267334</ele>
        <time>2011-01-08T11:57:22Z</time>
      </trkpt>
      <trkpt lat="42.87182" lon="1.32157">
        <ele>1030.670654</ele>
        <time>2011-01-08T11:58:02Z</time>
      </trkpt>
      <trkpt lat="42.87196" lon="1.32168">
        <ele>1034.515869</ele>
        <time>2011-01-08T11:58:22Z</time>
      </trkpt>
      <trkpt lat="42.87202" lon="1.32186">
        <ele>1038.361328</ele>
        <time>2011-01-08T11:58:51Z</time>
      </trkpt>
      <trkpt lat="42.87209" lon="1.32196">
        <ele>1040.764404</ele>
        <time>2011-01-08T11:59:05Z</time>
      </trkpt>
      <trkpt lat="42.87217" lon="1.32206">
        <ele>1044.12915</ele>
        <time>2011-01-08T11:59:21Z</time>
      </trkpt>
      <trkpt lat="42.87224" lon="1.32219">
        <ele>1045.571045</ele>
        <time>2011-01-08T11:59:34Z</time>
      </trkpt>
      <trkpt lat="42.87231" lon="1.32228">
        <ele>1047.493652</ele>
        <time>2011-01-08T11:59:46Z</time>
      </trkpt>
      <trkpt lat="42.87236" lon="1.32241">
        <ele>1049.896973</ele>
        <time>2011-01-08T12:00:01Z</time>
      </trkpt>
      <trkpt lat="42.8724" lon="1.32255">
        <ele>1054.223145</ele>
        <time>2011-01-08T12:00:18Z</time>
      </trkpt>
      <trkpt lat="42.87243" lon="1.32268">
        <ele>1055.665039</ele>
        <time>2011-01-08T12:00:35Z</time>
      </trkpt>
      <trkpt lat="42.8725" lon="1.32284">
        <ele>1058.068359</ele>
        <time>2011-01-08T12:00:50Z</time>
      </trkpt>
      <trkpt lat="42.87251" lon="1.32292">
        <ele>1060.952148</ele>
        <time>2011-01-08T12:01:01Z</time>
      </trkpt>
      <trkpt lat="42.87254" lon="1.32311">
        <ele>1064.797363</ele>
        <time>2011-01-08T12:01:31Z</time>
      </trkpt>
      <trkpt lat="42.8726" lon="1.32328">
        <ele>1068.162109</ele>
        <time>2011-01-08T12:01:47Z</time>
      </trkpt>
      <trkpt lat="42.87271" lon="1.32339">
        <ele>1070.084717</ele>
        <time>2011-01-08T12:02:03Z</time>
      </trkpt>
      <trkpt lat="42.87276" lon="1.32353">
        <ele>1072.007324</ele>
        <time>2011-01-08T12:02:15Z</time>
      </trkpt>
      <trkpt lat="42.87283" lon="1.3236">
        <ele>1074.891357</ele>
        <time>2011-01-08T12:03:14Z</time>
      </trkpt>
      <trkpt lat="42.87293" lon="1.32372">
        <ele>1077.775146</ele>
        <time>2011-01-08T12:03:57Z</time>
      </trkpt>
      <trkpt lat="42.87309" lon="1.32383">
        <ele>1078.736572</ele>
        <time>2011-01-08T12:04:13Z</time>
      </trkpt>
      <trkpt lat="42.87321" lon="1.32393">
        <ele>1079.697754</ele>
        <time>2011-01-08T12:04:24Z</time>
      </trkpt>
      <trkpt lat="42.87333" lon="1.32401">
        <ele>1080.65918</ele>
        <time>2011-01-08T12:04:37Z</time>
      </trkpt>
      <trkpt lat="42.87345" lon="1.3241">
        <ele>1081.620361</ele>
        <time>2011-01-08T12:04:52Z</time>
      </trkpt>
      <trkpt lat="42.87357" lon="1.32421">
        <ele>1084.023926</ele>
        <time>2011-01-08T12:05:05Z</time>
      </trkpt>
      <trkpt lat="42.8736" lon="1.32434">
        <ele>1086.427246</ele>
        <time>2011-01-08T12:05:20Z</time>
      </trkpt>
      <trkpt lat="42.87351" lon="1.32432">
        <ele>1087.388428</ele>
        <time>2011-01-08T12:05:38Z</time>
      </trkpt>
      <trkpt lat="42.87341" lon="1.32427">
        <ele>1087.869141</ele>
        <time>2011-01-08T12:05:50Z</time>
      </trkpt>
      <trkpt lat="42.8733" lon="1.32423">
        <ele>1090.272461</ele>
        <time>2011-01-08T12:06:01Z</time>
      </trkpt>
      <trkpt lat="42.8732" lon="1.32418">
        <ele>1090.75293</ele>
        <time>2011-01-08T12:06:13Z</time>
      </trkpt>
      <trkpt lat="42.87308" lon="1.3241">
        <ele>1091.714355</ele>
        <time>2011-01-08T12:06:25Z</time>
      </trkpt>
      <trkpt lat="42.87299" lon="1.32407">
        <ele>1092.675781</ele>
        <time>2011-01-08T12:06:35Z</time>
      </trkpt>
      <trkpt lat="42.8729" lon="1.32401">
        <ele>1094.117676</ele>
        <time>2011-01-08T12:06:44Z</time>
      </trkpt>
      <trkpt lat="42.87278" lon="1.32396">
        <ele>1095.55957</ele>
        <time>2011-01-08T12:06:59Z</time>
      </trkpt>
      <trkpt lat="42.87268" lon="1.32393">
        <ele>1096.520996</ele>
        <time>2011-01-08T12:07:09Z</time>
      </trkpt>
      <trkpt lat="42.87258" lon="1.32392">
        <ele>1097.482178</ele>
        <time>2011-01-08T12:07:21Z</time>
      </trkpt>
      <trkpt lat="42.87252" lon="1.3239">
        <ele>1098.443359</ele>
        <time>2011-01-08T12:07:32Z</time>
      </trkpt>
      <trkpt lat="42.87242" lon="1.32387">
        <ele>1099.885498</ele>
        <time>2011-01-08T12:07:42Z</time>
      </trkpt>
      <trkpt lat="42.87231" lon="1.32386">
        <ele>1101.80835</ele>
        <time>2011-01-08T12:07:51Z</time>
      </trkpt>
      <trkpt lat="42.8722" lon="1.32386">
        <ele>1102.288818</ele>
        <time>2011-01-08T12:08:04Z</time>
      </trkpt>
      <trkpt lat="42.87209" lon="1.32391">
        <ele>1104.21167</ele>
        <time>2011-01-08T12:08:14Z</time>
      </trkpt>
      <trkpt lat="42.87199" lon="1.32391">
        <ele>1105.653564</ele>
        <time>2011-01-08T12:08:28Z</time>
      </trkpt>
      <trkpt lat="42.87187" lon="1.32397">
        <ele>1107.095459</ele>
        <time>2011-01-08T12:08:39Z</time>
      </trkpt>
      <trkpt lat="42.87174" lon="1.32405">
        <ele>1107.576172</ele>
        <time>2011-01-08T12:08:53Z</time>
      </trkpt>
      <trkpt lat="42.87162" lon="1.32416">
        <ele>1109.498779</ele>
        <time>2011-01-08T12:09:05Z</time>
      </trkpt>
      <trkpt lat="42.87154" lon="1.32421">
        <ele>1109.018066</ele>
        <time>2011-01-08T12:09:14Z</time>
      </trkpt>
      <trkpt lat="42.87146" lon="1.32427">
        <ele>1111.9021</ele>
        <time>2011-01-08T12:09:25Z</time>
      </trkpt>
      <trkpt lat="42.87138" lon="1.32435">
        <ele>1112.382568</ele>
        <time>2011-01-08T12:09:35Z</time>
      </trkpt>
      <trkpt lat="42.87128" lon="1.32445">
        <ele>1114.305176</ele>
        <time>2011-01-08T12:09:49Z</time>
      </trkpt>
      <trkpt lat="42.87116" lon="1.32453">
        <ele>1116.228027</ele>
        <time>2011-01-08T12:10:02Z</time>
      </trkpt>
      <trkpt lat="42.87108" lon="1.32463">
        <ele>1116.228027</ele>
        <time>2011-01-08T12:10:11Z</time>
      </trkpt>
      <trkpt lat="42.871" lon="1.32471">
        <ele>1118.631348</ele>
        <time>2011-01-08T12:10:26Z</time>
      </trkpt>
      <trkpt lat="42.87093" lon="1.32484">
        <ele>1120.553955</ele>
        <time>2011-01-08T12:10:38Z</time>
      </trkpt>
      <trkpt lat="42.87089" lon="1.32501">
        <ele>1121.034668</ele>
        <time>2011-01-08T12:10:59Z</time>
      </trkpt>
      <trkpt lat="42.87086" lon="1.32519">
        <ele>1121.515137</ele>
        <time>2011-01-08T12:11:12Z</time>
      </trkpt>
      <trkpt lat="42.8708" lon="1.32535">
        <ele>1123.437988</ele>
        <time>2011-01-08T12:11:23Z</time>
      </trkpt>
      <trkpt lat="42.87071" lon="1.32549">
        <ele>1124.879883</ele>
        <time>2011-01-08T12:11:43Z</time>
      </trkpt>
      <trkpt lat="42.87061" lon="1.32557">
        <ele>1124.879883</ele>
        <time>2011-01-08T12:11:53Z</time>
      </trkpt>
      <trkpt lat="42.87048" lon="1.32564">
        <ele>1126.321777</ele>
        <time>2011-01-08T12:12:04Z</time>
      </trkpt>
      <trkpt lat="42.87034" lon="1.3257">
        <ele>1126.321777</ele>
        <time>2011-01-08T12:12:19Z</time>
      </trkpt>
      <trkpt lat="42.87024" lon="1.32576">
        <ele>1128.725098</ele>
        <time>2011-01-08T12:12:30Z</time>
      </trkpt>
      <trkpt lat="42.87012" lon="1.32582">
        <ele>1130.647705</ele>
        <time>2011-01-08T12:12:43Z</time>
      </trkpt>
      <trkpt lat="42.87" lon="1.32585">
        <ele>1131.128418</ele>
        <time>2011-01-08T12:12:59Z</time>
      </trkpt>
      <trkpt lat="42.86988" lon="1.32591">
        <ele>1132.570557</ele>
        <time>2011-01-08T12:13:11Z</time>
      </trkpt>
      <trkpt lat="42.86977" lon="1.32593">
        <ele>1133.531738</ele>
        <time>2011-01-08T12:13:22Z</time>
      </trkpt>
      <trkpt lat="42.86967" lon="1.32593">
        <ele>1134.493164</ele>
        <time>2011-01-08T12:13:31Z</time>
      </trkpt>
      <trkpt lat="42.86957" lon="1.32592">
        <ele>1135.935059</ele>
        <time>2011-01-08T12:13:41Z</time>
      </trkpt>
      <trkpt lat="42.86948" lon="1.32592">
        <ele>1137.376953</ele>
        <time>2011-01-08T12:13:51Z</time>
      </trkpt>
      <trkpt lat="42.86939" lon="1.32591">
        <ele>1137.857666</ele>
        <time>2011-01-08T12:14:01Z</time>
      </trkpt>
      <trkpt lat="42.8693" lon="1.32588">
        <ele>1139.780273</ele>
        <time>2011-01-08T12:14:11Z</time>
      </trkpt>
      <trkpt lat="42.86921" lon="1.3259">
        <ele>1139.780273</ele>
        <time>2011-01-08T12:14:21Z</time>
      </trkpt>
      <trkpt lat="42.86911" lon="1.32592">
        <ele>1140.741455</ele>
        <time>2011-01-08T12:14:31Z</time>
      </trkpt>
      <trkpt lat="42.86899" lon="1.32597">
        <ele>1142.183594</ele>
        <time>2011-01-08T12:14:46Z</time>
      </trkpt>
      <trkpt lat="42.86886" lon="1.32601">
        <ele>1143.625488</ele>
        <time>2011-01-08T12:15:00Z</time>
      </trkpt>
      <trkpt lat="42.86875" lon="1.32607">
        <ele>1145.067383</ele>
        <time>2011-01-08T12:15:14Z</time>
      </trkpt>
      <trkpt lat="42.86876" lon="1.32616">
        <ele>1146.509521</ele>
        <time>2011-01-08T12:15:29Z</time>
      </trkpt>
      <trkpt lat="42.86885" lon="1.32609">
        <ele>1147.951416</ele>
        <time>2011-01-08T12:15:39Z</time>
      </trkpt>
      <trkpt lat="42.86894" lon="1.32607">
        <ele>1149.874268</ele>
        <time>2011-01-08T12:15:49Z</time>
      </trkpt>
      <trkpt lat="42.86905" lon="1.32607">
        <ele>1150.835449</ele>
        <time>2011-01-08T12:16:02Z</time>
      </trkpt>
      <trkpt lat="42.86916" lon="1.32609">
        <ele>1153.23877</ele>
        <time>2011-01-08T12:16:17Z</time>
      </trkpt>
      <trkpt lat="42.86928" lon="1.32618">
        <ele>1155.64209</ele>
        <time>2011-01-08T12:16:35Z</time>
      </trkpt>
      <trkpt lat="42.86941" lon="1.32635">
        <ele>1156.603271</ele>
        <time>2011-01-08T12:16:50Z</time>
      </trkpt>
      <trkpt lat="42.86956" lon="1.32641">
        <ele>1158.525879</ele>
        <time>2011-01-08T12:17:05Z</time>
      </trkpt>
      <trkpt lat="42.86968" lon="1.32644">
        <ele>1159.967773</ele>
        <time>2011-01-08T12:17:20Z</time>
      </trkpt>
      <trkpt lat="42.86982" lon="1.32649">
        <ele>1160.929199</ele>
        <time>2011-01-08T12:17:35Z</time>
      </trkpt>
      <trkpt lat="42.86997" lon="1.32656">
        <ele>1163.33252</ele>
        <time>2011-01-08T12:17:49Z</time>
      </trkpt>
      <trkpt lat="42.87009" lon="1.32656">
        <ele>1164.774658</ele>
        <time>2011-01-08T12:18:05Z</time>
      </trkpt>
      <trkpt lat="42.87024" lon="1.32661">
        <ele>1165.736084</ele>
        <time>2011-01-08T12:18:17Z</time>
      </trkpt>
      <trkpt lat="42.87036" lon="1.32659">
        <ele>1168.13916</ele>
        <time>2011-01-08T12:18:33Z</time>
      </trkpt>
      <trkpt lat="42.87049" lon="1.32665">
        <ele>1169.581299</ele>
        <time>2011-01-08T12:18:47Z</time>
      </trkpt>
      <trkpt lat="42.87062" lon="1.32668">
        <ele>1171.503662</ele>
        <time>2011-01-08T12:19:01Z</time>
      </trkpt>
      <trkpt lat="42.87077" lon="1.32674">
        <ele>1174.387695</ele>
        <time>2011-01-08T12:19:17Z</time>
      </trkpt>
      <trkpt lat="42.87088" lon="1.32679">
        <ele>1176.310303</ele>
        <time>2011-01-08T12:19:30Z</time>
      </trkpt>
      <trkpt lat="42.87101" lon="1.32685">
        <ele>1177.271729</ele>
        <time>2011-01-08T12:19:43Z</time>
      </trkpt>
      <trkpt lat="42.87111" lon="1.32689">
        <ele>1180.636475</ele>
        <time>2011-01-08T12:19:55Z</time>
      </trkpt>
      <trkpt lat="42.87121" lon="1.32697">
        <ele>1183.039551</ele>
        <time>2011-01-08T12:20:07Z</time>
      </trkpt>
      <trkpt lat="42.87112" lon="1.32703">
        <ele>1184.481689</ele>
        <time>2011-01-08T12:21:53Z</time>
      </trkpt>
      <trkpt lat="42.87101" lon="1.32701">
        <ele>1185.442871</ele>
        <time>2011-01-08T12:22:07Z</time>
      </trkpt>
      <trkpt lat="42.8709" lon="1.32698">
        <ele>1186.404297</ele>
        <time>2011-01-08T12:22:17Z</time>
      </trkpt>
      <trkpt lat="42.87079" lon="1.32702">
        <ele>1187.365479</ele>
        <time>2011-01-08T12:22:29Z</time>
      </trkpt>
      <trkpt lat="42.87067" lon="1.32705">
        <ele>1189.288086</ele>
        <time>2011-01-08T12:22:42Z</time>
      </trkpt>
      <trkpt lat="42.87053" lon="1.32707">
        <ele>1191.691406</ele>
        <time>2011-01-08T12:22:57Z</time>
      </trkpt>
      <trkpt lat="42.87042" lon="1.32715">
        <ele>1192.652832</ele>
        <time>2011-01-08T12:23:10Z</time>
      </trkpt>
      <trkpt lat="42.87028" lon="1.32722">
        <ele>1196.498291</ele>
        <time>2011-01-08T12:23:25Z</time>
      </trkpt>
      <trkpt lat="42.87018" lon="1.32724">
        <ele>1198.901367</ele>
        <time>2011-01-08T12:23:37Z</time>
      </trkpt>
      <trkpt lat="42.87008" lon="1.32726">
        <ele>1199.862793</ele>
        <time>2011-01-08T12:23:48Z</time>
      </trkpt>
      <trkpt lat="42.87003" lon="1.32735">
        <ele>1201.304688</ele>
        <time>2011-01-08T12:23:58Z</time>
      </trkpt>
      <trkpt lat="42.87014" lon="1.32738">
        <ele>1202.746582</ele>
        <time>2011-01-08T12:24:13Z</time>
      </trkpt>
      <trkpt lat="42.87026" lon="1.32737">
        <ele>1203.708008</ele>
        <time>2011-01-08T12:24:27Z</time>
      </trkpt>
      <trkpt lat="42.87043" lon="1.32739">
        <ele>1206.111084</ele>
        <time>2011-01-08T12:24:45Z</time>
      </trkpt>
      <trkpt lat="42.87057" lon="1.32744">
        <ele>1207.553223</ele>
        <time>2011-01-08T12:24:56Z</time>
      </trkpt>
      <trkpt lat="42.87067" lon="1.32754">
        <ele>1208.995117</ele>
        <time>2011-01-08T12:25:12Z</time>
      </trkpt>
      <trkpt lat="42.87078" lon="1.32762">
        <ele>1210.437012</ele>
        <time>2011-01-08T12:25:27Z</time>
      </trkpt>
      <trkpt lat="42.87087" lon="1.32771">
        <ele>1212.359863</ele>
        <time>2011-01-08T12:25:38Z</time>
      </trkpt>
      <trkpt lat="42.87097" lon="1.32784">
        <ele>1213.801758</ele>
        <time>2011-01-08T12:25:55Z</time>
      </trkpt>
      <trkpt lat="42.87106" lon="1.32796">
        <ele>1214.282471</ele>
        <time>2011-01-08T12:26:06Z</time>
      </trkpt>
      <trkpt lat="42.87114" lon="1.32807">
        <ele>1214.763184</ele>
        <time>2011-01-08T12:26:17Z</time>
      </trkpt>
      <trkpt lat="42.87121" lon="1.32817">
        <ele>1216.685791</ele>
        <time>2011-01-08T12:26:31Z</time>
      </trkpt>
      <trkpt lat="42.87127" lon="1.32829">
        <ele>1219.089111</ele>
        <time>2011-01-08T12:26:44Z</time>
      </trkpt>
      <trkpt lat="42.87135" lon="1.32836">
        <ele>1219.569824</ele>
        <time>2011-01-08T12:26:53Z</time>
      </trkpt>
      <trkpt lat="42.87141" lon="1.32844">
        <ele>1220.531006</ele>
        <time>2011-01-08T12:27:03Z</time>
      </trkpt>
      <trkpt lat="42.87148" lon="1.32854">
        <ele>1221.9729</ele>
        <time>2011-01-08T12:27:16Z</time>
      </trkpt>
      <trkpt lat="42.87153" lon="1.32862">
        <ele>1223.895508</ele>
        <time>2011-01-08T12:27:25Z</time>
      </trkpt>
      <trkpt lat="42.87162" lon="1.3287">
        <ele>1224.856934</ele>
        <time>2011-01-08T12:27:35Z</time>
      </trkpt>
      <trkpt lat="42.87168" lon="1.32877">
        <ele>1225.818115</ele>
        <time>2011-01-08T12:27:46Z</time>
      </trkpt>
      <trkpt lat="42.87168" lon="1.3289">
        <ele>1228.22168</ele>
        <time>2011-01-08T12:28:02Z</time>
      </trkpt>
      <trkpt lat="42.87175" lon="1.32901">
        <ele>1227.260254</ele>
        <time>2011-01-08T12:28:17Z</time>
      </trkpt>
      <trkpt lat="42.8718" lon="1.32919">
        <ele>1229.663574</ele>
        <time>2011-01-08T12:28:29Z</time>
      </trkpt>
      <trkpt lat="42.87186" lon="1.32931">
        <ele>1230.144287</ele>
        <time>2011-01-08T12:28:41Z</time>
      </trkpt>
      <trkpt lat="42.87192" lon="1.32942">
        <ele>1232.066895</ele>
        <time>2011-01-08T12:28:52Z</time>
      </trkpt>
      <trkpt lat="42.87195" lon="1.32955">
        <ele>1233.028076</ele>
        <time>2011-01-08T12:29:04Z</time>
      </trkpt>
      <trkpt lat="42.87202" lon="1.32969">
        <ele>1234.470215</ele>
        <time>2011-01-08T12:29:16Z</time>
      </trkpt>
      <trkpt lat="42.87208" lon="1.32982">
        <ele>1236.392822</ele>
        <time>2011-01-08T12:29:27Z</time>
      </trkpt>
      <trkpt lat="42.87212" lon="1.32993">
        <ele>1236.873291</ele>
        <time>2011-01-08T12:29:36Z</time>
      </trkpt>
      <trkpt lat="42.87212" lon="1.33004">
        <ele>1238.31543</ele>
        <time>2011-01-08T12:29:46Z</time>
      </trkpt>
      <trkpt lat="42.87214" lon="1.33018">
        <ele>1239.276611</ele>
        <time>2011-01-08T12:29:58Z</time>
      </trkpt>
      <trkpt lat="42.87217" lon="1.33031">
        <ele>1240.718506</ele>
        <time>2011-01-08T12:30:08Z</time>
      </trkpt>
      <trkpt lat="42.87221" lon="1.33046">
        <ele>1242.160645</ele>
        <time>2011-01-08T12:30:22Z</time>
      </trkpt>
      <trkpt lat="42.87223" lon="1.3306">
        <ele>1242.160645</ele>
        <time>2011-01-08T12:30:33Z</time>
      </trkpt>
      <trkpt lat="42.87229" lon="1.33078">
        <ele>1244.563965</ele>
        <time>2011-01-08T12:30:46Z</time>
      </trkpt>
      <trkpt lat="42.8723" lon="1.33091">
        <ele>1245.044678</ele>
        <time>2011-01-08T12:30:56Z</time>
      </trkpt>
      <trkpt lat="42.87234" lon="1.33101">
        <ele>1246.006104</ele>
        <time>2011-01-08T12:31:04Z</time>
      </trkpt>
      <trkpt lat="42.87232" lon="1.33114">
        <ele>1247.928711</ele>
        <time>2011-01-08T12:31:17Z</time>
      </trkpt>
      <trkpt lat="42.87233" lon="1.33128">
        <ele>1248.40918</ele>
        <time>2011-01-08T12:31:27Z</time>
      </trkpt>
      <trkpt lat="42.87234" lon="1.3314">
        <ele>1250.332031</ele>
        <time>2011-01-08T12:31:36Z</time>
      </trkpt>
      <trkpt lat="42.87232" lon="1.33154">
        <ele>1251.293213</ele>
        <time>2011-01-08T12:31:50Z</time>
      </trkpt>
      <trkpt lat="42.87232" lon="1.33167">
        <ele>1253.21582</ele>
        <time>2011-01-08T12:32:02Z</time>
      </trkpt>
      <trkpt lat="42.87228" lon="1.33184">
        <ele>1253.696533</ele>
        <time>2011-01-08T12:32:14Z</time>
      </trkpt>
      <trkpt lat="42.87225" lon="1.33199">
        <ele>1256.099609</ele>
        <time>2011-01-08T12:32:26Z</time>
      </trkpt>
      <trkpt lat="42.87221" lon="1.33214">
        <ele>1257.061035</ele>
        <time>2011-01-08T12:32:38Z</time>
      </trkpt>
      <trkpt lat="42.87212" lon="1.33229">
        <ele>1258.50293</ele>
        <time>2011-01-08T12:32:53Z</time>
      </trkpt>
      <trkpt lat="42.87204" lon="1.3324">
        <ele>1259.464355</ele>
        <time>2011-01-08T12:33:05Z</time>
      </trkpt>
      <trkpt lat="42.872" lon="1.33253">
        <ele>1260.906494</ele>
        <time>2011-01-08T12:33:16Z</time>
      </trkpt>
      <trkpt lat="42.87196" lon="1.33266">
        <ele>1260.906494</ele>
        <time>2011-01-08T12:33:26Z</time>
      </trkpt>
      <trkpt lat="42.87191" lon="1.33278">
        <ele>1261.387207</ele>
        <time>2011-01-08T12:33:37Z</time>
      </trkpt>
      <trkpt lat="42.87185" lon="1.33289">
        <ele>1262.348389</ele>
        <time>2011-01-08T12:34:05Z</time>
      </trkpt>
      <trkpt lat="42.87174" lon="1.33287">
        <ele>1262.829102</ele>
        <time>2011-01-08T12:34:15Z</time>
      </trkpt>
      <trkpt lat="42.87171" lon="1.33275">
        <ele>1265.232422</ele>
        <time>2011-01-08T12:34:28Z</time>
      </trkpt>
      <trkpt lat="42.87167" lon="1.33261">
        <ele>1266.193604</ele>
        <time>2011-01-08T12:34:40Z</time>
      </trkpt>
      <trkpt lat="42.87166" lon="1.33247">
        <ele>1267.635498</ele>
        <time>2011-01-08T12:34:58Z</time>
      </trkpt>
      <trkpt lat="42.87164" lon="1.33228">
        <ele>1271.000244</ele>
        <time>2011-01-08T12:35:18Z</time>
      </trkpt>
      <trkpt lat="42.87158" lon="1.33216">
        <ele>1274.364746</ele>
        <time>2011-01-08T12:35:31Z</time>
      </trkpt>
      <trkpt lat="42.87155" lon="1.33204">
        <ele>1277.249023</ele>
        <time>2011-01-08T12:35:49Z</time>
      </trkpt>
      <trkpt lat="42.87155" lon="1.33188">
        <ele>1279.6521</ele>
        <time>2011-01-08T12:36:05Z</time>
      </trkpt>
      <trkpt lat="42.8715" lon="1.33177">
        <ele>1282.05542</ele>
        <time>2011-01-08T12:36:18Z</time>
      </trkpt>
      <trkpt lat="42.87145" lon="1.33168">
        <ele>1283.497314</ele>
        <time>2011-01-08T12:36:36Z</time>
      </trkpt>
      <trkpt lat="42.87138" lon="1.33156">
        <ele>1284.939453</ele>
        <time>2011-01-08T12:36:50Z</time>
      </trkpt>
      <trkpt lat="42.8713" lon="1.33142">
        <ele>1284.939453</ele>
        <time>2011-01-08T12:37:05Z</time>
      </trkpt>
      <trkpt lat="42.87121" lon="1.33133">
        <ele>1287.823242</ele>
        <time>2011-01-08T12:37:18Z</time>
      </trkpt>
      <trkpt lat="42.87114" lon="1.33121">
        <ele>1289.74585</ele>
        <time>2011-01-08T12:37:31Z</time>
      </trkpt>
      <trkpt lat="42.87104" lon="1.33116">
        <ele>1291.668457</ele>
        <time>2011-01-08T12:38:57Z</time>
      </trkpt>
      <trkpt lat="42.87091" lon="1.33106">
        <ele>1296.955811</ele>
        <time>2011-01-08T12:39:19Z</time>
      </trkpt>
      <trkpt lat="42.87081" lon="1.33097">
        <ele>1300.801025</ele>
        <time>2011-01-08T12:39:41Z</time>
      </trkpt>
      <trkpt lat="42.87067" lon="1.33085">
        <ele>1302.723633</ele>
        <time>2011-01-08T12:40:12Z</time>
      </trkpt>
      <trkpt lat="42.87055" lon="1.33082">
        <ele>1306.568848</ele>
        <time>2011-01-08T12:40:29Z</time>
      </trkpt>
      <trkpt lat="42.87044" lon="1.33072">
        <ele>1310.89502</ele>
        <time>2011-01-08T12:40:51Z</time>
      </trkpt>
      <trkpt lat="42.87041" lon="1.33062">
        <ele>1315.220947</ele>
        <time>2011-01-08T12:41:13Z</time>
      </trkpt>
      <trkpt lat="42.87027" lon="1.33049">
        <ele>1322.430664</ele>
        <time>2011-01-08T12:41:44Z</time>
      </trkpt>
      <trkpt lat="42.87016" lon="1.33043">
        <ele>1323.39209</ele>
        <time>2011-01-08T12:43:22Z</time>
      </trkpt>
      <trkpt lat="42.87006" lon="1.33035">
        <ele>1322.911377</ele>
        <time>2011-01-08T12:43:33Z</time>
      </trkpt>
      <trkpt lat="42.86996" lon="1.33035">
        <ele>1322.911377</ele>
        <time>2011-01-08T12:43:54Z</time>
      </trkpt>
      <trkpt lat="42.86985" lon="1.33028">
        <ele>1320.508057</ele>
        <time>2011-01-08T12:44:06Z</time>
      </trkpt>
      <trkpt lat="42.86974" lon="1.33029">
        <ele>1320.508057</ele>
        <time>2011-01-08T12:44:17Z</time>
      </trkpt>
      <trkpt lat="42.86962" lon="1.3303">
        <ele>1321.469238</ele>
        <time>2011-01-08T12:44:28Z</time>
      </trkpt>
      <trkpt lat="42.86948" lon="1.33031">
        <ele>1322.430664</ele>
        <time>2011-01-08T12:46:01Z</time>
      </trkpt>
      <trkpt lat="42.86936" lon="1.33031">
        <ele>1324.353516</ele>
        <time>2011-01-08T12:46:13Z</time>
      </trkpt>
      <trkpt lat="42.86928" lon="1.33036">
        <ele>1325.314697</ele>
        <time>2011-01-08T12:46:25Z</time>
      </trkpt>
      <trkpt lat="42.86919" lon="1.33035">
        <ele>1326.756836</ele>
        <time>2011-01-08T12:46:41Z</time>
      </trkpt>
      <trkpt lat="42.86907" lon="1.33037">
        <ele>1326.276123</ele>
        <time>2011-01-08T12:46:54Z</time>
      </trkpt>
      <trkpt lat="42.86897" lon="1.33039">
        <ele>1326.756836</ele>
        <time>2011-01-08T12:50:00Z</time>
      </trkpt>
      <trkpt lat="42.86885" lon="1.33035">
        <ele>1327.237549</ele>
        <time>2011-01-08T12:50:12Z</time>
      </trkpt>
      <trkpt lat="42.86875" lon="1.33035">
        <ele>1327.718018</ele>
        <time>2011-01-08T12:50:22Z</time>
      </trkpt>
      <trkpt lat="42.86862" lon="1.33037">
        <ele>1328.19873</ele>
        <time>2011-01-08T12:50:35Z</time>
      </trkpt>
      <trkpt lat="42.86852" lon="1.3304">
        <ele>1329.159912</ele>
        <time>2011-01-08T12:50:45Z</time>
      </trkpt>
      <trkpt lat="42.86843" lon="1.33047">
        <ele>1329.640625</ele>
        <time>2011-01-08T12:50:58Z</time>
      </trkpt>
      <trkpt lat="42.86834" lon="1.33053">
        <ele>1330.602051</ele>
        <time>2011-01-08T12:51:08Z</time>
      </trkpt>
      <trkpt lat="42.86824" lon="1.33056">
        <ele>1331.082764</ele>
        <time>2011-01-08T12:51:17Z</time>
      </trkpt>
      <trkpt lat="42.86814" lon="1.33054">
        <ele>1332.043945</ele>
        <time>2011-01-08T12:51:29Z</time>
      </trkpt>
      <trkpt lat="42.86804" lon="1.33058">
        <ele>1331.082764</ele>
        <time>2011-01-08T12:51:39Z</time>
      </trkpt>
      <trkpt lat="42.86794" lon="1.33063">
        <ele>1330.602051</ele>
        <time>2011-01-08T12:51:56Z</time>
      </trkpt>
      <trkpt lat="42.86783" lon="1.33062">
        <ele>1329.159912</ele>
        <time>2011-01-08T12:52:09Z</time>
      </trkpt>
      <trkpt lat="42.86776" lon="1.33068">
        <ele>1329.159912</ele>
        <time>2011-01-08T12:52:18Z</time>
      </trkpt>
      <trkpt lat="42.86767" lon="1.33074">
        <ele>1329.640625</ele>
        <time>2011-01-08T12:52:27Z</time>
      </trkpt>
      <trkpt lat="42.86757" lon="1.33076">
        <ele>1330.121338</ele>
        <time>2011-01-08T12:52:38Z</time>
      </trkpt>
      <trkpt lat="42.8675" lon="1.33082">
        <ele>1331.082764</ele>
        <time>2011-01-08T12:52:47Z</time>
      </trkpt>
      <trkpt lat="42.86743" lon="1.33082">
        <ele>1331.563232</ele>
        <time>2011-01-08T12:52:57Z</time>
      </trkpt>
      <trkpt lat="42.86735" lon="1.3309">
        <ele>1333.966553</ele>
        <time>2011-01-08T12:53:08Z</time>
      </trkpt>
      <trkpt lat="42.86726" lon="1.33085">
        <ele>1335.88916</ele>
        <time>2011-01-08T12:53:19Z</time>
      </trkpt>
      <trkpt lat="42.86716" lon="1.33086">
        <ele>1335.88916</ele>
        <time>2011-01-08T12:53:31Z</time>
      </trkpt>
      <trkpt lat="42.86703" lon="1.33086">
        <ele>1337.331055</ele>
        <time>2011-01-08T12:53:42Z</time>
      </trkpt>
      <trkpt lat="42.86693" lon="1.33089">
        <ele>1338.29248</ele>
        <time>2011-01-08T12:53:55Z</time>
      </trkpt>
      <trkpt lat="42.86681" lon="1.33098">
        <ele>1340.695801</ele>
        <time>2011-01-08T12:54:08Z</time>
      </trkpt>
      <trkpt lat="42.86674" lon="1.33106">
        <ele>1341.176514</ele>
        <time>2011-01-08T12:54:18Z</time>
      </trkpt>
      <trkpt lat="42.86663" lon="1.33109">
        <ele>1342.137939</ele>
        <time>2011-01-08T12:54:59Z</time>
      </trkpt>
      <trkpt lat="42.86651" lon="1.3311">
        <ele>1342.618652</ele>
        <time>2011-01-08T12:55:15Z</time>
      </trkpt>
      <trkpt lat="42.86641" lon="1.33113">
        <ele>1344.541016</ele>
        <time>2011-01-08T12:55:25Z</time>
      </trkpt>
      <trkpt lat="42.86633" lon="1.33116">
        <ele>1344.541016</ele>
        <time>2011-01-08T12:55:37Z</time>
      </trkpt>
      <trkpt lat="42.86622" lon="1.33118">
        <ele>1346.944336</ele>
        <time>2011-01-08T12:55:49Z</time>
      </trkpt>
      <trkpt lat="42.86611" lon="1.3312">
        <ele>1349.828369</ele>
        <time>2011-01-08T12:56:40Z</time>
      </trkpt>
      <trkpt lat="42.866" lon="1.33116">
        <ele>1351.270264</ele>
        <time>2011-01-08T12:56:54Z</time>
      </trkpt>
      <trkpt lat="42.86588" lon="1.33111">
        <ele>1352.712158</ele>
        <time>2011-01-08T12:57:07Z</time>
      </trkpt>
      <trkpt lat="42.86578" lon="1.3311">
        <ele>1356.557617</ele>
        <time>2011-01-08T12:57:20Z</time>
      </trkpt>
      <trkpt lat="42.86567" lon="1.33111">
        <ele>1358.960938</ele>
        <time>2011-01-08T12:57:36Z</time>
      </trkpt>
      <trkpt lat="42.86556" lon="1.33113">
        <ele>1360.883545</ele>
        <time>2011-01-08T12:57:50Z</time>
      </trkpt>
      <trkpt lat="42.86547" lon="1.33115">
        <ele>1365.209473</ele>
        <time>2011-01-08T12:58:02Z</time>
      </trkpt>
      <trkpt lat="42.86537" lon="1.33109">
        <ele>1367.13208</ele>
        <time>2011-01-08T12:58:25Z</time>
      </trkpt>
      <trkpt lat="42.86527" lon="1.33108">
        <ele>1369.5354</ele>
        <time>2011-01-08T12:59:49Z</time>
      </trkpt>
      <trkpt lat="42.86519" lon="1.33109">
        <ele>1371.938477</ele>
        <time>2011-01-08T13:04:39Z</time>
      </trkpt>
      <trkpt lat="42.86508" lon="1.33108">
        <ele>1373.861328</ele>
        <time>2011-01-08T13:04:52Z</time>
      </trkpt>
      <trkpt lat="42.86499" lon="1.33113">
        <ele>1378.187256</ele>
        <time>2011-01-08T13:05:07Z</time>
      </trkpt>
      <trkpt lat="42.86491" lon="1.33117">
        <ele>1377.226074</ele>
        <time>2011-01-08T13:05:20Z</time>
      </trkpt>
      <trkpt lat="42.86483" lon="1.33124">
        <ele>1377.706543</ele>
        <time>2011-01-08T13:05:33Z</time>
      </trkpt>
      <trkpt lat="42.86469" lon="1.33127">
        <ele>1378.187256</ele>
        <time>2011-01-08T13:05:46Z</time>
      </trkpt>
      <trkpt lat="42.8646" lon="1.3313">
        <ele>1380.590576</ele>
        <time>2011-01-08T13:05:59Z</time>
      </trkpt>
      <trkpt lat="42.8645" lon="1.33132">
        <ele>1379.62915</ele>
        <time>2011-01-08T13:06:11Z</time>
      </trkpt>
      <trkpt lat="42.8644" lon="1.33135">
        <ele>1380.590576</ele>
        <time>2011-01-08T13:06:24Z</time>
      </trkpt>
      <trkpt lat="42.86424" lon="1.3314">
        <ele>1378.667969</ele>
        <time>2011-01-08T13:06:36Z</time>
      </trkpt>
      <trkpt lat="42.86414" lon="1.33147">
        <ele>1377.226074</ele>
        <time>2011-01-08T13:06:48Z</time>
      </trkpt>
      <trkpt lat="42.86402" lon="1.33154">
        <ele>1376.745361</ele>
        <time>2011-01-08T13:06:56Z</time>
      </trkpt>
      <trkpt lat="42.86393" lon="1.33159">
        <ele>1379.62915</ele>
        <time>2011-01-08T13:07:08Z</time>
      </trkpt>
      <trkpt lat="42.86378" lon="1.33157">
        <ele>1380.590576</ele>
        <time>2011-01-08T13:07:22Z</time>
      </trkpt>
      <trkpt lat="42.8637" lon="1.33163">
        <ele>1379.148438</ele>
        <time>2011-01-08T13:07:33Z</time>
      </trkpt>
      <trkpt lat="42.86361" lon="1.3316">
        <ele>1380.109863</ele>
        <time>2011-01-08T13:07:55Z</time>
      </trkpt>
      <trkpt lat="42.86342" lon="1.33168">
        <ele>1383.955078</ele>
        <time>2011-01-08T13:08:14Z</time>
      </trkpt>
      <trkpt lat="42.86319" lon="1.33185">
        <ele>1387.800293</ele>
        <time>2011-01-08T13:08:38Z</time>
      </trkpt>
      <trkpt lat="42.86304" lon="1.33188">
        <ele>1388.761963</ele>
        <time>2011-01-08T13:08:52Z</time>
      </trkpt>
      <trkpt lat="42.86291" lon="1.33194">
        <ele>1389.723145</ele>
        <time>2011-01-08T13:09:03Z</time>
      </trkpt>
      <trkpt lat="42.86281" lon="1.33202">
        <ele>1391.165039</ele>
        <time>2011-01-08T13:09:19Z</time>
      </trkpt>
      <trkpt lat="42.86271" lon="1.33212">
        <ele>1391.645752</ele>
        <time>2011-01-08T13:09:30Z</time>
      </trkpt>
      <trkpt lat="42.86262" lon="1.33215">
        <ele>1391.165039</ele>
        <time>2011-01-08T13:09:41Z</time>
      </trkpt>
      <trkpt lat="42.8625" lon="1.33219">
        <ele>1393.087646</ele>
        <time>2011-01-08T13:09:51Z</time>
      </trkpt>
      <trkpt lat="42.86239" lon="1.33225">
        <ele>1394.529541</ele>
        <time>2011-01-08T13:10:02Z</time>
      </trkpt>
      <trkpt lat="42.86228" lon="1.33233">
        <ele>1395.490967</ele>
        <time>2011-01-08T13:10:19Z</time>
      </trkpt>
      <trkpt lat="42.86218" lon="1.33231">
        <ele>1395.490967</ele>
        <time>2011-01-08T13:10:32Z</time>
      </trkpt>
      <trkpt lat="42.86208" lon="1.33236">
        <ele>1395.490967</ele>
        <time>2011-01-08T13:10:41Z</time>
      </trkpt>
      <trkpt lat="42.86199" lon="1.33242">
        <ele>1395.97168</ele>
        <time>2011-01-08T13:10:49Z</time>
      </trkpt>
      <trkpt lat="42.86194" lon="1.33248">
        <ele>1395.97168</ele>
        <time>2011-01-08T13:13:49Z</time>
      </trkpt>
      <trkpt lat="42.862" lon="1.33249">
        <ele>1395.010254</ele>
        <time>2011-01-08T13:17:11Z</time>
      </trkpt>
      <trkpt lat="42.86193" lon="1.33248">
        <ele>1395.97168</ele>
        <time>2011-01-08T13:19:51Z</time>
      </trkpt>
      <trkpt lat="42.86184" lon="1.33253">
        <ele>1394.049072</ele>
        <time>2011-01-08T13:20:00Z</time>
      </trkpt>
      <trkpt lat="42.86174" lon="1.33262">
        <ele>1394.529541</ele>
        <time>2011-01-08T13:20:09Z</time>
      </trkpt>
      <trkpt lat="42.86167" lon="1.33269">
        <ele>1394.529541</ele>
        <time>2011-01-08T13:20:20Z</time>
      </trkpt>
      <trkpt lat="42.86158" lon="1.33272">
        <ele>1394.529541</ele>
        <time>2011-01-08T13:20:28Z</time>
      </trkpt>
      <trkpt lat="42.8615" lon="1.33282">
        <ele>1394.529541</ele>
        <time>2011-01-08T13:20:37Z</time>
      </trkpt>
      <trkpt lat="42.86139" lon="1.33285">
        <ele>1395.490967</ele>
        <time>2011-01-08T13:20:46Z</time>
      </trkpt>
      <trkpt lat="42.8613" lon="1.33291">
        <ele>1394.529541</ele>
        <time>2011-01-08T13:20:54Z</time>
      </trkpt>
      <trkpt lat="42.86122" lon="1.33298">
        <ele>1395.490967</ele>
        <time>2011-01-08T13:21:03Z</time>
      </trkpt>
      <trkpt lat="42.86113" lon="1.33306">
        <ele>1395.010254</ele>
        <time>2011-01-08T13:21:11Z</time>
      </trkpt>
      <trkpt lat="42.86103" lon="1.33311">
        <ele>1394.049072</ele>
        <time>2011-01-08T13:21:19Z</time>
      </trkpt>
      <trkpt lat="42.86095" lon="1.33318">
        <ele>1394.049072</ele>
        <time>2011-01-08T13:21:27Z</time>
      </trkpt>
      <trkpt lat="42.86085" lon="1.33325">
        <ele>1393.568359</ele>
        <time>2011-01-08T13:21:35Z</time>
      </trkpt>
      <trkpt lat="42.86076" lon="1.33332">
        <ele>1394.049072</ele>
        <time>2011-01-08T13:21:44Z</time>
      </trkpt>
      <trkpt lat="42.86066" lon="1.33337">
        <ele>1394.529541</ele>
        <time>2011-01-08T13:21:52Z</time>
      </trkpt>
      <trkpt lat="42.86057" lon="1.33341">
        <ele>1394.529541</ele>
        <time>2011-01-08T13:22:00Z</time>
      </trkpt>
      <trkpt lat="42.86047" lon="1.33341">
        <ele>1394.049072</ele>
        <time>2011-01-08T13:22:11Z</time>
      </trkpt>
      <trkpt lat="42.86033" lon="1.33341">
        <ele>1394.529541</ele>
        <time>2011-01-08T13:22:25Z</time>
      </trkpt>
      <trkpt lat="42.86021" lon="1.33344">
        <ele>1395.490967</ele>
        <time>2011-01-08T13:22:38Z</time>
      </trkpt>
      <trkpt lat="42.86007" lon="1.33343">
        <ele>1396.452393</ele>
        <time>2011-01-08T13:22:49Z</time>
      </trkpt>
      <trkpt lat="42.85994" lon="1.3335">
        <ele>1399.336182</ele>
        <time>2011-01-08T13:23:01Z</time>
      </trkpt>
      <trkpt lat="42.85981" lon="1.33351">
        <ele>1400.297607</ele>
        <time>2011-01-08T13:23:13Z</time>
      </trkpt>
      <trkpt lat="42.85968" lon="1.33354">
        <ele>1402.219971</ele>
        <time>2011-01-08T13:23:26Z</time>
      </trkpt>
      <trkpt lat="42.85949" lon="1.3336">
        <ele>1403.181396</ele>
        <time>2011-01-08T13:23:44Z</time>
      </trkpt>
      <trkpt lat="42.85936" lon="1.33362">
        <ele>1407.026855</ele>
        <time>2011-01-08T13:24:25Z</time>
      </trkpt>
      <trkpt lat="42.85917" lon="1.33361">
        <ele>1408.46875</ele>
        <time>2011-01-08T13:24:43Z</time>
      </trkpt>
      <trkpt lat="42.85896" lon="1.33371">
        <ele>1410.391357</ele>
        <time>2011-01-08T13:25:04Z</time>
      </trkpt>
      <trkpt lat="42.85876" lon="1.33368">
        <ele>1413.755859</ele>
        <time>2011-01-08T13:25:31Z</time>
      </trkpt>
      <trkpt lat="42.85859" lon="1.33363">
        <ele>1417.120605</ele>
        <time>2011-01-08T13:25:49Z</time>
      </trkpt>
      <trkpt lat="42.85845" lon="1.33359">
        <ele>1418.5625</ele>
        <time>2011-01-08T13:26:09Z</time>
      </trkpt>
      <trkpt lat="42.85835" lon="1.33356">
        <ele>1420.485352</ele>
        <time>2011-01-08T13:26:22Z</time>
      </trkpt>
      <trkpt lat="42.85824" lon="1.33348">
        <ele>1421.446533</ele>
        <time>2011-01-08T13:26:41Z</time>
      </trkpt>
      <trkpt lat="42.8581" lon="1.33338">
        <ele>1422.407959</ele>
        <time>2011-01-08T13:26:55Z</time>
      </trkpt>
      <trkpt lat="42.85799" lon="1.33331">
        <ele>1423.849854</ele>
        <time>2011-01-08T13:27:07Z</time>
      </trkpt>
      <trkpt lat="42.85778" lon="1.33337">
        <ele>1429.617676</ele>
        <time>2011-01-08T13:27:44Z</time>
      </trkpt>
      <trkpt lat="42.85764" lon="1.33342">
        <ele>1433.462891</ele>
        <time>2011-01-08T13:28:14Z</time>
      </trkpt>
      <trkpt lat="42.85766" lon="1.33352">
        <ele>1439.230957</ele>
        <time>2011-01-08T13:29:16Z</time>
      </trkpt>
      <trkpt lat="42.85755" lon="1.33356">
        <ele>1444.037598</ele>
        <time>2011-01-08T13:29:39Z</time>
      </trkpt>
      <trkpt lat="42.85747" lon="1.33363">
        <ele>1447.4021</ele>
        <time>2011-01-08T13:30:05Z</time>
      </trkpt>
      <trkpt lat="42.85736" lon="1.33369">
        <ele>1450.286133</ele>
        <time>2011-01-08T13:30:24Z</time>
      </trkpt>
      <trkpt lat="42.85727" lon="1.33376">
        <ele>1453.650879</ele>
        <time>2011-01-08T13:30:41Z</time>
      </trkpt>
      <trkpt lat="42.85722" lon="1.33386">
        <ele>1456.534668</ele>
        <time>2011-01-08T13:30:57Z</time>
      </trkpt>
      <trkpt lat="42.85716" lon="1.33395">
        <ele>1460.379883</ele>
        <time>2011-01-08T13:31:37Z</time>
      </trkpt>
      <trkpt lat="42.85711" lon="1.33406">
        <ele>1462.783203</ele>
        <time>2011-01-08T13:31:52Z</time>
      </trkpt>
      <trkpt lat="42.85705" lon="1.33417">
        <ele>1465.667236</ele>
        <time>2011-01-08T13:32:08Z</time>
      </trkpt>
      <trkpt lat="42.85695" lon="1.3342">
        <ele>1465.667236</ele>
        <time>2011-01-08T13:32:22Z</time>
      </trkpt>
      <trkpt lat="42.85684" lon="1.33422">
        <ele>1469.512695</ele>
        <time>2011-01-08T13:34:27Z</time>
      </trkpt>
      <trkpt lat="42.85677" lon="1.33429">
        <ele>1471.435059</ele>
        <time>2011-01-08T13:34:44Z</time>
      </trkpt>
      <trkpt lat="42.85668" lon="1.33434">
        <ele>1472.877197</ele>
        <time>2011-01-08T13:34:54Z</time>
      </trkpt>
      <trkpt lat="42.85662" lon="1.33443">
        <ele>1474.799805</ele>
        <time>2011-01-08T13:35:07Z</time>
      </trkpt>
      <trkpt lat="42.85656" lon="1.33449">
        <ele>1475.280273</ele>
        <time>2011-01-08T13:35:19Z</time>
      </trkpt>
      <trkpt lat="42.85645" lon="1.33458">
        <ele>1476.722412</ele>
        <time>2011-01-08T13:35:36Z</time>
      </trkpt>
      <trkpt lat="42.85634" lon="1.33464">
        <ele>1478.64502</ele>
        <time>2011-01-08T13:35:48Z</time>
      </trkpt>
      <trkpt lat="42.85625" lon="1.33469">
        <ele>1480.567627</ele>
        <time>2011-01-08T13:36:05Z</time>
      </trkpt>
      <trkpt lat="42.85618" lon="1.33476">
        <ele>1483.451416</ele>
        <time>2011-01-08T13:36:20Z</time>
      </trkpt>
      <trkpt lat="42.85608" lon="1.33485">
        <ele>1484.893799</ele>
        <time>2011-01-08T13:36:35Z</time>
      </trkpt>
      <trkpt lat="42.85601" lon="1.33491">
        <ele>1488.739014</ele>
        <time>2011-01-08T13:36:49Z</time>
      </trkpt>
      <trkpt lat="42.85592" lon="1.33499">
        <ele>1491.622803</ele>
        <time>2011-01-08T13:37:06Z</time>
      </trkpt>
      <trkpt lat="42.85582" lon="1.33503">
        <ele>1495.468018</ele>
        <time>2011-01-08T13:37:20Z</time>
      </trkpt>
      <trkpt lat="42.85573" lon="1.33507">
        <ele>1495.468018</ele>
        <time>2011-01-08T13:37:37Z</time>
      </trkpt>
      <trkpt lat="42.85562" lon="1.33512">
        <ele>1497.390625</ele>
        <time>2011-01-08T13:37:55Z</time>
      </trkpt>
      <trkpt lat="42.85554" lon="1.33519">
        <ele>1500.755371</ele>
        <time>2011-01-08T13:40:02Z</time>
      </trkpt>
      <trkpt lat="42.85546" lon="1.33521">
        <ele>1502.677979</ele>
        <time>2011-01-08T13:40:58Z</time>
      </trkpt>
      <trkpt lat="42.85535" lon="1.33525">
        <ele>1505.562012</ele>
        <time>2011-01-08T13:41:17Z</time>
      </trkpt>
      <trkpt lat="42.85524" lon="1.33527">
        <ele>1507.965332</ele>
        <time>2011-01-08T13:41:34Z</time>
      </trkpt>
      <trkpt lat="42.85515" lon="1.33533">
        <ele>1510.849121</ele>
        <time>2011-01-08T13:41:50Z</time>
      </trkpt>
      <trkpt lat="42.85505" lon="1.33537">
        <ele>1512.291016</ele>
        <time>2011-01-08T13:42:05Z</time>
      </trkpt>
      <trkpt lat="42.85496" lon="1.33536">
        <ele>1514.213623</ele>
        <time>2011-01-08T13:43:44Z</time>
      </trkpt>
      <trkpt lat="42.85485" lon="1.33539">
        <ele>1516.136475</ele>
        <time>2011-01-08T13:43:59Z</time>
      </trkpt>
      <trkpt lat="42.85475" lon="1.33545">
        <ele>1518.539795</ele>
        <time>2011-01-08T13:44:22Z</time>
      </trkpt>
      <trkpt lat="42.85464" lon="1.33547">
        <ele>1520.462402</ele>
        <time>2011-01-08T13:44:40Z</time>
      </trkpt>
      <trkpt lat="42.85454" lon="1.33551">
        <ele>1522.38501</ele>
        <time>2011-01-08T13:44:55Z</time>
      </trkpt>
      <trkpt lat="42.85448" lon="1.33551">
        <ele>1524.307617</ele>
        <time>2011-01-08T13:45:23Z</time>
      </trkpt>
      <trkpt lat="42.85438" lon="1.33553">
        <ele>1524.78833</ele>
        <time>2011-01-08T13:45:46Z</time>
      </trkpt>
      <trkpt lat="42.85429" lon="1.33553">
        <ele>1526.710938</ele>
        <time>2011-01-08T13:46:01Z</time>
      </trkpt>
      <trkpt lat="42.85423" lon="1.33561">
        <ele>1529.594727</ele>
        <time>2011-01-08T13:46:39Z</time>
      </trkpt>
      <trkpt lat="42.85413" lon="1.33562">
        <ele>1529.594727</ele>
        <time>2011-01-08T13:47:14Z</time>
      </trkpt>
      <trkpt lat="42.85405" lon="1.33564">
        <ele>1531.998047</ele>
        <time>2011-01-08T13:47:32Z</time>
      </trkpt>
      <trkpt lat="42.85396" lon="1.33561">
        <ele>1532.479004</ele>
        <time>2011-01-08T13:47:48Z</time>
      </trkpt>
      <trkpt lat="42.85386" lon="1.33563">
        <ele>1532.959473</ele>
        <time>2011-01-08T13:47:59Z</time>
      </trkpt>
      <trkpt lat="42.85377" lon="1.33565">
        <ele>1534.401611</ele>
        <time>2011-01-08T13:48:16Z</time>
      </trkpt>
      <trkpt lat="42.85367" lon="1.33566">
        <ele>1536.324219</ele>
        <time>2011-01-08T13:48:31Z</time>
      </trkpt>
      <trkpt lat="42.85359" lon="1.33565">
        <ele>1537.2854</ele>
        <time>2011-01-08T13:49:02Z</time>
      </trkpt>
      <trkpt lat="42.85348" lon="1.33568">
        <ele>1540.169434</ele>
        <time>2011-01-08T13:49:21Z</time>
      </trkpt>
      <trkpt lat="42.85341" lon="1.33574">
        <ele>1542.572754</ele>
        <time>2011-01-08T13:49:35Z</time>
      </trkpt>
      <trkpt lat="42.8533" lon="1.33576">
        <ele>1544.97583</ele>
        <time>2011-01-08T13:49:53Z</time>
      </trkpt>
      <trkpt lat="42.8532" lon="1.33578">
        <ele>1546.417969</ele>
        <time>2011-01-08T13:50:12Z</time>
      </trkpt>
      <trkpt lat="42.85311" lon="1.33578">
        <ele>1550.743896</ele>
        <time>2011-01-08T13:50:30Z</time>
      </trkpt>
      <trkpt lat="42.85303" lon="1.33576">
        <ele>1549.302002</ele>
        <time>2011-01-08T13:51:38Z</time>
      </trkpt>
      <trkpt lat="42.8529" lon="1.33577">
        <ele>1550.743896</ele>
        <time>2011-01-08T13:51:55Z</time>
      </trkpt>
      <trkpt lat="42.85281" lon="1.33579">
        <ele>1552.185791</ele>
        <time>2011-01-08T13:52:09Z</time>
      </trkpt>
      <trkpt lat="42.85271" lon="1.33583">
        <ele>1554.589111</ele>
        <time>2011-01-08T13:52:25Z</time>
      </trkpt>
      <trkpt lat="42.85256" lon="1.33584">
        <ele>1555.550537</ele>
        <time>2011-01-08T13:52:43Z</time>
      </trkpt>
      <trkpt lat="42.85246" lon="1.33584">
        <ele>1557.473145</ele>
        <time>2011-01-08T13:52:58Z</time>
      </trkpt>
      <trkpt lat="42.85238" lon="1.33586">
        <ele>1558.434326</ele>
        <time>2011-01-08T13:53:15Z</time>
      </trkpt>
      <trkpt lat="42.85229" lon="1.33588">
        <ele>1559.876221</ele>
        <time>2011-01-08T13:53:30Z</time>
      </trkpt>
      <trkpt lat="42.8522" lon="1.33594">
        <ele>1564.202393</ele>
        <time>2011-01-08T13:53:50Z</time>
      </trkpt>
      <trkpt lat="42.85218" lon="1.33604">
        <ele>1568.047607</ele>
        <time>2011-01-08T13:55:23Z</time>
      </trkpt>
      <trkpt lat="42.85212" lon="1.33614">
        <ele>1570.931641</ele>
        <time>2011-01-08T13:55:39Z</time>
      </trkpt>
      <trkpt lat="42.85206" lon="1.33625">
        <ele>1575.738037</ele>
        <time>2011-01-08T13:55:57Z</time>
      </trkpt>
      <trkpt lat="42.85196" lon="1.33628">
        <ele>1575.738037</ele>
        <time>2011-01-08T13:56:11Z</time>
      </trkpt>
      <trkpt lat="42.8519" lon="1.33623">
        <ele>1576.21875</ele>
        <time>2011-01-08T13:56:53Z</time>
      </trkpt>
      <trkpt lat="42.85189" lon="1.33625">
        <ele>1575.257324</ele>
        <time>2011-01-08T14:01:09Z</time>
      </trkpt>
      <trkpt lat="42.85189" lon="1.33632">
        <ele>1575.738037</ele>
        <time>2011-01-08T14:01:35Z</time>
      </trkpt>
      <trkpt lat="42.85187" lon="1.33638">
        <ele>1575.257324</ele>
        <time>2011-01-08T14:01:52Z</time>
      </trkpt>
      <trkpt lat="42.85187" lon="1.33636">
        <ele>1575.257324</ele>
        <time>2011-01-08T14:02:12Z</time>
      </trkpt>
      <trkpt lat="42.85186" lon="1.33639">
        <ele>1575.257324</ele>
        <time>2011-01-08T14:02:36Z</time>
      </trkpt>
      <trkpt lat="42.8519" lon="1.33626">
        <ele>1570.450928</ele>
        <time>2011-01-08T14:22:38Z</time>
      </trkpt>
      <trkpt lat="42.85187" lon="1.3362">
        <ele>1570.450928</ele>
        <time>2011-01-08T14:28:54Z</time>
      </trkpt>
      <trkpt lat="42.85178" lon="1.33621">
        <ele>1571.412109</ele>
        <time>2011-01-08T14:29:07Z</time>
      </trkpt>
      <trkpt lat="42.85169" lon="1.33617">
        <ele>1569.970215</ele>
        <time>2011-01-08T14:29:24Z</time>
      </trkpt>
      <trkpt lat="42.8516" lon="1.33613">
        <ele>1570.450928</ele>
        <time>2011-01-08T14:29:34Z</time>
      </trkpt>
      <trkpt lat="42.85151" lon="1.33608">
        <ele>1571.412109</ele>
        <time>2011-01-08T14:29:46Z</time>
      </trkpt>
      <trkpt lat="42.85144" lon="1.33597">
        <ele>1572.854248</ele>
        <time>2011-01-08T14:29:59Z</time>
      </trkpt>
      <trkpt lat="42.85138" lon="1.3359">
        <ele>1574.296143</ele>
        <time>2011-01-08T14:30:19Z</time>
      </trkpt>
      <trkpt lat="42.85133" lon="1.33578">
        <ele>1575.257324</ele>
        <time>2011-01-08T14:30:32Z</time>
      </trkpt>
      <trkpt lat="42.85126" lon="1.33578">
        <ele>1577.180176</ele>
        <time>2011-01-08T14:31:02Z</time>
      </trkpt>
      <trkpt lat="42.85118" lon="1.33572">
        <ele>1579.583252</ele>
        <time>2011-01-08T14:31:18Z</time>
      </trkpt>
      <trkpt lat="42.85109" lon="1.33572">
        <ele>1582.947998</ele>
        <time>2011-01-08T14:31:35Z</time>
      </trkpt>
      <trkpt lat="42.85098" lon="1.33567">
        <ele>1585.351318</ele>
        <time>2011-01-08T14:31:51Z</time>
      </trkpt>
      <trkpt lat="42.8509" lon="1.33563">
        <ele>1586.793213</ele>
        <time>2011-01-08T14:32:12Z</time>
      </trkpt>
      <trkpt lat="42.85083" lon="1.33554">
        <ele>1587.273926</ele>
        <time>2011-01-08T14:32:40Z</time>
      </trkpt>
      <trkpt lat="42.85076" lon="1.33549">
        <ele>1590.638428</ele>
        <time>2011-01-08T14:32:54Z</time>
      </trkpt>
      <trkpt lat="42.85066" lon="1.33544">
        <ele>1592.561279</ele>
        <time>2011-01-08T14:33:09Z</time>
      </trkpt>
      <trkpt lat="42.85058" lon="1.33541">
        <ele>1594.003174</ele>
        <time>2011-01-08T14:33:22Z</time>
      </trkpt>
      <trkpt lat="42.85052" lon="1.3354">
        <ele>1594.964355</ele>
        <time>2011-01-08T14:34:14Z</time>
      </trkpt>
      <trkpt lat="42.85042" lon="1.33537">
        <ele>1598.329102</ele>
        <time>2011-01-08T14:34:29Z</time>
      </trkpt>
      <trkpt lat="42.85033" lon="1.33538">
        <ele>1601.213135</ele>
        <time>2011-01-08T14:34:45Z</time>
      </trkpt>
      <trkpt lat="42.85023" lon="1.33535">
        <ele>1602.174316</ele>
        <time>2011-01-08T14:34:58Z</time>
      </trkpt>
      <trkpt lat="42.85014" lon="1.33532">
        <ele>1604.577637</ele>
        <time>2011-01-08T14:35:11Z</time>
      </trkpt>
      <trkpt lat="42.85008" lon="1.33534">
        <ele>1607.46167</ele>
        <time>2011-01-08T14:36:37Z</time>
      </trkpt>
      <trkpt lat="42.84999" lon="1.33534">
        <ele>1609.864746</ele>
        <time>2011-01-08T14:36:52Z</time>
      </trkpt>
      <trkpt lat="42.84989" lon="1.33533">
        <ele>1610.345459</ele>
        <time>2011-01-08T14:37:03Z</time>
      </trkpt>
      <trkpt lat="42.84978" lon="1.33529">
        <ele>1610.826172</ele>
        <time>2011-01-08T14:37:18Z</time>
      </trkpt>
      <trkpt lat="42.8497" lon="1.33524">
        <ele>1611.787598</ele>
        <time>2011-01-08T14:37:30Z</time>
      </trkpt>
      <trkpt lat="42.84959" lon="1.3352">
        <ele>1611.787598</ele>
        <time>2011-01-08T14:39:42Z</time>
      </trkpt>
      <trkpt lat="42.84951" lon="1.33521">
        <ele>1614.671631</ele>
        <time>2011-01-08T14:39:55Z</time>
      </trkpt>
      <trkpt lat="42.84941" lon="1.33521">
        <ele>1613.229736</ele>
        <time>2011-01-08T14:40:07Z</time>
      </trkpt>
      <trkpt lat="42.84931" lon="1.33519">
        <ele>1613.229736</ele>
        <time>2011-01-08T14:40:17Z</time>
      </trkpt>
      <trkpt lat="42.84923" lon="1.33517">
        <ele>1613.710205</ele>
        <time>2011-01-08T14:40:29Z</time>
      </trkpt>
      <trkpt lat="42.84915" lon="1.3351">
        <ele>1613.229736</ele>
        <time>2011-01-08T14:40:56Z</time>
      </trkpt>
      <trkpt lat="42.84907" lon="1.33507">
        <ele>1614.190918</ele>
        <time>2011-01-08T14:41:09Z</time>
      </trkpt>
      <trkpt lat="42.84896" lon="1.33504">
        <ele>1616.113525</ele>
        <time>2011-01-08T14:41:21Z</time>
      </trkpt>
      <trkpt lat="42.84887" lon="1.33503">
        <ele>1618.036133</ele>
        <time>2011-01-08T14:41:33Z</time>
      </trkpt>
      <trkpt lat="42.84877" lon="1.33499">
        <ele>1618.997559</ele>
        <time>2011-01-08T14:41:45Z</time>
      </trkpt>
      <trkpt lat="42.8487" lon="1.33498">
        <ele>1620.920166</ele>
        <time>2011-01-08T14:42:00Z</time>
      </trkpt>
      <trkpt lat="42.84861" lon="1.33498">
        <ele>1623.323486</ele>
        <time>2011-01-08T14:42:47Z</time>
      </trkpt>
      <trkpt lat="42.84851" lon="1.33497">
        <ele>1624.284668</ele>
        <time>2011-01-08T14:43:00Z</time>
      </trkpt>
      <trkpt lat="42.84842" lon="1.33493">
        <ele>1627.64917</ele>
        <time>2011-01-08T14:43:11Z</time>
      </trkpt>
      <trkpt lat="42.84832" lon="1.33487">
        <ele>1628.61084</ele>
        <time>2011-01-08T14:43:23Z</time>
      </trkpt>
      <trkpt lat="42.84825" lon="1.33482">
        <ele>1631.01416</ele>
        <time>2011-01-08T14:43:37Z</time>
      </trkpt>
      <trkpt lat="42.84816" lon="1.33478">
        <ele>1632.936523</ele>
        <time>2011-01-08T14:43:49Z</time>
      </trkpt>
      <trkpt lat="42.84806" lon="1.33475">
        <ele>1633.417236</ele>
        <time>2011-01-08T14:44:00Z</time>
      </trkpt>
      <trkpt lat="42.84796" lon="1.33473">
        <ele>1635.339844</ele>
        <time>2011-01-08T14:44:16Z</time>
      </trkpt>
      <trkpt lat="42.84788" lon="1.33466">
        <ele>1635.339844</ele>
        <time>2011-01-08T14:44:27Z</time>
      </trkpt>
      <trkpt lat="42.84778" lon="1.33461">
        <ele>1636.30127</ele>
        <time>2011-01-08T14:44:41Z</time>
      </trkpt>
      <trkpt lat="42.84769" lon="1.33457">
        <ele>1635.339844</ele>
        <time>2011-01-08T14:44:56Z</time>
      </trkpt>
      <trkpt lat="42.84758" lon="1.33455">
        <ele>1641.107666</ele>
        <time>2011-01-08T14:45:15Z</time>
      </trkpt>
      <trkpt lat="42.84749" lon="1.33455">
        <ele>1644.472412</ele>
        <time>2011-01-08T14:47:28Z</time>
      </trkpt>
      <trkpt lat="42.84739" lon="1.3345">
        <ele>1647.356445</ele>
        <time>2011-01-08T14:47:45Z</time>
      </trkpt>
      <trkpt lat="42.84729" lon="1.33443">
        <ele>1649.279053</ele>
        <time>2011-01-08T14:48:26Z</time>
      </trkpt>
      <trkpt lat="42.84718" lon="1.33438">
        <ele>1651.682373</ele>
        <time>2011-01-08T14:48:40Z</time>
      </trkpt>
      <trkpt lat="42.84709" lon="1.33434">
        <ele>1655.046875</ele>
        <time>2011-01-08T14:48:55Z</time>
      </trkpt>
      <trkpt lat="42.84698" lon="1.33432">
        <ele>1658.411377</ele>
        <time>2011-01-08T14:49:10Z</time>
      </trkpt>
      <trkpt lat="42.84688" lon="1.33433">
        <ele>1661.295654</ele>
        <time>2011-01-08T14:49:26Z</time>
      </trkpt>
      <trkpt lat="42.84682" lon="1.33434">
        <ele>1664.660156</ele>
        <time>2011-01-08T14:49:41Z</time>
      </trkpt>
      <trkpt lat="42.84675" lon="1.33433">
        <ele>1664.179443</ele>
        <time>2011-01-08T14:49:59Z</time>
      </trkpt>
      <trkpt lat="42.84666" lon="1.3343">
        <ele>1667.543945</ele>
        <time>2011-01-08T14:50:12Z</time>
      </trkpt>
      <trkpt lat="42.84658" lon="1.33426">
        <ele>1672.350586</ele>
        <time>2011-01-08T14:50:26Z</time>
      </trkpt>
      <trkpt lat="42.84647" lon="1.33428">
        <ele>1673.79248</ele>
        <time>2011-01-08T14:53:12Z</time>
      </trkpt>
      <trkpt lat="42.84639" lon="1.33431">
        <ele>1676.676758</ele>
        <time>2011-01-08T14:53:27Z</time>
      </trkpt>
      <trkpt lat="42.8463" lon="1.3343">
        <ele>1680.04126</ele>
        <time>2011-01-08T14:53:42Z</time>
      </trkpt>
      <trkpt lat="42.84618" lon="1.33429">
        <ele>1681.002686</ele>
        <time>2011-01-08T14:53:56Z</time>
      </trkpt>
      <trkpt lat="42.84608" lon="1.33427">
        <ele>1683.405762</ele>
        <time>2011-01-08T14:54:07Z</time>
      </trkpt>
      <trkpt lat="42.84599" lon="1.33429">
        <ele>1684.8479</ele>
        <time>2011-01-08T14:56:37Z</time>
      </trkpt>
      <trkpt lat="42.84589" lon="1.3343">
        <ele>1688.212402</ele>
        <time>2011-01-08T14:56:49Z</time>
      </trkpt>
      <trkpt lat="42.8458" lon="1.33434">
        <ele>1687.731689</ele>
        <time>2011-01-08T14:57:00Z</time>
      </trkpt>
      <trkpt lat="42.8457" lon="1.33436">
        <ele>1691.096191</ele>
        <time>2011-01-08T14:57:13Z</time>
      </trkpt>
      <trkpt lat="42.8456" lon="1.33437">
        <ele>1693.019043</ele>
        <time>2011-01-08T14:57:26Z</time>
      </trkpt>
      <trkpt lat="42.84552" lon="1.3344">
        <ele>1694.94165</ele>
        <time>2011-01-08T14:57:38Z</time>
      </trkpt>
      <trkpt lat="42.84544" lon="1.33447">
        <ele>1693.980469</ele>
        <time>2011-01-08T14:57:50Z</time>
      </trkpt>
      <trkpt lat="42.84537" lon="1.33455">
        <ele>1698.786865</ele>
        <time>2011-01-08T14:58:02Z</time>
      </trkpt>
      <trkpt lat="42.84528" lon="1.33463">
        <ele>1701.670898</ele>
        <time>2011-01-08T14:58:16Z</time>
      </trkpt>
      <trkpt lat="42.84522" lon="1.3347">
        <ele>1705.996582</ele>
        <time>2011-01-08T14:59:30Z</time>
      </trkpt>
      <trkpt lat="42.84515" lon="1.33476">
        <ele>1706.958008</ele>
        <time>2011-01-08T14:59:58Z</time>
      </trkpt>
      <trkpt lat="42.8451" lon="1.33485">
        <ele>1710.322754</ele>
        <time>2011-01-08T15:00:22Z</time>
      </trkpt>
      <trkpt lat="42.84503" lon="1.33495">
        <ele>1713.206787</ele>
        <time>2011-01-08T15:00:34Z</time>
      </trkpt>
      <trkpt lat="42.84495" lon="1.33499">
        <ele>1714.167969</ele>
        <time>2011-01-08T15:00:43Z</time>
      </trkpt>
      <trkpt lat="42.84488" lon="1.33505">
        <ele>1714.167969</ele>
        <time>2011-01-08T15:01:09Z</time>
      </trkpt>
      <trkpt lat="42.84481" lon="1.33513">
        <ele>1714.648682</ele>
        <time>2011-01-08T15:02:21Z</time>
      </trkpt>
      <trkpt lat="42.84471" lon="1.33518">
        <ele>1717.532471</ele>
        <time>2011-01-08T15:02:30Z</time>
      </trkpt>
      <trkpt lat="42.84462" lon="1.33526">
        <ele>1715.610107</ele>
        <time>2011-01-08T15:02:57Z</time>
      </trkpt>
      <trkpt lat="42.84456" lon="1.33534">
        <ele>1714.167969</ele>
        <time>2011-01-08T15:03:05Z</time>
      </trkpt>
      <trkpt lat="42.84445" lon="1.33538">
        <ele>1716.571289</ele>
        <time>2011-01-08T15:03:19Z</time>
      </trkpt>
      <trkpt lat="42.84438" lon="1.33546">
        <ele>1715.610107</ele>
        <time>2011-01-08T15:03:48Z</time>
      </trkpt>
      <trkpt lat="42.84431" lon="1.33556">
        <ele>1719.935791</ele>
        <time>2011-01-08T15:04:01Z</time>
      </trkpt>
      <trkpt lat="42.84425" lon="1.33564">
        <ele>1721.377686</ele>
        <time>2011-01-08T15:04:12Z</time>
      </trkpt>
      <trkpt lat="42.84419" lon="1.33573">
        <ele>1725.703857</ele>
        <time>2011-01-08T15:04:23Z</time>
      </trkpt>
      <trkpt lat="42.84412" lon="1.3358">
        <ele>1725.223145</ele>
        <time>2011-01-08T15:05:15Z</time>
      </trkpt>
      <trkpt lat="42.84404" lon="1.33589">
        <ele>1727.626465</ele>
        <time>2011-01-08T15:05:26Z</time>
      </trkpt>
      <trkpt lat="42.84397" lon="1.33597">
        <ele>1728.587891</ele>
        <time>2011-01-08T15:05:36Z</time>
      </trkpt>
      <trkpt lat="42.84388" lon="1.33601">
        <ele>1726.18457</ele>
        <time>2011-01-08T15:05:46Z</time>
      </trkpt>
      <trkpt lat="42.8438" lon="1.33608">
        <ele>1726.665283</ele>
        <time>2011-01-08T15:05:56Z</time>
      </trkpt>
      <trkpt lat="42.84372" lon="1.33617">
        <ele>1725.703857</ele>
        <time>2011-01-08T15:06:08Z</time>
      </trkpt>
      <trkpt lat="42.84363" lon="1.33627">
        <ele>1725.703857</ele>
        <time>2011-01-08T15:06:18Z</time>
      </trkpt>
      <trkpt lat="42.84354" lon="1.33632">
        <ele>1722.819824</ele>
        <time>2011-01-08T15:06:29Z</time>
      </trkpt>
      <trkpt lat="42.84344" lon="1.33638">
        <ele>1719.455322</ele>
        <time>2011-01-08T15:06:40Z</time>
      </trkpt>
      <trkpt lat="42.84335" lon="1.33645">
        <ele>1720.416504</ele>
        <time>2011-01-08T15:06:52Z</time>
      </trkpt>
      <trkpt lat="42.84327" lon="1.33653">
        <ele>1721.377686</ele>
        <time>2011-01-08T15:07:04Z</time>
      </trkpt>
      <trkpt lat="42.84322" lon="1.33658">
        <ele>1720.416504</ele>
        <time>2011-01-08T15:08:13Z</time>
      </trkpt>
      <trkpt lat="42.8431" lon="1.3367">
        <ele>1723.300537</ele>
        <time>2011-01-08T15:08:29Z</time>
      </trkpt>
      <trkpt lat="42.84304" lon="1.33679">
        <ele>1725.703857</ele>
        <time>2011-01-08T15:08:41Z</time>
      </trkpt>
      <trkpt lat="42.843" lon="1.33684">
        <ele>1729.068359</ele>
        <time>2011-01-08T15:09:00Z</time>
      </trkpt>
      <trkpt lat="42.84298" lon="1.33694">
        <ele>1730.991211</ele>
        <time>2011-01-08T15:09:09Z</time>
      </trkpt>
      <trkpt lat="42.84289" lon="1.33708">
        <ele>1735.316895</ele>
        <time>2011-01-08T15:09:22Z</time>
      </trkpt>
      <trkpt lat="42.84287" lon="1.33712">
        <ele>1735.797607</ele>
        <time>2011-01-08T15:09:42Z</time>
      </trkpt>
      <trkpt lat="42.84292" lon="1.33707">
        <ele>1736.27832</ele>
        <time>2011-01-08T15:12:53Z</time>
      </trkpt>
      <trkpt lat="42.84293" lon="1.33702">
        <ele>1737.239502</ele>
        <time>2011-01-08T15:13:13Z</time>
      </trkpt>
      <trkpt lat="42.84293" lon="1.33703">
        <ele>1736.758789</ele>
        <time>2011-01-08T15:17:47Z</time>
      </trkpt>
      <trkpt lat="42.84287" lon="1.33701">
        <ele>1730.510498</ele>
        <time>2011-01-08T15:18:36Z</time>
      </trkpt>
      <trkpt lat="42.84281" lon="1.33696">
        <ele>1730.510498</ele>
        <time>2011-01-08T15:18:45Z</time>
      </trkpt>
      <trkpt lat="42.84275" lon="1.33686">
        <ele>1726.665283</ele>
        <time>2011-01-08T15:18:56Z</time>
      </trkpt>
      <trkpt lat="42.84266" lon="1.33684">
        <ele>1724.742676</ele>
        <time>2011-01-08T15:19:06Z</time>
      </trkpt>
      <trkpt lat="42.84257" lon="1.33679">
        <ele>1719.935791</ele>
        <time>2011-01-08T15:19:20Z</time>
      </trkpt>
      <trkpt lat="42.84246" lon="1.33672">
        <ele>1718.493896</ele>
        <time>2011-01-08T15:19:38Z</time>
      </trkpt>
      <trkpt lat="42.8424" lon="1.33664">
        <ele>1716.571289</ele>
        <time>2011-01-08T15:19:51Z</time>
      </trkpt>
      <trkpt lat="42.84241" lon="1.33653">
        <ele>1711.764893</ele>
        <time>2011-01-08T15:20:19Z</time>
      </trkpt>
      <trkpt lat="42.84248" lon="1.33642">
        <ele>1708.400146</ele>
        <time>2011-01-08T15:20:31Z</time>
      </trkpt>
      <trkpt lat="42.84248" lon="1.33627">
        <ele>1703.112793</ele>
        <time>2011-01-08T15:20:48Z</time>
      </trkpt>
      <trkpt lat="42.84249" lon="1.33615">
        <ele>1699.267578</ele>
        <time>2011-01-08T15:20:58Z</time>
      </trkpt>
      <trkpt lat="42.84253" lon="1.33606">
        <ele>1699.267578</ele>
        <time>2011-01-08T15:21:09Z</time>
      </trkpt>
      <trkpt lat="42.84259" lon="1.33596">
        <ele>1694.460938</ele>
        <time>2011-01-08T15:21:26Z</time>
      </trkpt>
      <trkpt lat="42.84261" lon="1.33582">
        <ele>1689.173584</ele>
        <time>2011-01-08T15:21:45Z</time>
      </trkpt>
      <trkpt lat="42.84269" lon="1.33574">
        <ele>1687.250977</ele>
        <time>2011-01-08T15:21:57Z</time>
      </trkpt>
      <trkpt lat="42.84275" lon="1.33567">
        <ele>1681.483154</ele>
        <time>2011-01-08T15:22:51Z</time>
      </trkpt>
      <trkpt lat="42.84275" lon="1.33549">
        <ele>1677.157471</ele>
        <time>2011-01-08T15:23:04Z</time>
      </trkpt>
      <trkpt lat="42.8428" lon="1.3354">
        <ele>1672.831299</ele>
        <time>2011-01-08T15:23:18Z</time>
      </trkpt>
      <trkpt lat="42.84282" lon="1.33531">
        <ele>1666.102051</ele>
        <time>2011-01-08T15:23:39Z</time>
      </trkpt>
      <trkpt lat="42.84278" lon="1.33521">
        <ele>1659.372803</ele>
        <time>2011-01-08T15:23:59Z</time>
      </trkpt>
      <trkpt lat="42.84279" lon="1.3351">
        <ele>1655.527588</ele>
        <time>2011-01-08T15:25:40Z</time>
      </trkpt>
      <trkpt lat="42.84275" lon="1.33497">
        <ele>1646.395264</ele>
        <time>2011-01-08T15:26:08Z</time>
      </trkpt>
      <trkpt lat="42.84272" lon="1.33485">
        <ele>1641.107666</ele>
        <time>2011-01-08T15:26:25Z</time>
      </trkpt>
      <trkpt lat="42.84273" lon="1.3347">
        <ele>1633.897949</ele>
        <time>2011-01-08T15:26:54Z</time>
      </trkpt>
      <trkpt lat="42.84276" lon="1.33457">
        <ele>1630.533447</ele>
        <time>2011-01-08T15:27:17Z</time>
      </trkpt>
      <trkpt lat="42.84277" lon="1.33447">
        <ele>1624.284668</ele>
        <time>2011-01-08T15:27:43Z</time>
      </trkpt>
      <trkpt lat="42.84277" lon="1.3343">
        <ele>1615.633057</ele>
        <time>2011-01-08T15:30:07Z</time>
      </trkpt>
      <trkpt lat="42.84274" lon="1.33409">
        <ele>1608.422852</ele>
        <time>2011-01-08T15:30:35Z</time>
      </trkpt>
      <trkpt lat="42.84273" lon="1.33393">
        <ele>1602.174316</ele>
        <time>2011-01-08T15:31:00Z</time>
      </trkpt>
      <trkpt lat="42.84273" lon="1.33377">
        <ele>1596.406738</ele>
        <time>2011-01-08T15:31:21Z</time>
      </trkpt>
      <trkpt lat="42.84272" lon="1.33359">
        <ele>1591.119141</ele>
        <time>2011-01-08T15:31:56Z</time>
      </trkpt>
      <trkpt lat="42.84275" lon="1.33346">
        <ele>1586.793213</ele>
        <time>2011-01-08T15:32:14Z</time>
      </trkpt>
      <trkpt lat="42.84276" lon="1.33334">
        <ele>1583.428711</ele>
        <time>2011-01-08T15:33:12Z</time>
      </trkpt>
      <trkpt lat="42.84277" lon="1.33321">
        <ele>1581.025635</ele>
        <time>2011-01-08T15:33:28Z</time>
      </trkpt>
      <trkpt lat="42.84278" lon="1.33305">
        <ele>1575.257324</ele>
        <time>2011-01-08T15:33:44Z</time>
      </trkpt>
      <trkpt lat="42.84278" lon="1.33288">
        <ele>1569.970215</ele>
        <time>2011-01-08T15:34:01Z</time>
      </trkpt>
      <trkpt lat="42.84281" lon="1.33274">
        <ele>1565.163818</ele>
        <time>2011-01-08T15:34:21Z</time>
      </trkpt>
      <trkpt lat="42.84289" lon="1.33267">
        <ele>1565.163818</ele>
        <time>2011-01-08T15:34:31Z</time>
      </trkpt>
      <trkpt lat="42.84298" lon="1.33258">
        <ele>1563.721436</ele>
        <time>2011-01-08T15:34:47Z</time>
      </trkpt>
      <trkpt lat="42.84304" lon="1.33247">
        <ele>1562.760254</ele>
        <time>2011-01-08T15:34:58Z</time>
      </trkpt>
      <trkpt lat="42.84308" lon="1.33235">
        <ele>1559.876221</ele>
        <time>2011-01-08T15:35:07Z</time>
      </trkpt>
      <trkpt lat="42.84313" lon="1.33222">
        <ele>1557.473145</ele>
        <time>2011-01-08T15:35:16Z</time>
      </trkpt>
      <trkpt lat="42.84316" lon="1.33212">
        <ele>1556.031006</ele>
        <time>2011-01-08T15:35:33Z</time>
      </trkpt>
      <trkpt lat="42.84319" lon="1.33199">
        <ele>1552.666504</ele>
        <time>2011-01-08T15:35:45Z</time>
      </trkpt>
      <trkpt lat="42.8432" lon="1.33184">
        <ele>1548.821289</ele>
        <time>2011-01-08T15:35:54Z</time>
      </trkpt>
      <trkpt lat="42.84318" lon="1.33169">
        <ele>1545.456543</ele>
        <time>2011-01-08T15:36:08Z</time>
      </trkpt>
      <trkpt lat="42.84316" lon="1.33153">
        <ele>1540.649902</ele>
        <time>2011-01-08T15:36:28Z</time>
      </trkpt>
      <trkpt lat="42.84311" lon="1.33135">
        <ele>1533.920898</ele>
        <time>2011-01-08T15:36:55Z</time>
      </trkpt>
      <trkpt lat="42.84309" lon="1.33121">
        <ele>1531.036865</ele>
        <time>2011-01-08T15:37:10Z</time>
      </trkpt>
      <trkpt lat="42.8431" lon="1.33106">
        <ele>1528.152832</ele>
        <time>2011-01-08T15:37:21Z</time>
      </trkpt>
      <trkpt lat="42.84308" lon="1.33095">
        <ele>1524.307617</ele>
        <time>2011-01-08T15:37:46Z</time>
      </trkpt>
      <trkpt lat="42.84305" lon="1.33097">
        <ele>1521.423584</ele>
        <time>2011-01-08T15:40:43Z</time>
      </trkpt>
      <trkpt lat="42.8431" lon="1.33101">
        <ele>1522.865723</ele>
        <time>2011-01-08T15:45:53Z</time>
      </trkpt>
      <trkpt lat="42.84308" lon="1.33089">
        <ele>1522.865723</ele>
        <time>2011-01-08T15:46:11Z</time>
      </trkpt>
      <trkpt lat="42.84309" lon="1.33077">
        <ele>1521.423584</ele>
        <time>2011-01-08T15:46:29Z</time>
      </trkpt>
      <trkpt lat="42.84311" lon="1.33063">
        <ele>1519.020508</ele>
        <time>2011-01-08T15:46:39Z</time>
      </trkpt>
      <trkpt lat="42.84313" lon="1.33049">
        <ele>1515.175049</ele>
        <time>2011-01-08T15:46:52Z</time>
      </trkpt>
      <trkpt lat="42.84315" lon="1.33037">
        <ele>1511.329834</ele>
        <time>2011-01-08T15:47:02Z</time>
      </trkpt>
      <trkpt lat="42.84317" lon="1.3302">
        <ele>1506.523193</ele>
        <time>2011-01-08T15:47:16Z</time>
      </trkpt>
      <trkpt lat="42.84319" lon="1.33007">
        <ele>1504.600586</ele>
        <time>2011-01-08T15:47:28Z</time>
      </trkpt>
      <trkpt lat="42.84318" lon="1.32992">
        <ele>1500.755371</ele>
        <time>2011-01-08T15:47:42Z</time>
      </trkpt>
      <trkpt lat="42.84319" lon="1.32979">
        <ele>1498.351807</ele>
        <time>2011-01-08T15:47:56Z</time>
      </trkpt>
      <trkpt lat="42.84324" lon="1.32966">
        <ele>1495.468018</ele>
        <time>2011-01-08T15:48:12Z</time>
      </trkpt>
      <trkpt lat="42.84326" lon="1.32956">
        <ele>1492.584229</ele>
        <time>2011-01-08T15:49:24Z</time>
      </trkpt>
      <trkpt lat="42.84332" lon="1.32945">
        <ele>1490.180908</ele>
        <time>2011-01-08T15:49:37Z</time>
      </trkpt>
      <trkpt lat="42.8433" lon="1.32931">
        <ele>1485.374268</ele>
        <time>2011-01-08T15:50:06Z</time>
      </trkpt>
      <trkpt lat="42.84333" lon="1.32917">
        <ele>1483.451416</ele>
        <time>2011-01-08T15:50:18Z</time>
      </trkpt>
      <trkpt lat="42.84333" lon="1.32904">
        <ele>1476.722412</ele>
        <time>2011-01-08T15:50:34Z</time>
      </trkpt>
      <trkpt lat="42.84336" lon="1.32884">
        <ele>1471.915771</ele>
        <time>2011-01-08T15:51:08Z</time>
      </trkpt>
      <trkpt lat="42.84339" lon="1.32872">
        <ele>1470.473877</ele>
        <time>2011-01-08T15:51:20Z</time>
      </trkpt>
      <trkpt lat="42.84339" lon="1.32858">
        <ele>1465.186523</ele>
        <time>2011-01-08T15:51:34Z</time>
      </trkpt>
      <trkpt lat="42.84339" lon="1.32848">
        <ele>1461.822021</ele>
        <time>2011-01-08T15:51:51Z</time>
      </trkpt>
      <trkpt lat="42.8434" lon="1.32834">
        <ele>1457.015381</ele>
        <time>2011-01-08T15:52:19Z</time>
      </trkpt>
      <trkpt lat="42.84347" lon="1.32824">
        <ele>1456.534668</ele>
        <time>2011-01-08T15:52:39Z</time>
      </trkpt>
      <trkpt lat="42.84349" lon="1.32813">
        <ele>1455.092773</ele>
        <time>2011-01-08T15:53:04Z</time>
      </trkpt>
      <trkpt lat="42.8435" lon="1.32798">
        <ele>1444.518066</ele>
        <time>2011-01-08T15:53:26Z</time>
      </trkpt>
      <trkpt lat="42.84348" lon="1.32783">
        <ele>1438.750488</ele>
        <time>2011-01-08T15:53:45Z</time>
      </trkpt>
      <trkpt lat="42.84349" lon="1.32763">
        <ele>1432.982178</ele>
        <time>2011-01-08T15:54:10Z</time>
      </trkpt>
      <trkpt lat="42.84342" lon="1.32759">
        <ele>1426.733887</ele>
        <time>2011-01-08T15:54:29Z</time>
      </trkpt>
      <trkpt lat="42.84336" lon="1.32763">
        <ele>1426.733887</ele>
        <time>2011-01-08T15:56:03Z</time>
      </trkpt>
      <trkpt lat="42.84346" lon="1.32756">
        <ele>1426.253174</ele>
        <time>2011-01-08T15:56:18Z</time>
      </trkpt>
      <trkpt lat="42.84354" lon="1.32748">
        <ele>1425.772461</ele>
        <time>2011-01-08T15:56:37Z</time>
      </trkpt>
      <trkpt lat="42.84364" lon="1.32741">
        <ele>1425.291748</ele>
        <time>2011-01-08T15:56:46Z</time>
      </trkpt>
      <trkpt lat="42.84372" lon="1.32736">
        <ele>1424.330566</ele>
        <time>2011-01-08T15:56:59Z</time>
      </trkpt>
      <trkpt lat="42.84381" lon="1.32731">
        <ele>1423.849854</ele>
        <time>2011-01-08T15:57:14Z</time>
      </trkpt>
      <trkpt lat="42.84391" lon="1.32725">
        <ele>1422.888672</ele>
        <time>2011-01-08T15:57:28Z</time>
      </trkpt>
      <trkpt lat="42.84401" lon="1.32719">
        <ele>1423.369385</ele>
        <time>2011-01-08T15:57:37Z</time>
      </trkpt>
      <trkpt lat="42.84408" lon="1.32711">
        <ele>1422.888672</ele>
        <time>2011-01-08T15:57:46Z</time>
      </trkpt>
      <trkpt lat="42.84418" lon="1.32706">
        <ele>1421.446533</ele>
        <time>2011-01-08T15:57:54Z</time>
      </trkpt>
      <trkpt lat="42.84425" lon="1.327">
        <ele>1421.446533</ele>
        <time>2011-01-08T15:58:05Z</time>
      </trkpt>
      <trkpt lat="42.84435" lon="1.32695">
        <ele>1418.5625</ele>
        <time>2011-01-08T15:58:12Z</time>
      </trkpt>
      <trkpt lat="42.84442" lon="1.32688">
        <ele>1420.004639</ele>
        <time>2011-01-08T15:58:21Z</time>
      </trkpt>
      <trkpt lat="42.84451" lon="1.32685">
        <ele>1417.120605</ele>
        <time>2011-01-08T16:01:41Z</time>
      </trkpt>
      <trkpt lat="42.84458" lon="1.32674">
        <ele>1413.755859</ele>
        <time>2011-01-08T16:01:55Z</time>
      </trkpt>
      <trkpt lat="42.84469" lon="1.32666">
        <ele>1410.391357</ele>
        <time>2011-01-08T16:02:15Z</time>
      </trkpt>
      <trkpt lat="42.84478" lon="1.32676">
        <ele>1407.026855</ele>
        <time>2011-01-08T16:02:28Z</time>
      </trkpt>
      <trkpt lat="42.84484" lon="1.32678">
        <ele>1406.06543</ele>
        <time>2011-01-08T16:02:52Z</time>
      </trkpt>
      <trkpt lat="42.84491" lon="1.3267">
        <ele>1406.546143</ele>
        <time>2011-01-08T16:05:50Z</time>
      </trkpt>
      <trkpt lat="42.84492" lon="1.32656">
        <ele>1407.026855</ele>
        <time>2011-01-08T16:06:01Z</time>
      </trkpt>
      <trkpt lat="42.84495" lon="1.32641">
        <ele>1405.104248</ele>
        <time>2011-01-08T16:06:12Z</time>
      </trkpt>
      <trkpt lat="42.84502" lon="1.32629">
        <ele>1404.143066</ele>
        <time>2011-01-08T16:06:20Z</time>
      </trkpt>
      <trkpt lat="42.8451" lon="1.32619">
        <ele>1404.623535</ele>
        <time>2011-01-08T16:06:31Z</time>
      </trkpt>
      <trkpt lat="42.84517" lon="1.32609">
        <ele>1405.104248</ele>
        <time>2011-01-08T16:06:40Z</time>
      </trkpt>
      <trkpt lat="42.84523" lon="1.32598">
        <ele>1404.623535</ele>
        <time>2011-01-08T16:06:48Z</time>
      </trkpt>
      <trkpt lat="42.84529" lon="1.32587">
        <ele>1404.143066</ele>
        <time>2011-01-08T16:06:57Z</time>
      </trkpt>
      <trkpt lat="42.84539" lon="1.32582">
        <ele>1404.143066</ele>
        <time>2011-01-08T16:07:04Z</time>
      </trkpt>
      <trkpt lat="42.84545" lon="1.32571">
        <ele>1404.143066</ele>
        <time>2011-01-08T16:07:17Z</time>
      </trkpt>
      <trkpt lat="42.84552" lon="1.3256">
        <ele>1403.662109</ele>
        <time>2011-01-08T16:07:24Z</time>
      </trkpt>
      <trkpt lat="42.84554" lon="1.32548">
        <ele>1401.739502</ele>
        <time>2011-01-08T16:07:33Z</time>
      </trkpt>
      <trkpt lat="42.8456" lon="1.32535">
        <ele>1402.219971</ele>
        <time>2011-01-08T16:07:49Z</time>
      </trkpt>
      <trkpt lat="42.84565" lon="1.3252">
        <ele>1402.700684</ele>
        <time>2011-01-08T16:08:00Z</time>
      </trkpt>
      <trkpt lat="42.84575" lon="1.32514">
        <ele>1403.181396</ele>
        <time>2011-01-08T16:08:08Z</time>
      </trkpt>
      <trkpt lat="42.84585" lon="1.32505">
        <ele>1403.181396</ele>
        <time>2011-01-08T16:08:17Z</time>
      </trkpt>
      <trkpt lat="42.84594" lon="1.32499">
        <ele>1401.739502</ele>
        <time>2011-01-08T16:08:26Z</time>
      </trkpt>
      <trkpt lat="42.84605" lon="1.32492">
        <ele>1402.700684</ele>
        <time>2011-01-08T16:08:35Z</time>
      </trkpt>
      <trkpt lat="42.84613" lon="1.32483">
        <ele>1403.181396</ele>
        <time>2011-01-08T16:08:43Z</time>
      </trkpt>
      <trkpt lat="42.84621" lon="1.32473">
        <ele>1402.700684</ele>
        <time>2011-01-08T16:08:50Z</time>
      </trkpt>
      <trkpt lat="42.84624" lon="1.32461">
        <ele>1403.181396</ele>
        <time>2011-01-08T16:08:59Z</time>
      </trkpt>
      <trkpt lat="42.84626" lon="1.32452">
        <ele>1401.739502</ele>
        <time>2011-01-08T16:09:17Z</time>
      </trkpt>
      <trkpt lat="42.84632" lon="1.32443">
        <ele>1403.181396</ele>
        <time>2011-01-08T16:09:25Z</time>
      </trkpt>
      <trkpt lat="42.84637" lon="1.32433">
        <ele>1398.855469</ele>
        <time>2011-01-08T16:09:34Z</time>
      </trkpt>
      <trkpt lat="42.84644" lon="1.32425">
        <ele>1400.778076</ele>
        <time>2011-01-08T16:09:43Z</time>
      </trkpt>
      <trkpt lat="42.84653" lon="1.32418">
        <ele>1398.855469</ele>
        <time>2011-01-08T16:09:52Z</time>
      </trkpt>
      <trkpt lat="42.84664" lon="1.32415">
        <ele>1397.413574</ele>
        <time>2011-01-08T16:10:02Z</time>
      </trkpt>
      <trkpt lat="42.84676" lon="1.32414">
        <ele>1394.529541</ele>
        <time>2011-01-08T16:10:11Z</time>
      </trkpt>
      <trkpt lat="42.84688" lon="1.32413">
        <ele>1390.203857</ele>
        <time>2011-01-08T16:10:26Z</time>
      </trkpt>
      <trkpt lat="42.84697" lon="1.3241">
        <ele>1386.358398</ele>
        <time>2011-01-08T16:10:45Z</time>
      </trkpt>
      <trkpt lat="42.84715" lon="1.32402">
        <ele>1379.148438</ele>
        <time>2011-01-08T16:11:03Z</time>
      </trkpt>
      <trkpt lat="42.84727" lon="1.32394">
        <ele>1375.303223</ele>
        <time>2011-01-08T16:11:20Z</time>
      </trkpt>
      <trkpt lat="42.8474" lon="1.32385">
        <ele>1370.977295</ele>
        <time>2011-01-08T16:11:39Z</time>
      </trkpt>
      <trkpt lat="42.84754" lon="1.32378">
        <ele>1364.72876</ele>
        <time>2011-01-08T16:12:13Z</time>
      </trkpt>
      <trkpt lat="42.84771" lon="1.32367">
        <ele>1360.883545</ele>
        <time>2011-01-08T16:12:28Z</time>
      </trkpt>
      <trkpt lat="42.84789" lon="1.32358">
        <ele>1356.557617</ele>
        <time>2011-01-08T16:12:50Z</time>
      </trkpt>
      <trkpt lat="42.84801" lon="1.3234">
        <ele>1353.192871</ele>
        <time>2011-01-08T16:13:04Z</time>
      </trkpt>
      <trkpt lat="42.8481" lon="1.32322">
        <ele>1349.828369</ele>
        <time>2011-01-08T16:13:21Z</time>
      </trkpt>
      <trkpt lat="42.84817" lon="1.32307">
        <ele>1345.983154</ele>
        <time>2011-01-08T16:13:36Z</time>
      </trkpt>
      <trkpt lat="42.84827" lon="1.32299">
        <ele>1343.099121</ele>
        <time>2011-01-08T16:13:50Z</time>
      </trkpt>
      <trkpt lat="42.84841" lon="1.3229">
        <ele>1339.253662</ele>
        <time>2011-01-08T16:14:12Z</time>
      </trkpt>
      <trkpt lat="42.84852" lon="1.32279">
        <ele>1335.408447</ele>
        <time>2011-01-08T16:14:33Z</time>
      </trkpt>
      <trkpt lat="42.84861" lon="1.32265">
        <ele>1335.408447</ele>
        <time>2011-01-08T16:14:46Z</time>
      </trkpt>
      <trkpt lat="42.84871" lon="1.32258">
        <ele>1335.408447</ele>
        <time>2011-01-08T16:14:56Z</time>
      </trkpt>
      <trkpt lat="42.8488" lon="1.32248">
        <ele>1333.966553</ele>
        <time>2011-01-08T16:15:06Z</time>
      </trkpt>
      <trkpt lat="42.84891" lon="1.3224">
        <ele>1333.966553</ele>
        <time>2011-01-08T16:15:22Z</time>
      </trkpt>
      <trkpt lat="42.84903" lon="1.32232">
        <ele>1332.524658</ele>
        <time>2011-01-08T16:15:37Z</time>
      </trkpt>
      <trkpt lat="42.84916" lon="1.32229">
        <ele>1331.082764</ele>
        <time>2011-01-08T16:15:49Z</time>
      </trkpt>
      <trkpt lat="42.84928" lon="1.32226">
        <ele>1328.679443</ele>
        <time>2011-01-08T16:16:00Z</time>
      </trkpt>
      <trkpt lat="42.84929" lon="1.32212">
        <ele>1325.314697</ele>
        <time>2011-01-08T16:16:13Z</time>
      </trkpt>
      <trkpt lat="42.84926" lon="1.32198">
        <ele>1321.469238</ele>
        <time>2011-01-08T16:16:25Z</time>
      </trkpt>
      <trkpt lat="42.84921" lon="1.32182">
        <ele>1321.949951</ele>
        <time>2011-01-08T16:16:38Z</time>
      </trkpt>
      <trkpt lat="42.84917" lon="1.3217">
        <ele>1317.624023</ele>
        <time>2011-01-08T16:16:52Z</time>
      </trkpt>
      <trkpt lat="42.84914" lon="1.32152">
        <ele>1313.29834</ele>
        <time>2011-01-08T16:17:09Z</time>
      </trkpt>
      <trkpt lat="42.84915" lon="1.32137">
        <ele>1310.89502</ele>
        <time>2011-01-08T16:17:22Z</time>
      </trkpt>
      <trkpt lat="42.84917" lon="1.3212">
        <ele>1309.933594</ele>
        <time>2011-01-08T16:17:35Z</time>
      </trkpt>
      <trkpt lat="42.84918" lon="1.32104">
        <ele>1307.530273</ele>
        <time>2011-01-08T16:17:47Z</time>
      </trkpt>
      <trkpt lat="42.84917" lon="1.32084">
        <ele>1304.165771</ele>
        <time>2011-01-08T16:18:01Z</time>
      </trkpt>
      <trkpt lat="42.84917" lon="1.3207">
        <ele>1303.685059</ele>
        <time>2011-01-08T16:18:10Z</time>
      </trkpt>
      <trkpt lat="42.84921" lon="1.32056">
        <ele>1301.281738</ele>
        <time>2011-01-08T16:18:23Z</time>
      </trkpt>
      <trkpt lat="42.84932" lon="1.32042">
        <ele>1295.513916</ele>
        <time>2011-01-08T16:18:39Z</time>
      </trkpt>
      <trkpt lat="42.8494" lon="1.32032">
        <ele>1294.072021</ele>
        <time>2011-01-08T16:18:52Z</time>
      </trkpt>
      <trkpt lat="42.84948" lon="1.32017">
        <ele>1289.265137</ele>
        <time>2011-01-08T16:20:22Z</time>
      </trkpt>
      <trkpt lat="42.84963" lon="1.32002">
        <ele>1283.978027</ele>
        <time>2011-01-08T16:20:43Z</time>
      </trkpt>
      <trkpt lat="42.84964" lon="1.31986">
        <ele>1282.05542</ele>
        <time>2011-01-08T16:20:54Z</time>
      </trkpt>
      <trkpt lat="42.84967" lon="1.31969">
        <ele>1278.210205</ele>
        <time>2011-01-08T16:21:07Z</time>
      </trkpt>
      <trkpt lat="42.84964" lon="1.31955">
        <ele>1275.806641</ele>
        <time>2011-01-08T16:21:17Z</time>
      </trkpt>
      <trkpt lat="42.8496" lon="1.31939">
        <ele>1271.961426</ele>
        <time>2011-01-08T16:21:35Z</time>
      </trkpt>
      <trkpt lat="42.84949" lon="1.31928">
        <ele>1269.077637</ele>
        <time>2011-01-08T16:21:45Z</time>
      </trkpt>
      <trkpt lat="42.84941" lon="1.31908">
        <ele>1265.232422</ele>
        <time>2011-01-08T16:22:14Z</time>
      </trkpt>
      <trkpt lat="42.84926" lon="1.31897">
        <ele>1263.309814</ele>
        <time>2011-01-08T16:22:37Z</time>
      </trkpt>
      <trkpt lat="42.84915" lon="1.31886">
        <ele>1257.541748</ele>
        <time>2011-01-08T16:22:58Z</time>
      </trkpt>
      <trkpt lat="42.84903" lon="1.31878">
        <ele>1257.061035</ele>
        <time>2011-01-08T16:23:11Z</time>
      </trkpt>
      <trkpt lat="42.84889" lon="1.31874">
        <ele>1254.657715</ele>
        <time>2011-01-08T16:23:22Z</time>
      </trkpt>
      <trkpt lat="42.84871" lon="1.31871">
        <ele>1250.332031</ele>
        <time>2011-01-08T16:23:40Z</time>
      </trkpt>
      <trkpt lat="42.84862" lon="1.31872">
        <ele>1247.928711</ele>
        <time>2011-01-08T16:23:49Z</time>
      </trkpt>
      <trkpt lat="42.84853" lon="1.31875">
        <ele>1246.967285</ele>
        <time>2011-01-08T16:23:59Z</time>
      </trkpt>
      <trkpt lat="42.84847" lon="1.31861">
        <ele>1245.525391</ele>
        <time>2011-01-08T16:24:15Z</time>
      </trkpt>
      <trkpt lat="42.84845" lon="1.31844">
        <ele>1241.679932</ele>
        <time>2011-01-08T16:24:26Z</time>
      </trkpt>
      <trkpt lat="42.8485" lon="1.31825">
        <ele>1239.276611</ele>
        <time>2011-01-08T16:24:40Z</time>
      </trkpt>
      <trkpt lat="42.8486" lon="1.31812">
        <ele>1236.873291</ele>
        <time>2011-01-08T16:24:54Z</time>
      </trkpt>
      <trkpt lat="42.84871" lon="1.31801">
        <ele>1235.431396</ele>
        <time>2011-01-08T16:25:07Z</time>
      </trkpt>
      <trkpt lat="42.8488" lon="1.31778">
        <ele>1234.470215</ele>
        <time>2011-01-08T16:25:26Z</time>
      </trkpt>
      <trkpt lat="42.84888" lon="1.31759">
        <ele>1236.392822</ele>
        <time>2011-01-08T16:25:40Z</time>
      </trkpt>
      <trkpt lat="42.84895" lon="1.31741">
        <ele>1231.586182</ele>
        <time>2011-01-08T16:25:57Z</time>
      </trkpt>
      <trkpt lat="42.8489" lon="1.3172">
        <ele>1231.105713</ele>
        <time>2011-01-08T16:26:13Z</time>
      </trkpt>
      <trkpt lat="42.84887" lon="1.31701">
        <ele>1225.818115</ele>
        <time>2011-01-08T16:26:28Z</time>
      </trkpt>
      <trkpt lat="42.84887" lon="1.31679">
        <ele>1223.415039</ele>
        <time>2011-01-08T16:26:43Z</time>
      </trkpt>
      <trkpt lat="42.84884" lon="1.31657">
        <ele>1219.569824</ele>
        <time>2011-01-08T16:27:01Z</time>
      </trkpt>
      <trkpt lat="42.84885" lon="1.31637">
        <ele>1215.243896</ele>
        <time>2011-01-08T16:27:15Z</time>
      </trkpt>
      <trkpt lat="42.84885" lon="1.31614">
        <ele>1214.282471</ele>
        <time>2011-01-08T16:27:30Z</time>
      </trkpt>
      <trkpt lat="42.84889" lon="1.31592">
        <ele>1211.398438</ele>
        <time>2011-01-08T16:27:51Z</time>
      </trkpt>
      <trkpt lat="42.84901" lon="1.31586">
        <ele>1206.591797</ele>
        <time>2011-01-08T16:28:03Z</time>
      </trkpt>
      <trkpt lat="42.84911" lon="1.31579">
        <ele>1205.630615</ele>
        <time>2011-01-08T16:28:15Z</time>
      </trkpt>
      <trkpt lat="42.84919" lon="1.31568">
        <ele>1200.343506</ele>
        <time>2011-01-08T16:28:29Z</time>
      </trkpt>
      <trkpt lat="42.84927" lon="1.31549">
        <ele>1199.862793</ele>
        <time>2011-01-08T16:28:47Z</time>
      </trkpt>
      <trkpt lat="42.84939" lon="1.31539">
        <ele>1195.536621</ele>
        <time>2011-01-08T16:29:02Z</time>
      </trkpt>
      <trkpt lat="42.84944" lon="1.31525">
        <ele>1195.536621</ele>
        <time>2011-01-08T16:29:13Z</time>
      </trkpt>
      <trkpt lat="42.8495" lon="1.31512">
        <ele>1192.172119</ele>
        <time>2011-01-08T16:29:29Z</time>
      </trkpt>
      <trkpt lat="42.84955" lon="1.315">
        <ele>1191.691406</ele>
        <time>2011-01-08T16:29:43Z</time>
      </trkpt>
      <trkpt lat="42.84959" lon="1.31485">
        <ele>1189.288086</ele>
        <time>2011-01-08T16:29:54Z</time>
      </trkpt>
      <trkpt lat="42.84962" lon="1.31466">
        <ele>1187.365479</ele>
        <time>2011-01-08T16:30:05Z</time>
      </trkpt>
      <trkpt lat="42.84962" lon="1.31453">
        <ele>1186.404297</ele>
        <time>2011-01-08T16:30:14Z</time>
      </trkpt>
      <trkpt lat="42.84961" lon="1.31441">
        <ele>1183.039551</ele>
        <time>2011-01-08T16:30:24Z</time>
      </trkpt>
      <trkpt lat="42.8496" lon="1.31421">
        <ele>1181.117188</ele>
        <time>2011-01-08T16:30:37Z</time>
      </trkpt>
      <trkpt lat="42.84964" lon="1.31404">
        <ele>1178.713623</ele>
        <time>2011-01-08T16:30:48Z</time>
      </trkpt>
      <trkpt lat="42.84967" lon="1.31388">
        <ele>1175.348877</ele>
        <time>2011-01-08T16:31:03Z</time>
      </trkpt>
      <trkpt lat="42.84961" lon="1.31371">
        <ele>1170.54248</ele>
        <time>2011-01-08T16:31:16Z</time>
      </trkpt>
      <trkpt lat="42.84956" lon="1.31354">
        <ele>1167.177979</ele>
        <time>2011-01-08T16:31:26Z</time>
      </trkpt>
      <trkpt lat="42.84951" lon="1.31341">
        <ele>1163.33252</ele>
        <time>2011-01-08T16:31:40Z</time>
      </trkpt>
      <trkpt lat="42.84948" lon="1.31333">
        <ele>1161.409912</ele>
        <time>2011-01-08T16:31:49Z</time>
      </trkpt>
      <trkpt lat="42.84948" lon="1.31316">
        <ele>1159.487305</ele>
        <time>2011-01-08T16:32:03Z</time>
      </trkpt>
      <trkpt lat="42.8495" lon="1.31299">
        <ele>1157.564697</ele>
        <time>2011-01-08T16:32:13Z</time>
      </trkpt>
      <trkpt lat="42.84962" lon="1.31283">
        <ele>1155.64209</ele>
        <time>2011-01-08T16:32:26Z</time>
      </trkpt>
      <trkpt lat="42.84969" lon="1.31271">
        <ele>1154.680664</ele>
        <time>2011-01-08T16:32:37Z</time>
      </trkpt>
      <trkpt lat="42.84977" lon="1.31254">
        <ele>1154.200195</ele>
        <time>2011-01-08T16:32:51Z</time>
      </trkpt>
      <trkpt lat="42.84988" lon="1.31247">
        <ele>1151.316162</ele>
        <time>2011-01-08T16:33:04Z</time>
      </trkpt>
      <trkpt lat="42.85011" lon="1.31246">
        <ele>1149.874268</ele>
        <time>2011-01-08T16:33:17Z</time>
      </trkpt>
      <trkpt lat="42.85024" lon="1.31245">
        <ele>1148.912842</ele>
        <time>2011-01-08T16:33:31Z</time>
      </trkpt>
      <trkpt lat="42.8504" lon="1.31247">
        <ele>1146.509521</ele>
        <time>2011-01-08T16:33:44Z</time>
      </trkpt>
      <trkpt lat="42.8505" lon="1.31254">
        <ele>1146.509521</ele>
        <time>2011-01-08T16:33:54Z</time>
      </trkpt>
      <trkpt lat="42.85063" lon="1.31262">
        <ele>1144.106201</ele>
        <time>2011-01-08T16:34:07Z</time>
      </trkpt>
      <trkpt lat="42.85078" lon="1.3127">
        <ele>1143.144775</ele>
        <time>2011-01-08T16:34:18Z</time>
      </trkpt>
      <trkpt lat="42.8509" lon="1.31274">
        <ele>1142.183594</ele>
        <time>2011-01-08T16:34:26Z</time>
      </trkpt>
      <trkpt lat="42.851" lon="1.31278">
        <ele>1141.222168</ele>
        <time>2011-01-08T16:34:35Z</time>
      </trkpt>
      <trkpt lat="42.85112" lon="1.31283">
        <ele>1141.222168</ele>
        <time>2011-01-08T16:34:44Z</time>
      </trkpt>
      <trkpt lat="42.85119" lon="1.31287">
        <ele>1141.222168</ele>
        <time>2011-01-08T16:34:53Z</time>
      </trkpt>
      <trkpt lat="42.8513" lon="1.31283">
        <ele>1141.702881</ele>
        <time>2011-01-08T16:35:05Z</time>
      </trkpt>
      <trkpt lat="42.85144" lon="1.31283">
        <ele>1140.260986</ele>
        <time>2011-01-08T16:35:19Z</time>
      </trkpt>
      <trkpt lat="42.8516" lon="1.31283">
        <ele>1138.819092</ele>
        <time>2011-01-08T16:35:32Z</time>
      </trkpt>
      <trkpt lat="42.85172" lon="1.3128">
        <ele>1140.741455</ele>
        <time>2011-01-08T16:35:46Z</time>
      </trkpt>
      <trkpt lat="42.85184" lon="1.31276">
        <ele>1137.857666</ele>
        <time>2011-01-08T16:36:15Z</time>
      </trkpt>
      <trkpt lat="42.85203" lon="1.3127">
        <ele>1134.973877</ele>
        <time>2011-01-08T16:36:45Z</time>
      </trkpt>
      <trkpt lat="42.85215" lon="1.31274">
        <ele>1132.089844</ele>
        <time>2011-01-08T16:37:12Z</time>
      </trkpt>
      <trkpt lat="42.85227" lon="1.31275">
        <ele>1131.128418</ele>
        <time>2011-01-08T16:37:24Z</time>
      </trkpt>
      <trkpt lat="42.85238" lon="1.31276">
        <ele>1125.841064</ele>
        <time>2011-01-08T16:37:57Z</time>
      </trkpt>
      <trkpt lat="42.85256" lon="1.31271">
        <ele>1120.073242</ele>
        <time>2011-01-08T16:38:21Z</time>
      </trkpt>
      <trkpt lat="42.8527" lon="1.31269">
        <ele>1117.669922</ele>
        <time>2011-01-08T16:38:40Z</time>
      </trkpt>
      <trkpt lat="42.85284" lon="1.31259">
        <ele>1115.747314</ele>
        <time>2011-01-08T16:38:52Z</time>
      </trkpt>
      <trkpt lat="42.85297" lon="1.31254">
        <ele>1112.863281</ele>
        <time>2011-01-08T16:39:40Z</time>
      </trkpt>
      <trkpt lat="42.85313" lon="1.31246">
        <ele>1109.018066</ele>
        <time>2011-01-08T16:39:56Z</time>
      </trkpt>
      <trkpt lat="42.85331" lon="1.3124">
        <ele>1106.134033</ele>
        <time>2011-01-08T16:40:16Z</time>
      </trkpt>
      <trkpt lat="42.85344" lon="1.31226">
        <ele>1102.288818</ele>
        <time>2011-01-08T16:40:35Z</time>
      </trkpt>
      <trkpt lat="42.85358" lon="1.31206">
        <ele>1098.924072</ele>
        <time>2011-01-08T16:41:14Z</time>
      </trkpt>
      <trkpt lat="42.85368" lon="1.31195">
        <ele>1097.482178</ele>
        <time>2011-01-08T16:41:39Z</time>
      </trkpt>
      <trkpt lat="42.85388" lon="1.31188">
        <ele>1095.078857</ele>
        <time>2011-01-08T16:41:56Z</time>
      </trkpt>
      <trkpt lat="42.85402" lon="1.31171">
        <ele>1091.233643</ele>
        <time>2011-01-08T16:42:14Z</time>
      </trkpt>
      <trkpt lat="42.85408" lon="1.31157">
        <ele>1092.195068</ele>
        <time>2011-01-08T16:42:27Z</time>
      </trkpt>
      <trkpt lat="42.85411" lon="1.31146">
        <ele>1091.714355</ele>
        <time>2011-01-08T16:43:15Z</time>
      </trkpt>
      <trkpt lat="42.85423" lon="1.31134">
        <ele>1091.714355</ele>
        <time>2011-01-08T16:43:26Z</time>
      </trkpt>
      <trkpt lat="42.8544" lon="1.31129">
        <ele>1090.75293</ele>
        <time>2011-01-08T16:43:45Z</time>
      </trkpt>
      <trkpt lat="42.8546" lon="1.31125">
        <ele>1091.714355</ele>
        <time>2011-01-08T16:44:02Z</time>
      </trkpt>
      <trkpt lat="42.85473" lon="1.31116">
        <ele>1092.195068</ele>
        <time>2011-01-08T16:44:18Z</time>
      </trkpt>
      <trkpt lat="42.85481" lon="1.31108">
        <ele>1090.272461</ele>
        <time>2011-01-08T16:44:49Z</time>
      </trkpt>
      <trkpt lat="42.85475" lon="1.31096">
        <ele>1093.15625</ele>
        <time>2011-01-08T16:45:02Z</time>
      </trkpt>
      <trkpt lat="42.85471" lon="1.31086">
        <ele>1096.040283</ele>
        <time>2011-01-08T16:45:22Z</time>
      </trkpt>
      <trkpt lat="42.85463" lon="1.31077">
        <ele>1098.443359</ele>
        <time>2011-01-08T16:45:39Z</time>
      </trkpt>
      <trkpt lat="42.8546" lon="1.31059">
        <ele>1100.846924</ele>
        <time>2011-01-08T16:45:52Z</time>
      </trkpt>
      <trkpt lat="42.85457" lon="1.31046">
        <ele>1099.404785</ele>
        <time>2011-01-08T16:46:02Z</time>
      </trkpt>
      <trkpt lat="42.85453" lon="1.3103">
        <ele>1100.366455</ele>
        <time>2011-01-08T16:47:22Z</time>
      </trkpt>
      <trkpt lat="42.85444" lon="1.31003">
        <ele>1103.250244</ele>
        <time>2011-01-08T16:47:42Z</time>
      </trkpt>
      <trkpt lat="42.85438" lon="1.30986">
        <ele>1105.172852</ele>
        <time>2011-01-08T16:47:56Z</time>
      </trkpt>
      <trkpt lat="42.85426" lon="1.30975">
        <ele>1103.730957</ele>
        <time>2011-01-08T16:48:14Z</time>
      </trkpt>
      <trkpt lat="42.85424" lon="1.30954">
        <ele>1102.288818</ele>
        <time>2011-01-08T16:48:28Z</time>
      </trkpt>
      <trkpt lat="42.85423" lon="1.30936">
        <ele>1102.769531</ele>
        <time>2011-01-08T16:48:43Z</time>
      </trkpt>
      <trkpt lat="42.85427" lon="1.30925">
        <ele>1104.21167</ele>
        <time>2011-01-08T16:48:58Z</time>
      </trkpt>
      <trkpt lat="42.85427" lon="1.30907">
        <ele>1105.172852</ele>
        <time>2011-01-08T16:49:13Z</time>
      </trkpt>
      <trkpt lat="42.8542" lon="1.30893">
        <ele>1105.653564</ele>
        <time>2011-01-08T16:49:27Z</time>
      </trkpt>
      <trkpt lat="42.85424" lon="1.30879">
        <ele>1102.769531</ele>
        <time>2011-01-08T16:49:42Z</time>
      </trkpt>
      <trkpt lat="42.85427" lon="1.30865">
        <ele>1102.288818</ele>
        <time>2011-01-08T16:50:00Z</time>
      </trkpt>
      <trkpt lat="42.85441" lon="1.30866">
        <ele>1102.769531</ele>
        <time>2011-01-08T16:50:39Z</time>
      </trkpt>
      <trkpt lat="42.8545" lon="1.30874">
        <ele>1101.80835</ele>
        <time>2011-01-08T16:50:50Z</time>
      </trkpt>
      <trkpt lat="42.85457" lon="1.30888">
        <ele>1099.885498</ele>
        <time>2011-01-08T16:51:06Z</time>
      </trkpt>
      <trkpt lat="42.85468" lon="1.30901">
        <ele>1097.482178</ele>
        <time>2011-01-08T16:51:26Z</time>
      </trkpt>
      <trkpt lat="42.85477" lon="1.30909">
        <ele>1094.598145</ele>
        <time>2011-01-08T16:51:53Z</time>
      </trkpt>
      <trkpt lat="42.85486" lon="1.30914">
        <ele>1092.675781</ele>
        <time>2011-01-08T16:52:04Z</time>
      </trkpt>
      <trkpt lat="42.85495" lon="1.30926">
        <ele>1090.272461</ele>
        <time>2011-01-08T16:52:16Z</time>
      </trkpt>
      <trkpt lat="42.85506" lon="1.30938">
        <ele>1089.791748</ele>
        <time>2011-01-08T16:52:28Z</time>
      </trkpt>
      <trkpt lat="42.85517" lon="1.30946">
        <ele>1088.349854</ele>
        <time>2011-01-08T16:52:41Z</time>
      </trkpt>
      <trkpt lat="42.85528" lon="1.30956">
        <ele>1086.907715</ele>
        <time>2011-01-08T16:52:52Z</time>
      </trkpt>
      <trkpt lat="42.85542" lon="1.30966">
        <ele>1084.504639</ele>
        <time>2011-01-08T16:53:04Z</time>
      </trkpt>
      <trkpt lat="42.85553" lon="1.3097">
        <ele>1084.023926</ele>
        <time>2011-01-08T16:53:13Z</time>
      </trkpt>
      <trkpt lat="42.85565" lon="1.30978">
        <ele>1083.542969</ele>
        <time>2011-01-08T16:53:26Z</time>
      </trkpt>
      <trkpt lat="42.85577" lon="1.30983">
        <ele>1082.101074</ele>
        <time>2011-01-08T16:53:38Z</time>
      </trkpt>
      <trkpt lat="42.85588" lon="1.30983">
        <ele>1080.178467</ele>
        <time>2011-01-08T16:53:49Z</time>
      </trkpt>
      <trkpt lat="42.85603" lon="1.30975">
        <ele>1079.697754</ele>
        <time>2011-01-08T16:54:00Z</time>
      </trkpt>
      <trkpt lat="42.85613" lon="1.30977">
        <ele>1079.697754</ele>
        <time>2011-01-08T16:54:11Z</time>
      </trkpt>
      <trkpt lat="42.85627" lon="1.30979">
        <ele>1077.775146</ele>
        <time>2011-01-08T16:54:23Z</time>
      </trkpt>
      <trkpt lat="42.85641" lon="1.30985">
        <ele>1076.813965</ele>
        <time>2011-01-08T16:54:33Z</time>
      </trkpt>
      <trkpt lat="42.85656" lon="1.30985">
        <ele>1074.891357</ele>
        <time>2011-01-08T16:54:51Z</time>
      </trkpt>
      <trkpt lat="42.85676" lon="1.30984">
        <ele>1076.333252</ele>
        <time>2011-01-08T16:55:04Z</time>
      </trkpt>
      <trkpt lat="42.8569" lon="1.30984">
        <ele>1073.449463</ele>
        <time>2011-01-08T16:55:26Z</time>
      </trkpt>
      <trkpt lat="42.85698" lon="1.30995">
        <ele>1069.604248</ele>
        <time>2011-01-08T16:55:44Z</time>
      </trkpt>
      <trkpt lat="42.85709" lon="1.31">
        <ele>1064.797363</ele>
        <time>2011-01-08T16:56:00Z</time>
      </trkpt>
      <trkpt lat="42.85721" lon="1.31003">
        <ele>1063.355469</ele>
        <time>2011-01-08T16:56:13Z</time>
      </trkpt>
      <trkpt lat="42.85737" lon="1.31">
        <ele>1061.432861</ele>
        <time>2011-01-08T16:56:25Z</time>
      </trkpt>
      <trkpt lat="42.85744" lon="1.31009">
        <ele>1059.990723</ele>
        <time>2011-01-08T16:56:38Z</time>
      </trkpt>
      <trkpt lat="42.85728" lon="1.30999">
        <ele>1062.874756</ele>
        <time>2011-01-08T16:57:17Z</time>
      </trkpt>
      <trkpt lat="42.85739" lon="1.30979">
        <ele>1072.488037</ele>
        <time>2011-01-08T16:58:12Z</time>
      </trkpt>
      <trkpt lat="42.85744" lon="1.30971">
        <ele>1075.852539</ele>
        <time>2011-01-08T16:58:48Z</time>
      </trkpt>
      <trkpt lat="42.85758" lon="1.30969">
        <ele>1077.775146</ele>
        <time>2011-01-08T17:00:07Z</time>
      </trkpt>
      <trkpt lat="42.85772" lon="1.30959">
        <ele>1077.775146</ele>
        <time>2011-01-08T17:00:22Z</time>
      </trkpt>
      <trkpt lat="42.85788" lon="1.3095">
        <ele>1080.178467</ele>
        <time>2011-01-08T17:00:41Z</time>
      </trkpt>
      <trkpt lat="42.8581" lon="1.30944">
        <ele>1078.736572</ele>
        <time>2011-01-08T17:01:06Z</time>
      </trkpt>
      <trkpt lat="42.85825" lon="1.30944">
        <ele>1079.217041</ele>
        <time>2011-01-08T17:01:20Z</time>
      </trkpt>
      <trkpt lat="42.85847" lon="1.30947">
        <ele>1078.255859</ele>
        <time>2011-01-08T17:01:47Z</time>
      </trkpt>
      <trkpt lat="42.85862" lon="1.30946">
        <ele>1077.775146</ele>
        <time>2011-01-08T17:02:01Z</time>
      </trkpt>
      <trkpt lat="42.85874" lon="1.30927">
        <ele>1076.333252</ele>
        <time>2011-01-08T17:02:31Z</time>
      </trkpt>
      <trkpt lat="42.85886" lon="1.30917">
        <ele>1076.333252</ele>
        <time>2011-01-08T17:02:41Z</time>
      </trkpt>
      <trkpt lat="42.85897" lon="1.30912">
        <ele>1074.891357</ele>
        <time>2011-01-08T17:02:48Z</time>
      </trkpt>
      <trkpt lat="42.85909" lon="1.30904">
        <ele>1074.891357</ele>
        <time>2011-01-08T17:03:00Z</time>
      </trkpt>
      <trkpt lat="42.85919" lon="1.30901">
        <ele>1075.852539</ele>
        <time>2011-01-08T17:03:17Z</time>
      </trkpt>
      <trkpt lat="42.85928" lon="1.30892">
        <ele>1076.813965</ele>
        <time>2011-01-08T17:03:28Z</time>
      </trkpt>
      <trkpt lat="42.85938" lon="1.3088">
        <ele>1079.697754</ele>
        <time>2011-01-08T17:03:39Z</time>
      </trkpt>
      <trkpt lat="42.85946" lon="1.30869">
        <ele>1079.217041</ele>
        <time>2011-01-08T17:03:54Z</time>
      </trkpt>
      <trkpt lat="42.8596" lon="1.30856">
        <ele>1079.697754</ele>
        <time>2011-01-08T17:04:13Z</time>
      </trkpt>
      <trkpt lat="42.85974" lon="1.30845">
        <ele>1081.620361</ele>
        <time>2011-01-08T17:04:29Z</time>
      </trkpt>
      <trkpt lat="42.85995" lon="1.30844">
        <ele>1081.620361</ele>
        <time>2011-01-08T17:04:47Z</time>
      </trkpt>
      <trkpt lat="42.86005" lon="1.30851">
        <ele>1079.697754</ele>
        <time>2011-01-08T17:04:59Z</time>
      </trkpt>
      <trkpt lat="42.86016" lon="1.30853">
        <ele>1080.178467</ele>
        <time>2011-01-08T17:05:43Z</time>
      </trkpt>
      <trkpt lat="42.86028" lon="1.30843">
        <ele>1078.736572</ele>
        <time>2011-01-08T17:05:54Z</time>
      </trkpt>
      <trkpt lat="42.86039" lon="1.30841">
        <ele>1077.775146</ele>
        <time>2011-01-08T17:06:04Z</time>
      </trkpt>
      <trkpt lat="42.86053" lon="1.30833">
        <ele>1075.371826</ele>
        <time>2011-01-08T17:06:15Z</time>
      </trkpt>
      <trkpt lat="42.86068" lon="1.30833">
        <ele>1074.891357</ele>
        <time>2011-01-08T17:06:26Z</time>
      </trkpt>
      <trkpt lat="42.8608" lon="1.30831">
        <ele>1073.929932</ele>
        <time>2011-01-08T17:06:36Z</time>
      </trkpt>
      <trkpt lat="42.86093" lon="1.30831">
        <ele>1074.891357</ele>
        <time>2011-01-08T17:06:48Z</time>
      </trkpt>
      <trkpt lat="42.86108" lon="1.30828">
        <ele>1074.891357</ele>
        <time>2011-01-08T17:07:02Z</time>
      </trkpt>
      <trkpt lat="42.86122" lon="1.30823">
        <ele>1073.449463</ele>
        <time>2011-01-08T17:07:32Z</time>
      </trkpt>
      <trkpt lat="42.86137" lon="1.30815">
        <ele>1073.929932</ele>
        <time>2011-01-08T17:07:48Z</time>
      </trkpt>
      <trkpt lat="42.86149" lon="1.30796">
        <ele>1075.371826</ele>
        <time>2011-01-08T17:08:09Z</time>
      </trkpt>
      <trkpt lat="42.8616" lon="1.30775">
        <ele>1076.333252</ele>
        <time>2011-01-08T17:09:40Z</time>
      </trkpt>
      <trkpt lat="42.86171" lon="1.30763">
        <ele>1074.891357</ele>
        <time>2011-01-08T17:09:55Z</time>
      </trkpt>
      <trkpt lat="42.86181" lon="1.30753">
        <ele>1073.449463</ele>
        <time>2011-01-08T17:10:06Z</time>
      </trkpt>
      <trkpt lat="42.86188" lon="1.30738">
        <ele>1073.449463</ele>
        <time>2011-01-08T17:10:16Z</time>
      </trkpt>
      <trkpt lat="42.86196" lon="1.3072">
        <ele>1071.046143</ele>
        <time>2011-01-08T17:10:27Z</time>
      </trkpt>
      <trkpt lat="42.86199" lon="1.30705">
        <ele>1071.526611</ele>
        <time>2011-01-08T17:10:40Z</time>
      </trkpt>
      <trkpt lat="42.86204" lon="1.30689">
        <ele>1069.123535</ele>
        <time>2011-01-08T17:10:53Z</time>
      </trkpt>
      <trkpt lat="42.86203" lon="1.3067">
        <ele>1071.526611</ele>
        <time>2011-01-08T17:11:11Z</time>
      </trkpt>
      <trkpt lat="42.862" lon="1.30653">
        <ele>1072.007324</ele>
        <time>2011-01-08T17:11:21Z</time>
      </trkpt>
      <trkpt lat="42.86209" lon="1.30636">
        <ele>1072.007324</ele>
        <time>2011-01-08T17:11:35Z</time>
      </trkpt>
      <trkpt lat="42.86219" lon="1.30616">
        <ele>1069.123535</ele>
        <time>2011-01-08T17:11:56Z</time>
      </trkpt>
      <trkpt lat="42.86223" lon="1.30603">
        <ele>1067.200684</ele>
        <time>2011-01-08T17:12:08Z</time>
      </trkpt>
      <trkpt lat="42.86235" lon="1.30588">
        <ele>1065.278076</ele>
        <time>2011-01-08T17:12:20Z</time>
      </trkpt>
      <trkpt lat="42.86246" lon="1.30572">
        <ele>1064.31665</ele>
        <time>2011-01-08T17:12:31Z</time>
      </trkpt>
      <trkpt lat="42.86255" lon="1.30559">
        <ele>1063.835938</ele>
        <time>2011-01-08T17:12:41Z</time>
      </trkpt>
      <trkpt lat="42.86259" lon="1.30543">
        <ele>1062.874756</ele>
        <time>2011-01-08T17:12:56Z</time>
      </trkpt>
      <trkpt lat="42.8626" lon="1.30523">
        <ele>1061.432861</ele>
        <time>2011-01-08T17:13:15Z</time>
      </trkpt>
      <trkpt lat="42.86258" lon="1.30506">
        <ele>1062.394043</ele>
        <time>2011-01-08T17:13:28Z</time>
      </trkpt>
      <trkpt lat="42.86262" lon="1.30491">
        <ele>1064.797363</ele>
        <time>2011-01-08T17:13:43Z</time>
      </trkpt>
      <trkpt lat="42.86291" lon="1.30486">
        <ele>1065.758789</ele>
        <time>2011-01-08T17:14:06Z</time>
      </trkpt>
      <trkpt lat="42.86315" lon="1.30483">
        <ele>1067.200684</ele>
        <time>2011-01-08T17:14:23Z</time>
      </trkpt>
      <trkpt lat="42.86323" lon="1.30473">
        <ele>1068.162109</ele>
        <time>2011-01-08T17:14:46Z</time>
      </trkpt>
      <trkpt lat="42.86356" lon="1.3047">
        <ele>1066.719971</ele>
        <time>2011-01-08T17:15:23Z</time>
      </trkpt>
      <trkpt lat="42.86404" lon="1.30433">
        <ele>1063.355469</ele>
        <time>2011-01-08T17:16:38Z</time>
      </trkpt>
      <trkpt lat="42.86437" lon="1.3044">
        <ele>1061.432861</ele>
        <time>2011-01-08T17:16:59Z</time>
      </trkpt>
      <trkpt lat="42.86457" lon="1.30448">
        <ele>1058.068359</ele>
        <time>2011-01-08T17:17:18Z</time>
      </trkpt>
      <trkpt lat="42.86502" lon="1.30442">
        <ele>1048.935547</ele>
        <time>2011-01-08T17:18:11Z</time>
      </trkpt>
      <trkpt lat="42.86548" lon="1.30431">
        <ele>1045.090332</ele>
        <time>2011-01-08T17:18:52Z</time>
      </trkpt>
      <trkpt lat="42.86594" lon="1.30402">
        <ele>1040.764404</ele>
        <time>2011-01-08T17:19:58Z</time>
      </trkpt>
      <trkpt lat="42.86626" lon="1.30365">
        <ele>1037.399902</ele>
        <time>2011-01-08T17:20:35Z</time>
      </trkpt>
      <trkpt lat="42.86641" lon="1.30351">
        <ele>1032.593262</ele>
        <time>2011-01-08T17:21:02Z</time>
      </trkpt>
      <trkpt lat="42.86658" lon="1.30361">
        <ele>1031.151367</ele>
        <time>2011-01-08T17:21:17Z</time>
      </trkpt>
      <trkpt lat="42.8667" lon="1.30367">
        <ele>1031.631836</ele>
        <time>2011-01-08T17:21:38Z</time>
      </trkpt>
      <trkpt lat="42.86683" lon="1.30359">
        <ele>1029.228516</ele>
        <time>2011-01-08T17:22:02Z</time>
      </trkpt>
      <trkpt lat="42.86695" lon="1.30354">
        <ele>1027.306152</ele>
        <time>2011-01-08T17:22:12Z</time>
      </trkpt>
      <trkpt lat="42.86711" lon="1.30352">
        <ele>1025.383301</ele>
        <time>2011-01-08T17:22:33Z</time>
      </trkpt>
      <trkpt lat="42.8672" lon="1.30343">
        <ele>1024.422119</ele>
        <time>2011-01-08T17:22:50Z</time>
      </trkpt>
      <trkpt lat="42.86732" lon="1.30328">
        <ele>1021.538086</ele>
        <time>2011-01-08T17:23:28Z</time>
      </trkpt>
      <trkpt lat="42.8675" lon="1.30327">
        <ele>1021.057617</ele>
        <time>2011-01-08T17:23:37Z</time>
      </trkpt>
      <trkpt lat="42.86761" lon="1.3032">
        <ele>1019.134766</ele>
        <time>2011-01-08T17:23:55Z</time>
      </trkpt>
      <trkpt lat="42.86768" lon="1.30306">
        <ele>1017.692627</ele>
        <time>2011-01-08T17:24:07Z</time>
      </trkpt>
      <trkpt lat="42.86785" lon="1.30292">
        <ele>1015.289551</ele>
        <time>2011-01-08T17:24:21Z</time>
      </trkpt>
      <trkpt lat="42.86803" lon="1.3028">
        <ele>1014.328125</ele>
        <time>2011-01-08T17:24:35Z</time>
      </trkpt>
      <trkpt lat="42.86803" lon="1.30268">
        <ele>1012.88623</ele>
        <time>2011-01-08T17:24:46Z</time>
      </trkpt>
      <trkpt lat="42.8683" lon="1.30254">
        <ele>1010.002197</ele>
        <time>2011-01-08T17:25:02Z</time>
      </trkpt>
      <trkpt lat="42.86837" lon="1.30236">
        <ele>1008.560303</ele>
        <time>2011-01-08T17:25:32Z</time>
      </trkpt>
      <trkpt lat="42.86852" lon="1.30222">
        <ele>1007.599121</ele>
        <time>2011-01-08T17:25:51Z</time>
      </trkpt>
      <trkpt lat="42.8687" lon="1.30216">
        <ele>1008.079834</ele>
        <time>2011-01-08T17:26:06Z</time>
      </trkpt>
      <trkpt lat="42.86878" lon="1.30214">
        <ele>1006.156982</ele>
        <time>2011-01-08T17:26:18Z</time>
      </trkpt>
      <trkpt lat="42.86899" lon="1.30214">
        <ele>1003.272949</ele>
        <time>2011-01-08T17:26:34Z</time>
      </trkpt>
      <trkpt lat="42.86903" lon="1.30215">
        <ele>1000.38916</ele>
        <time>2011-01-08T17:26:47Z</time>
      </trkpt>
      <trkpt lat="42.86908" lon="1.30219">
        <ele>997.505127</ele>
        <time>2011-01-08T17:27:13Z</time>
      </trkpt>
      <trkpt lat="42.86907" lon="1.30218">
        <ele>994.140625</ele>
        <time>2011-01-08T17:27:26Z</time>
      </trkpt>
      <trkpt lat="42.86926" lon="1.30217">
        <ele>989.814697</ele>
        <time>2011-01-08T17:27:59Z</time>
      </trkpt>
      <trkpt lat="42.86926" lon="1.3021">
        <ele>986.449951</ele>
        <time>2011-01-08T17:28:15Z</time>
      </trkpt>
      <trkpt lat="42.86957" lon="1.30204">
        <ele>981.643311</ele>
        <time>2011-01-08T17:28:37Z</time>
      </trkpt>
      <trkpt lat="42.8699" lon="1.30198">
        <ele>978.759521</ele>
        <time>2011-01-08T17:28:53Z</time>
      </trkpt>
      <trkpt lat="42.87002" lon="1.30188">
        <ele>976.356201</ele>
        <time>2011-01-08T17:29:05Z</time>
      </trkpt>
      <trkpt lat="42.87023" lon="1.30185">
        <ele>972.991699</ele>
        <time>2011-01-08T17:29:17Z</time>
      </trkpt>
      <trkpt lat="42.87038" lon="1.30182">
        <ele>970.588135</ele>
        <time>2011-01-08T17:29:27Z</time>
      </trkpt>
      <trkpt lat="42.87042" lon="1.30173">
        <ele>968.184814</ele>
        <time>2011-01-08T17:29:37Z</time>
      </trkpt>
      <trkpt lat="42.87055" lon="1.30165">
        <ele>965.301025</ele>
        <time>2011-01-08T17:29:50Z</time>
      </trkpt>
      <trkpt lat="42.87064" lon="1.30161">
        <ele>962.897705</ele>
        <time>2011-01-08T17:30:03Z</time>
      </trkpt>
      <trkpt lat="42.87068" lon="1.30167">
        <ele>960.975098</ele>
        <time>2011-01-08T17:30:34Z</time>
      </trkpt>
      <trkpt lat="42.87092" lon="1.30169">
        <ele>960.494385</ele>
        <time>2011-01-08T17:30:46Z</time>
      </trkpt>
      <trkpt lat="42.87098" lon="1.30164">
        <ele>960.013672</ele>
        <time>2011-01-08T17:31:00Z</time>
      </trkpt>
      <trkpt lat="42.87134" lon="1.30161">
        <ele>959.533203</ele>
        <time>2011-01-08T17:31:55Z</time>
      </trkpt>
      <trkpt lat="42.87126" lon="1.30162">
        <ele>957.610596</ele>
        <time>2011-01-08T17:33:08Z</time>
      </trkpt>
      <trkpt lat="42.87142" lon="1.30161">
        <ele>956.168457</ele>
        <time>2011-01-08T17:33:21Z</time>
      </trkpt>
      <trkpt lat="42.8715" lon="1.30161">
        <ele>953.765137</ele>
        <time>2011-01-08T17:33:31Z</time>
      </trkpt>
      <trkpt lat="42.87172" lon="1.30169">
        <ele>941.268066</ele>
        <time>2011-01-08T17:34:04Z</time>
      </trkpt>
      <trkpt lat="42.87188" lon="1.30161">
        <ele>934.538818</ele>
        <time>2011-01-08T17:34:14Z</time>
      </trkpt>
      <trkpt lat="42.87203" lon="1.30154">
        <ele>932.616211</ele>
        <time>2011-01-08T17:34:33Z</time>
      </trkpt>
      <trkpt lat="42.87223" lon="1.30145">
        <ele>928.290283</ele>
        <time>2011-01-08T17:34:44Z</time>
      </trkpt>
      <trkpt lat="42.87231" lon="1.3013">
        <ele>924.925781</ele>
        <time>2011-01-08T17:34:52Z</time>
      </trkpt>
      <trkpt lat="42.87243" lon="1.30113">
        <ele>923.00293</ele>
        <time>2011-01-08T17:35:20Z</time>
      </trkpt>
      <trkpt lat="42.87253" lon="1.30104">
        <ele>921.560791</ele>
        <time>2011-01-08T17:35:28Z</time>
      </trkpt>
      <trkpt lat="42.87263" lon="1.301">
        <ele>920.118896</ele>
        <time>2011-01-08T17:35:39Z</time>
      </trkpt>
      <trkpt lat="42.87273" lon="1.30089">
        <ele>914.351074</ele>
        <time>2011-01-08T17:35:54Z</time>
      </trkpt>
      <trkpt lat="42.87291" lon="1.30092">
        <ele>910.505859</ele>
        <time>2011-01-08T17:36:04Z</time>
      </trkpt>
      <trkpt lat="42.87317" lon="1.30079">
        <ele>902.334473</ele>
        <time>2011-01-08T17:36:25Z</time>
      </trkpt>
      <trkpt lat="42.87335" lon="1.30077">
        <ele>896.566895</ele>
        <time>2011-01-08T17:36:36Z</time>
      </trkpt>
      <trkpt lat="42.87349" lon="1.30088">
        <ele>893.202148</ele>
        <time>2011-01-08T17:36:45Z</time>
      </trkpt>
      <trkpt lat="42.87362" lon="1.30094">
        <ele>890.318115</ele>
        <time>2011-01-08T17:36:51Z</time>
      </trkpt>
      <trkpt lat="42.87371" lon="1.30086">
        <ele>889.356689</ele>
        <time>2011-01-08T17:38:08Z</time>
      </trkpt>
      <trkpt lat="42.87384" lon="1.3008">
        <ele>886.4729</ele>
        <time>2011-01-08T17:38:18Z</time>
      </trkpt>
      <trkpt lat="42.87386" lon="1.30058">
        <ele>882.146973</ele>
        <time>2011-01-08T17:38:35Z</time>
      </trkpt>
      <trkpt lat="42.87402" lon="1.30029">
        <ele>877.821045</ele>
        <time>2011-01-08T17:38:55Z</time>
      </trkpt>
      <trkpt lat="42.87409" lon="1.30025">
        <ele>877.821045</ele>
        <time>2011-01-08T17:39:05Z</time>
      </trkpt>
      <trkpt lat="42.87415" lon="1.30011">
        <ele>873.014404</ele>
        <time>2011-01-08T17:39:27Z</time>
      </trkpt>
      <trkpt lat="42.87427" lon="1.29998">
        <ele>869.169189</ele>
        <time>2011-01-08T17:39:43Z</time>
      </trkpt>
      <trkpt lat="42.87437" lon="1.29983">
        <ele>867.727051</ele>
        <time>2011-01-08T17:40:16Z</time>
      </trkpt>
      <trkpt lat="42.87438" lon="1.2997">
        <ele>865.323975</ele>
        <time>2011-01-08T17:40:25Z</time>
      </trkpt>
      <trkpt lat="42.87436" lon="1.29957">
        <ele>864.362549</ele>
        <time>2011-01-08T17:40:34Z</time>
      </trkpt>
      <trkpt lat="42.87443" lon="1.29943">
        <ele>862.920654</ele>
        <time>2011-01-08T17:40:43Z</time>
      </trkpt>
      <trkpt lat="42.87447" lon="1.2993">
        <ele>863.401367</ele>
        <time>2011-01-08T17:40:53Z</time>
      </trkpt>
      <trkpt lat="42.87449" lon="1.2993">
        <ele>864.362549</ele>
        <time>2011-01-08T17:41:08Z</time>
      </trkpt>
      <trkpt lat="42.87458" lon="1.29937">
        <ele>865.323975</ele>
        <time>2011-01-08T17:41:21Z</time>
      </trkpt>
      <trkpt lat="42.87473" lon="1.29928">
        <ele>865.804688</ele>
        <time>2011-01-08T17:41:37Z</time>
      </trkpt>
      <trkpt lat="42.8748" lon="1.29915">
        <ele>865.804688</ele>
        <time>2011-01-08T17:41:45Z</time>
      </trkpt>
      <trkpt lat="42.87491" lon="1.29901">
        <ele>866.765869</ele>
        <time>2011-01-08T17:41:57Z</time>
      </trkpt>
      <trkpt lat="42.87479" lon="1.29878">
        <ele>866.765869</ele>
        <time>2011-01-08T17:42:13Z</time>
      </trkpt>
      <trkpt lat="42.87468" lon="1.29861">
        <ele>867.246582</ele>
        <time>2011-01-08T17:42:28Z</time>
      </trkpt>
      <trkpt lat="42.87465" lon="1.29844">
        <ele>867.246582</ele>
        <time>2011-01-08T17:42:38Z</time>
      </trkpt>
      <trkpt lat="42.87471" lon="1.29833">
        <ele>867.727051</ele>
        <time>2011-01-08T17:42:54Z</time>
      </trkpt>
      <trkpt lat="42.87483" lon="1.29834">
        <ele>867.727051</ele>
        <time>2011-01-08T17:43:07Z</time>
      </trkpt>
      <trkpt lat="42.87492" lon="1.29841">
        <ele>867.727051</ele>
        <time>2011-01-08T17:43:17Z</time>
      </trkpt>
      <trkpt lat="42.87502" lon="1.29851">
        <ele>867.727051</ele>
        <time>2011-01-08T17:43:26Z</time>
      </trkpt>
      <trkpt lat="42.87508" lon="1.29868">
        <ele>868.207764</ele>
        <time>2011-01-08T17:43:34Z</time>
      </trkpt>
      <trkpt lat="42.87515" lon="1.29876">
        <ele>868.688477</ele>
        <time>2011-01-08T17:43:40Z</time>
      </trkpt>
      <trkpt lat="42.8752" lon="1.29893">
        <ele>869.169189</ele>
        <time>2011-01-08T17:43:53Z</time>
      </trkpt>
      <trkpt lat="42.87544" lon="1.29899">
        <ele>869.649902</ele>
        <time>2011-01-08T17:44:08Z</time>
      </trkpt>
      <trkpt lat="42.87555" lon="1.299">
        <ele>869.649902</ele>
        <time>2011-01-08T17:44:16Z</time>
      </trkpt>
      <trkpt lat="42.87564" lon="1.29902">
        <ele>870.611084</ele>
        <time>2011-01-08T17:44:25Z</time>
      </trkpt>
      <trkpt lat="42.87574" lon="1.29902">
        <ele>871.572266</ele>
        <time>2011-01-08T17:44:34Z</time>
      </trkpt>
      <trkpt lat="42.87582" lon="1.29907">
        <ele>871.572266</ele>
        <time>2011-01-08T17:44:44Z</time>
      </trkpt>
      <trkpt lat="42.87591" lon="1.29915">
        <ele>871.091797</ele>
        <time>2011-01-08T17:44:53Z</time>
      </trkpt>
      <trkpt lat="42.87591" lon="1.29928">
        <ele>870.130371</ele>
        <time>2011-01-08T17:45:06Z</time>
      </trkpt>
      <trkpt lat="42.87592" lon="1.29939">
        <ele>869.169189</ele>
        <time>2011-01-08T17:45:14Z</time>
      </trkpt>
      <trkpt lat="42.87596" lon="1.29951">
        <ele>868.207764</ele>
        <time>2011-01-08T17:45:23Z</time>
      </trkpt>
      <trkpt lat="42.87602" lon="1.29962">
        <ele>867.727051</ele>
        <time>2011-01-08T17:45:32Z</time>
      </trkpt>
      <trkpt lat="42.87608" lon="1.29969">
        <ele>866.765869</ele>
        <time>2011-01-08T17:45:45Z</time>
      </trkpt>
      <trkpt lat="42.87622" lon="1.29959">
        <ele>865.323975</ele>
        <time>2011-01-08T17:45:59Z</time>
      </trkpt>
      <trkpt lat="42.87633" lon="1.29965">
        <ele>864.362549</ele>
        <time>2011-01-08T17:46:13Z</time>
      </trkpt>
      <trkpt lat="42.87648" lon="1.2997">
        <ele>863.881836</ele>
        <time>2011-01-08T17:46:24Z</time>
      </trkpt>
      <trkpt lat="42.87666" lon="1.2997">
        <ele>863.401367</ele>
        <time>2011-01-08T17:46:32Z</time>
      </trkpt>
      <trkpt lat="42.87675" lon="1.29972">
        <ele>861.959473</ele>
        <time>2011-01-08T17:46:40Z</time>
      </trkpt>
      <trkpt lat="42.87683" lon="1.29975">
        <ele>860.998047</ele>
        <time>2011-01-08T17:46:47Z</time>
      </trkpt>
      <trkpt lat="42.87692" lon="1.29977">
        <ele>860.517334</ele>
        <time>2011-01-08T17:46:54Z</time>
      </trkpt>
      <trkpt lat="42.87702" lon="1.29983">
        <ele>859.555908</ele>
        <time>2011-01-08T17:47:02Z</time>
      </trkpt>
      <trkpt lat="42.87711" lon="1.29989">
        <ele>858.594482</ele>
        <time>2011-01-08T17:47:10Z</time>
      </trkpt>
      <trkpt lat="42.87719" lon="1.29998">
        <ele>857.633301</ele>
        <time>2011-01-08T17:47:19Z</time>
      </trkpt>
      <trkpt lat="42.87726" lon="1.30009">
        <ele>856.191162</ele>
        <time>2011-01-08T17:47:27Z</time>
      </trkpt>
      <trkpt lat="42.87729" lon="1.30022">
        <ele>855.22998</ele>
        <time>2011-01-08T17:47:35Z</time>
      </trkpt>
      <trkpt lat="42.87731" lon="1.30035">
        <ele>854.268799</ele>
        <time>2011-01-08T17:47:43Z</time>
      </trkpt>
      <trkpt lat="42.87731" lon="1.30048">
        <ele>853.307373</ele>
        <time>2011-01-08T17:47:54Z</time>
      </trkpt>
      <trkpt lat="42.87734" lon="1.30065">
        <ele>851.865479</ele>
        <time>2011-01-08T17:48:04Z</time>
      </trkpt>
      <trkpt lat="42.87739" lon="1.3008">
        <ele>850.423584</ele>
        <time>2011-01-08T17:48:14Z</time>
      </trkpt>
      <trkpt lat="42.87743" lon="1.3009">
        <ele>849.462158</ele>
        <time>2011-01-08T17:48:23Z</time>
      </trkpt>
      <trkpt lat="42.8775" lon="1.30101">
        <ele>848.020264</ele>
        <time>2011-01-08T17:48:35Z</time>
      </trkpt>
      <trkpt lat="42.87758" lon="1.30112">
        <ele>847.058838</ele>
        <time>2011-01-08T17:48:45Z</time>
      </trkpt>
      <trkpt lat="42.87774" lon="1.30115">
        <ele>844.655518</ele>
        <time>2011-01-08T17:49:00Z</time>
      </trkpt>
      <trkpt lat="42.87784" lon="1.30116">
        <ele>843.213379</ele>
        <time>2011-01-08T17:49:10Z</time>
      </trkpt>
      <trkpt lat="42.87801" lon="1.30117">
        <ele>841.290771</ele>
        <time>2011-01-08T17:49:27Z</time>
      </trkpt>
      <trkpt lat="42.87815" lon="1.30116">
        <ele>839.848877</ele>
        <time>2011-01-08T17:49:38Z</time>
      </trkpt>
      <trkpt lat="42.87825" lon="1.30107">
        <ele>839.368164</ele>
        <time>2011-01-08T17:49:48Z</time>
      </trkpt>
      <trkpt lat="42.87838" lon="1.30099">
        <ele>837.92627</ele>
        <time>2011-01-08T17:49:59Z</time>
      </trkpt>
      <trkpt lat="42.87853" lon="1.30083">
        <ele>836.484375</ele>
        <time>2011-01-08T17:50:14Z</time>
      </trkpt>
      <trkpt lat="42.87855" lon="1.30072">
        <ele>835.522949</ele>
        <time>2011-01-08T17:50:33Z</time>
      </trkpt>
      <trkpt lat="42.8787" lon="1.30058">
        <ele>834.081055</ele>
        <time>2011-01-08T17:50:54Z</time>
      </trkpt>
      <trkpt lat="42.87876" lon="1.3005">
        <ele>829.274414</ele>
        <time>2011-01-08T17:51:10Z</time>
      </trkpt>
      <trkpt lat="42.87889" lon="1.30044">
        <ele>825.909668</ele>
        <time>2011-01-08T17:51:29Z</time>
      </trkpt>
      <trkpt lat="42.87903" lon="1.30047">
        <ele>819.180664</ele>
        <time>2011-01-08T17:51:55Z</time>
      </trkpt>
      <trkpt lat="42.87915" lon="1.3005">
        <ele>815.335449</ele>
        <time>2011-01-08T17:52:10Z</time>
      </trkpt>
      <trkpt lat="42.87929" lon="1.30049">
        <ele>812.932129</ele>
        <time>2011-01-08T17:52:26Z</time>
      </trkpt>
      <trkpt lat="42.87953" lon="1.30041">
        <ele>807.164063</ele>
        <time>2011-01-08T17:52:51Z</time>
      </trkpt>
      <trkpt lat="42.8798" lon="1.30045">
        <ele>803.318848</ele>
        <time>2011-01-08T17:53:09Z</time>
      </trkpt>
      <trkpt lat="42.87999" lon="1.30048">
        <ele>797.070313</ele>
        <time>2011-01-08T17:53:33Z</time>
      </trkpt>
      <trkpt lat="42.88021" lon="1.30052">
        <ele>792.744385</ele>
        <time>2011-01-08T17:53:58Z</time>
      </trkpt>
      <trkpt lat="42.88029" lon="1.30065">
        <ele>792.263672</ele>
        <time>2011-01-08T17:54:09Z</time>
      </trkpt>
      <trkpt lat="42.88047" lon="1.30061">
        <ele>792.263672</ele>
        <time>2011-01-08T17:54:26Z</time>
      </trkpt>
      <trkpt lat="42.88061" lon="1.30065">
        <ele>792.263672</ele>
        <time>2011-01-08T17:54:39Z</time>
      </trkpt>
      <trkpt lat="42.88067" lon="1.30075">
        <ele>792.263672</ele>
        <time>2011-01-08T17:54:46Z</time>
      </trkpt>
      <trkpt lat="42.88071" lon="1.30087">
        <ele>792.744385</ele>
        <time>2011-01-08T17:54:54Z</time>
      </trkpt>
      <trkpt lat="42.88069" lon="1.30099">
        <ele>793.705566</ele>
        <time>2011-01-08T17:55:02Z</time>
      </trkpt>
      <trkpt lat="42.8807" lon="1.30109">
        <ele>792.744385</ele>
        <time>2011-01-08T17:55:09Z</time>
      </trkpt>
      <trkpt lat="42.88074" lon="1.3012">
        <ele>792.744385</ele>
        <time>2011-01-08T17:55:17Z</time>
      </trkpt>
      <trkpt lat="42.88077" lon="1.30132">
        <ele>792.744385</ele>
        <time>2011-01-08T17:55:24Z</time>
      </trkpt>
      <trkpt lat="42.88079" lon="1.30145">
        <ele>792.744385</ele>
        <time>2011-01-08T17:55:32Z</time>
      </trkpt>
      <trkpt lat="42.8808" lon="1.3016">
        <ele>791.782959</ele>
        <time>2011-01-08T17:55:41Z</time>
      </trkpt>
      <trkpt lat="42.88081" lon="1.30174">
        <ele>791.302246</ele>
        <time>2011-01-08T17:55:49Z</time>
      </trkpt>
      <trkpt lat="42.88081" lon="1.3019">
        <ele>790.341064</ele>
        <time>2011-01-08T17:55:58Z</time>
      </trkpt>
      <trkpt lat="42.88081" lon="1.30203">
        <ele>790.341064</ele>
        <time>2011-01-08T17:56:06Z</time>
      </trkpt>
      <trkpt lat="42.88082" lon="1.30215">
        <ele>789.379639</ele>
        <time>2011-01-08T17:56:14Z</time>
      </trkpt>
      <trkpt lat="42.88082" lon="1.30228">
        <ele>788.89917</ele>
        <time>2011-01-08T17:56:27Z</time>
      </trkpt>
      <trkpt lat="42.88082" lon="1.3024">
        <ele>787.457031</ele>
        <time>2011-01-08T17:56:37Z</time>
      </trkpt>
      <trkpt lat="42.88086" lon="1.30253">
        <ele>786.976318</ele>
        <time>2011-01-08T17:56:43Z</time>
      </trkpt>
      <trkpt lat="42.88088" lon="1.30267">
        <ele>786.976318</ele>
        <time>2011-01-08T17:56:49Z</time>
      </trkpt>
      <trkpt lat="42.88085" lon="1.30279">
        <ele>786.976318</ele>
        <time>2011-01-08T17:56:56Z</time>
      </trkpt>
      <trkpt lat="42.88087" lon="1.30292">
        <ele>786.976318</ele>
        <time>2011-01-08T17:57:05Z</time>
      </trkpt>
      <trkpt lat="42.88088" lon="1.3031">
        <ele>786.015137</ele>
        <time>2011-01-08T17:57:14Z</time>
      </trkpt>
      <trkpt lat="42.88093" lon="1.30325">
        <ele>784.573242</ele>
        <time>2011-01-08T17:57:24Z</time>
      </trkpt>
      <trkpt lat="42.88095" lon="1.30341">
        <ele>784.092529</ele>
        <time>2011-01-08T17:57:33Z</time>
      </trkpt>
      <trkpt lat="42.88097" lon="1.30354">
        <ele>782.650635</ele>
        <time>2011-01-08T17:57:41Z</time>
      </trkpt>
      <trkpt lat="42.881" lon="1.30372">
        <ele>781.689209</ele>
        <time>2011-01-08T17:57:51Z</time>
      </trkpt>
      <trkpt lat="42.88096" lon="1.30387">
        <ele>780.728027</ele>
        <time>2011-01-08T17:58:00Z</time>
      </trkpt>
      <trkpt lat="42.88093" lon="1.30405">
        <ele>779.766357</ele>
        <time>2011-01-08T17:58:08Z</time>
      </trkpt>
      <trkpt lat="42.88094" lon="1.3042">
        <ele>779.285645</ele>
        <time>2011-01-08T17:58:15Z</time>
      </trkpt>
      <trkpt lat="42.88092" lon="1.30434">
        <ele>778.805176</ele>
        <time>2011-01-08T17:58:23Z</time>
      </trkpt>
      <trkpt lat="42.8809" lon="1.30447">
        <ele>777.84375</ele>
        <time>2011-01-08T17:58:31Z</time>
      </trkpt>
      <trkpt lat="42.88092" lon="1.30459">
        <ele>776.882568</ele>
        <time>2011-01-08T17:58:39Z</time>
      </trkpt>
      <trkpt lat="42.88101" lon="1.30468">
        <ele>779.285645</ele>
        <time>2011-01-08T17:58:53Z</time>
      </trkpt>
      <trkpt lat="42.88116" lon="1.3048">
        <ele>780.728027</ele>
        <time>2011-01-08T17:59:04Z</time>
      </trkpt>
      <trkpt lat="42.88118" lon="1.30496">
        <ele>780.728027</ele>
        <time>2011-01-08T17:59:12Z</time>
      </trkpt>
      <trkpt lat="42.88116" lon="1.3051">
        <ele>780.728027</ele>
        <time>2011-01-08T17:59:20Z</time>
      </trkpt>
      <trkpt lat="42.88113" lon="1.30521">
        <ele>780.728027</ele>
        <time>2011-01-08T17:59:30Z</time>
      </trkpt>
      <trkpt lat="42.8811" lon="1.30539">
        <ele>781.20874</ele>
        <time>2011-01-08T17:59:44Z</time>
      </trkpt>
      <trkpt lat="42.88111" lon="1.30554">
        <ele>780.728027</ele>
        <time>2011-01-08T17:59:55Z</time>
      </trkpt>
      <trkpt lat="42.88113" lon="1.3057">
        <ele>780.247314</ele>
        <time>2011-01-08T18:00:08Z</time>
      </trkpt>
      <trkpt lat="42.88112" lon="1.30592">
        <ele>781.20874</ele>
        <time>2011-01-08T18:00:19Z</time>
      </trkpt>
      <trkpt lat="42.88114" lon="1.30607">
        <ele>780.728027</ele>
        <time>2011-01-08T18:00:29Z</time>
      </trkpt>
      <trkpt lat="42.88118" lon="1.30622">
        <ele>781.20874</ele>
        <time>2011-01-08T18:00:39Z</time>
      </trkpt>
      <trkpt lat="42.8812" lon="1.30641">
        <ele>781.20874</ele>
        <time>2011-01-08T18:00:49Z</time>
      </trkpt>
      <trkpt lat="42.88125" lon="1.30655">
        <ele>780.728027</ele>
        <time>2011-01-08T18:00:57Z</time>
      </trkpt>
      <trkpt lat="42.88116" lon="1.30664">
        <ele>778.805176</ele>
        <time>2011-01-08T18:01:06Z</time>
      </trkpt>
      <trkpt lat="42.88107" lon="1.30672">
        <ele>778.324463</ele>
        <time>2011-01-08T18:01:15Z</time>
      </trkpt>
      <trkpt lat="42.88097" lon="1.30683">
        <ele>778.324463</ele>
        <time>2011-01-08T18:01:24Z</time>
      </trkpt>
      <trkpt lat="42.88093" lon="1.30696">
        <ele>777.84375</ele>
        <time>2011-01-08T18:01:34Z</time>
      </trkpt>
      <trkpt lat="42.88083" lon="1.30703">
        <ele>777.84375</ele>
        <time>2011-01-08T18:02:00Z</time>
      </trkpt>
      <trkpt lat="42.88082" lon="1.30707">
        <ele>776.401855</ele>
        <time>2011-01-08T18:02:38Z</time>
      </trkpt>
      <trkpt lat="42.88081" lon="1.30705">
        <ele>775.921143</ele>
        <time>2011-01-08T18:03:14Z</time>
      </trkpt>
    </trkseg>
  </trk>
</gpx>